Darstellungsparameter: Aktuell verwendete Einstellungen:
Skalierung der Graphiken ... ?
xyx+y,   Skalierungsfaktor:      Skalierung: Modus: x, Faktor: 1
Darstellungszeitraum ... ?
Vom - - bis: - -   Zeitraum: 08.02.2014 - 07.08.2014
Min/Max/Avg-Anzeige ... ?
Zeige MMA aktuell
Zeige MMA Monat
Zeige MMA alles
Zeige --A aktuell
Zeige --A Monat
Zeige --A alles
Keine MMA-Anzeige
MMA:
Minimum Maximum Average (ber die Originaldaten)
MMA-Basis: 08.02.2014 - 07.08.2014
Quicknavigation für Darstellung... ?
Tage:      1T, 2T, 3T, 5T -1T -2T -3T -5T +1T +2T +3T +5T
Wochen: 1W, 2W, 3W -1W -2W -3W +1W +2W +3W
Monate: 1M, 3M, 6M -1M -3M -6M +1M +3M +6M
Jahre:    1J, 3J, 5J, 10J -1J -3J -5J -10J +1J +3J +5J +10J
Nutze für die Darstellung ... ?
Originaldaten oder Mittelwerte auf ...
Stundenbasis Tagesbasis Wochenbasis
Monatsbasis Jahresbasis      Datenbasis: Original-Daten
Darstellen als:
Statistik (Auto) Statistik J:M      Darstellung:
Zur Graphik,    zurück zur Übersicht aller Sensoren.
 
Tabellarische Datenbersicht: ?
 
Sensor: Nr:Datum:Temp:Feuchte:Taupunkt:
Aussen-T/F 1 08-02-2014 00:00:00 3.1 C 91 % 1.78 C
2 08-02-2014 00:05:00 2.9 C 92 % 1.73 C
3 08-02-2014 00:10:00 3 C 93 % 1.98 C
4 08-02-2014 00:15:00 3 C 93 % 1.98 C
5 08-02-2014 00:20:00 3 C 93 % 1.98 C
6 08-02-2014 00:25:00 2.9 C 93 % 1.88 C
7 08-02-2014 00:30:00 2.8 C 93 % 1.78 C
8 08-02-2014 00:35:00 2.8 C 93 % 1.78 C
9 08-02-2014 00:40:00 2.8 C 93 % 1.78 C
10 08-02-2014 00:45:00 2.8 C 93 % 1.78 C
11 08-02-2014 00:50:00 2.7 C 92 % 1.53 C
12 08-02-2014 00:55:00 2.6 C 93 % 1.59 C
13 08-02-2014 01:00:00 2.5 C 93 % 1.49 C
14 08-02-2014 01:05:00 2.4 C 93 % 1.39 C
15 08-02-2014 01:10:00 2.3 C 93 % 1.29 C
16 08-02-2014 01:15:00 2.3 C 93 % 1.29 C
17 08-02-2014 01:20:00 2.3 C 93 % 1.29 C
18 08-02-2014 01:25:00 2.3 C 93 % 1.29 C
19 08-02-2014 01:30:00 2.2 C 93 % 1.19 C
20 08-02-2014 01:35:00 2.2 C 93 % 1.19 C
21 08-02-2014 01:40:00 2.2 C 93 % 1.19 C
22 08-02-2014 01:45:00 2.2 C 93 % 1.19 C
23 08-02-2014 01:50:00 2.2 C 93 % 1.19 C
24 08-02-2014 01:55:00 2.2 C 93 % 1.19 C
25 08-02-2014 02:00:00 2.2 C 93 % 1.19 C
Sensor: Nr:Datum:Temp:Feuchte:Taupunkt:
Aussen-T/F 26 08-02-2014 02:05:00 2.2 C 93 % 1.19 C
27 08-02-2014 02:10:00 2.2 C 93 % 1.19 C
28 08-02-2014 02:15:00 2.3 C 93 % 1.29 C
29 08-02-2014 02:20:00 2.4 C 93 % 1.39 C
30 08-02-2014 02:25:00 2.5 C 93 % 1.49 C
31 08-02-2014 02:30:00 2.6 C 92 % 1.43 C
32 08-02-2014 02:35:00 2.6 C 92 % 1.43 C
33 08-02-2014 02:40:00 2.7 C 92 % 1.53 C
34 08-02-2014 02:45:00 2.6 C 92 % 1.43 C
35 08-02-2014 02:50:00 2.6 C 91 % 1.28 C
36 08-02-2014 02:55:00 2.6 C 92 % 1.43 C
37 08-02-2014 03:00:00 2.6 C 91 % 1.28 C
38 08-02-2014 03:05:00 2.6 C 91 % 1.28 C
39 08-02-2014 03:10:00 2.6 C 92 % 1.43 C
40 08-02-2014 03:15:00 2.8 C 92 % 1.63 C
41 08-02-2014 03:20:00 3.1 C 92 % 1.93 C
42 08-02-2014 03:25:00 3.4 C 91 % 2.07 C
43 08-02-2014 03:30:00 3.7 C 90 % 2.22 C
44 08-02-2014 03:35:00 4.1 C 88 % 2.3 C
45 08-02-2014 03:40:00 4.3 C 88 % 2.49 C
46 08-02-2014 03:45:00 4.4 C 87 % 2.43 C
47 08-02-2014 03:50:00 4.5 C 87 % 2.53 C
48 08-02-2014 03:55:00 4.5 C 87 % 2.53 C
49 08-02-2014 04:00:00 4.6 C 87 % 2.63 C
50 08-02-2014 04:05:00 4.6 C 86 % 2.47 C
Sensor: Nr:Datum:Temp:Feuchte:Taupunkt:
Aussen-T/F 51 08-02-2014 04:10:00 4.7 C 86 % 2.56 C
52 08-02-2014 04:15:00 5 C 86 % 2.86 C
53 08-02-2014 04:20:00 5.2 C 85 % 2.89 C
54 08-02-2014 04:25:00 5.4 C 84 % 2.92 C
55 08-02-2014 04:30:00 5.6 C 83 % 2.95 C
56 08-02-2014 04:35:00 5.7 C 83 % 3.04 C
57 08-02-2014 04:40:00 5.8 C 83 % 3.14 C
58 08-02-2014 04:45:00 5.8 C 83 % 3.14 C
59 08-02-2014 04:50:00 5.8 C 83 % 3.14 C
60 08-02-2014 04:55:00 5.8 C 83 % 3.14 C
61 08-02-2014 05:00:00 5.9 C 83 % 3.24 C
62 08-02-2014 05:05:00 5.9 C 82 % 3.07 C
63 08-02-2014 05:10:00 5.9 C 83 % 3.24 C
64 08-02-2014 05:15:00 5.9 C 82 % 3.07 C
65 08-02-2014 05:20:00 6 C 82 % 3.17 C
66 08-02-2014 05:25:00 6 C 83 % 3.34 C
67 08-02-2014 05:30:00 5.9 C 83 % 3.24 C
68 08-02-2014 05:35:00 5.9 C 83 % 3.24 C
69 08-02-2014 05:40:00 5.9 C 83 % 3.24 C
70 08-02-2014 05:45:00 6 C 83 % 3.34 C
71 08-02-2014 05:50:00 5.9 C 83 % 3.24 C
72 08-02-2014 05:55:00 5.9 C 83 % 3.24 C
73 08-02-2014 06:00:00 5.9 C 84 % 3.41 C
74 08-02-2014 06:05:00 5.9 C 84 % 3.41 C
75 08-02-2014 06:10:00 5.9 C 84 % 3.41 C
Sensor: Nr:Datum:Temp:Feuchte:Taupunkt:
Aussen-T/F 76 08-02-2014 06:15:00 5.9 C 84 % 3.41 C
77 08-02-2014 06:20:00 5.9 C 84 % 3.41 C
78 08-02-2014 06:25:00 5.8 C 84 % 3.31 C
79 08-02-2014 06:30:00 6.1 C 83 % 3.44 C
80 08-02-2014 06:35:00 6.1 C 83 % 3.44 C
81 08-02-2014 06:40:00 6.2 C 83 % 3.53 C
82 08-02-2014 06:45:00 6.2 C 83 % 3.53 C
83 08-02-2014 06:50:00 6.2 C 83 % 3.53 C
84 08-02-2014 06:55:00 6.2 C 83 % 3.53 C
85 08-02-2014 07:00:00 6.2 C 83 % 3.53 C
86 08-02-2014 07:05:00 6.2 C 83 % 3.53 C
87 08-02-2014 07:10:00 6.2 C 83 % 3.53 C
88 08-02-2014 07:15:00 6.3 C 82 % 3.46 C
89 08-02-2014 07:20:00 6.4 C 82 % 3.56 C
90 08-02-2014 07:25:00 6.6 C 81 % 3.58 C
91 08-02-2014 07:30:00 6.7 C 80 % 3.5 C
92 08-02-2014 07:35:00 6.7 C 80 % 3.5 C
93 08-02-2014 07:40:00 6.7 C 80 % 3.5 C
94 08-02-2014 07:45:00 6.8 C 80 % 3.6 C
95 08-02-2014 07:50:00 6.8 C 79 % 3.42 C
96 08-02-2014 07:55:00 6.8 C 79 % 3.42 C
97 08-02-2014 08:00:00 6.9 C 79 % 3.52 C
98 08-02-2014 08:05:00 6.9 C 79 % 3.52 C
99 08-02-2014 08:10:00 6.9 C 79 % 3.52 C
100 08-02-2014 08:15:00 7 C 79 % 3.61 C
Sensor: Nr:Datum:Temp:Feuchte:Taupunkt:
Aussen-T/F 101 08-02-2014 08:20:00 7.1 C 78 % 3.53 C
102 08-02-2014 08:25:00 7.3 C 77 % 3.54 C
103 08-02-2014 08:30:00 7.3 C 76 % 3.36 C
104 08-02-2014 08:35:00 7.4 C 76 % 3.45 C
105 08-02-2014 08:40:00 7.4 C 76 % 3.45 C
106 08-02-2014 08:45:00 7.4 C 76 % 3.45 C
107 08-02-2014 08:50:00 7.4 C 76 % 3.45 C
108 08-02-2014 08:55:00 7.4 C 76 % 3.45 C
109 08-02-2014 09:00:00 7.6 C 75 % 3.46 C
110 08-02-2014 09:05:00 7.6 C 75 % 3.46 C
111 08-02-2014 09:10:00 7.7 C 75 % 3.56 C
112 08-02-2014 09:15:00 7.7 C 75 % 3.56 C
113 08-02-2014 09:20:00 7.7 C 75 % 3.56 C
114 08-02-2014 09:25:00 7.8 C 74 % 3.46 C
115 08-02-2014 09:30:00 7.8 C 74 % 3.46 C
116 08-02-2014 09:35:00 7.8 C 73 % 3.27 C
117 08-02-2014 09:40:00 7.9 C 73 % 3.37 C
118 08-02-2014 09:45:00 7.9 C 73 % 3.37 C
119 08-02-2014 09:50:00 7.9 C 74 % 3.56 C
120 08-02-2014 09:55:00 8 C 74 % 3.66 C
121 08-02-2014 10:00:00 8 C 74 % 3.66 C
122 08-02-2014 10:05:00 8 C 74 % 3.66 C
123 08-02-2014 10:10:00 8 C 74 % 3.66 C
124 08-02-2014 10:15:00 8.1 C 74 % 3.75 C
125 08-02-2014 10:20:00 8.2 C 73 % 3.66 C
Sensor: Nr:Datum:Temp:Feuchte:Taupunkt:
Aussen-T/F 126 08-02-2014 10:25:00 8.2 C 73 % 3.66 C
127 08-02-2014 10:30:00 8.3 C 73 % 3.75 C
128 08-02-2014 10:35:00 8.3 C 72 % 3.56 C
129 08-02-2014 10:40:00 8.4 C 73 % 3.85 C
130 08-02-2014 10:45:00 8.5 C 72 % 3.75 C
131 08-02-2014 10:50:00 8.6 C 72 % 3.85 C
132 08-02-2014 10:55:00 8.7 C 71 % 3.74 C
133 08-02-2014 11:00:00 8.8 C 73 % 4.24 C
134 08-02-2014 11:05:00 8.9 C 71 % 3.94 C
135 08-02-2014 11:10:00 9.1 C 70 % 3.93 C
136 08-02-2014 11:15:00 9.2 C 71 % 4.22 C
137 08-02-2014 11:20:00 9.2 C 71 % 4.22 C
138 08-02-2014 11:25:00 9.3 C 70 % 4.12 C
139 08-02-2014 11:30:00 9.4 C 69 % 4.01 C
140 08-02-2014 11:35:00 9.4 C 69 % 4.01 C
141 08-02-2014 11:40:00 9.4 C 68 % 3.8 C
142 08-02-2014 11:45:00 9.4 C 69 % 4.01 C
143 08-02-2014 11:50:00 9.4 C 68 % 3.8 C
144 08-02-2014 11:55:00 9.5 C 68 % 3.9 C
145 08-02-2014 12:00:00 9.5 C 68 % 3.9 C
146 08-02-2014 12:05:00 9.6 C 70 % 4.41 C
147 08-02-2014 12:10:00 9.6 C 69 % 4.2 C
148 08-02-2014 12:15:00 9.7 C 68 % 4.09 C
149 08-02-2014 12:20:00 9.8 C 69 % 4.39 C
150 08-02-2014 12:25:00 9.8 C 71 % 4.8 C
Sensor: Nr:Datum:Temp:Feuchte:Taupunkt:
Aussen-T/F 151 08-02-2014 12:30:00 9.8 C 73 % 5.2 C
152 08-02-2014 12:35:00 9.8 C 72 % 5 C
153 08-02-2014 12:40:00 9.6 C 73 % 5.01 C
154 08-02-2014 12:45:00 9.4 C 74 % 5.01 C
155 08-02-2014 12:50:00 9.3 C 76 % 5.29 C
156 08-02-2014 12:55:00 9.2 C 76 % 5.2 C
157 08-02-2014 13:00:00 9 C 78 % 5.38 C
158 08-02-2014 13:05:00 8.8 C 78 % 5.18 C
159 08-02-2014 13:10:00 8.7 C 80 % 5.45 C
160 08-02-2014 13:15:00 8.7 C 81 % 5.63 C
161 08-02-2014 13:20:00 8.7 C 81 % 5.63 C
162 08-02-2014 13:25:00 8.7 C 79 % 5.27 C
163 08-02-2014 13:30:00 8.7 C 79 % 5.27 C
164 08-02-2014 13:35:00 8.7 C 81 % 5.63 C
165 08-02-2014 13:40:00 8.8 C 79 % 5.36 C
166 08-02-2014 13:45:00 8.9 C 79 % 5.46 C
167 08-02-2014 13:50:00 8.9 C 79 % 5.46 C
168 08-02-2014 13:55:00 8.9 C 79 % 5.46 C
169 08-02-2014 14:00:00 8.8 C 79 % 5.36 C
170 08-02-2014 14:05:00 8.8 C 80 % 5.55 C
171 08-02-2014 14:10:00 8.8 C 80 % 5.55 C
172 08-02-2014 14:15:00 8.7 C 79 % 5.27 C
173 08-02-2014 14:20:00 8.7 C 80 % 5.45 C
174 08-02-2014 14:25:00 8.6 C 81 % 5.53 C
175 08-02-2014 14:30:00 8.4 C 82 % 5.51 C
Sensor: Nr:Datum:Temp:Feuchte:Taupunkt:
Aussen-T/F 176 08-02-2014 14:35:00 8.3 C 82 % 5.41 C
177 08-02-2014 14:40:00 8.2 C 83 % 5.49 C
178 08-02-2014 14:45:00 8.2 C 84 % 5.66 C
179 08-02-2014 14:50:00 8.1 C 84 % 5.56 C
180 08-02-2014 14:55:00 8 C 85 % 5.64 C
181 08-02-2014 15:00:00 7.9 C 85 % 5.54 C
182 08-02-2014 15:05:00 7.8 C 86 % 5.61 C
183 08-02-2014 15:10:00 7.8 C 86 % 5.61 C
184 08-02-2014 15:15:00 7.8 C 87 % 5.78 C
185 08-02-2014 15:20:00 7.7 C 86 % 5.51 C
186 08-02-2014 15:25:00 7.7 C 86 % 5.51 C
187 08-02-2014 15:30:00 7.7 C 87 % 5.68 C
188 08-02-2014 15:35:00 7.7 C 87 % 5.68 C
189 08-02-2014 15:40:00 7.7 C 87 % 5.68 C
190 08-02-2014 15:45:00 7.6 C 88 % 5.74 C
191 08-02-2014 15:50:00 7.6 C 89 % 5.91 C
192 08-02-2014 15:55:00 7.6 C 88 % 5.74 C
193 08-02-2014 16:00:00 7.6 C 89 % 5.91 C
194 08-02-2014 16:05:00 7.4 C 89 % 5.71 C
195 08-02-2014 16:10:00 7.4 C 90 % 5.87 C
196 08-02-2014 16:15:00 7.3 C 89 % 5.61 C
197 08-02-2014 16:20:00 7.3 C 90 % 5.77 C
198 08-02-2014 16:25:00 7.2 C 91 % 5.83 C
199 08-02-2014 16:30:00 7.1 C 91 % 5.73 C
200 08-02-2014 16:35:00 7.1 C 92 % 5.89 C
Sensor: Nr:Datum:Temp:Feuchte:Taupunkt:
Aussen-T/F 201 08-02-2014 16:40:00 7 C 92 % 5.79 C
202 08-02-2014 16:45:00 6.9 C 92 % 5.69 C
203 08-02-2014 16:50:00 6.9 C 92 % 5.69 C
204 08-02-2014 16:55:00 6.8 C 91 % 5.44 C
205 08-02-2014 17:00:00 6.8 C 92 % 5.59 C
206 08-02-2014 17:05:00 6.8 C 92 % 5.59 C
207 08-02-2014 17:10:00 6.7 C 92 % 5.49 C
208 08-02-2014 17:15:00 6.7 C 92 % 5.49 C
209 08-02-2014 17:20:00 6.6 C 92 % 5.4 C
210 08-02-2014 17:25:00 6.5 C 92 % 5.3 C
211 08-02-2014 17:30:00 6.4 C 93 % 5.35 C
212 08-02-2014 17:35:00 6.3 C 92 % 5.1 C
213 08-02-2014 17:40:00 6.3 C 92 % 5.1 C
214 08-02-2014 17:45:00 6.3 C 92 % 5.1 C
215 08-02-2014 17:50:00 6.2 C 93 % 5.15 C
216 08-02-2014 17:55:00 6.1 C 93 % 5.06 C
217 08-02-2014 18:00:00 6 C 94 % 5.11 C
218 08-02-2014 18:05:00 5.9 C 94 % 5.01 C
219 08-02-2014 18:10:00 5.9 C 94 % 5.01 C
220 08-02-2014 18:15:00 5.9 C 94 % 5.01 C
221 08-02-2014 18:20:00 5.9 C 94 % 5.01 C
222 08-02-2014 18:25:00 5.9 C 94 % 5.01 C
223 08-02-2014 18:30:00 6 C 94 % 5.11 C
224 08-02-2014 18:35:00 6 C 94 % 5.11 C
225 08-02-2014 18:40:00 6.1 C 93 % 5.06 C
Sensor: Nr:Datum:Temp:Feuchte:Taupunkt:
Aussen-T/F 226 08-02-2014 18:45:00 6.3 C 92 % 5.1 C
227 08-02-2014 18:50:00 6.3 C 91 % 4.94 C
228 08-02-2014 18:55:00 6.4 C 91 % 5.04 C
229 08-02-2014 19:00:00 6.6 C 90 % 5.08 C
230 08-02-2014 19:05:00 6.7 C 89 % 5.02 C
231 08-02-2014 19:10:00 6.8 C 89 % 5.12 C
232 08-02-2014 19:15:00 6.8 C 89 % 5.12 C
233 08-02-2014 19:20:00 6.8 C 89 % 5.12 C
234 08-02-2014 19:25:00 6.8 C 89 % 5.12 C
235 08-02-2014 19:30:00 6.8 C 89 % 5.12 C
236 08-02-2014 19:35:00 6.8 C 90 % 5.28 C
237 08-02-2014 19:40:00 6.8 C 90 % 5.28 C
238 08-02-2014 19:45:00 6.8 C 90 % 5.28 C
239 08-02-2014 19:50:00 6.8 C 90 % 5.28 C
240 08-02-2014 19:55:00 6.9 C 89 % 5.22 C
241 08-02-2014 20:00:00 6.9 C 89 % 5.22 C
242 08-02-2014 20:05:00 7 C 89 % 5.31 C
243 08-02-2014 20:10:00 7.1 C 88 % 5.25 C
244 08-02-2014 20:15:00 7.1 C 88 % 5.25 C
245 08-02-2014 20:20:00 7.1 C 88 % 5.25 C
246 08-02-2014 20:25:00 7.1 C 88 % 5.25 C
247 08-02-2014 20:30:00 7.1 C 87 % 5.09 C
248 08-02-2014 20:35:00 7.2 C 87 % 5.19 C
249 08-02-2014 20:40:00 7.2 C 86 % 5.02 C
250 08-02-2014 20:45:00 7.2 C 87 % 5.19 C
Sensor: Nr:Datum:Temp:Feuchte:Taupunkt:
Aussen-T/F 251 08-02-2014 20:50:00 7.1 C 86 % 4.92 C
252 08-02-2014 20:55:00 7.1 C 86 % 4.92 C
253 08-02-2014 21:00:00 7.1 C 86 % 4.92 C
254 08-02-2014 21:05:00 7.1 C 85 % 4.75 C
255 08-02-2014 21:10:00 7.1 C 85 % 4.75 C
256 08-02-2014 21:15:00 7.2 C 84 % 4.68 C
257 08-02-2014 21:20:00 7.2 C 84 % 4.68 C
258 08-02-2014 21:25:00 7.2 C 84 % 4.68 C
259 08-02-2014 21:30:00 7.2 C 83 % 4.51 C
260 08-02-2014 21:35:00 7.2 C 82 % 4.34 C
261 08-02-2014 21:40:00 7.2 C 82 % 4.34 C
262 08-02-2014 21:45:00 7.1 C 81 % 4.07 C
263 08-02-2014 21:50:00 7.1 C 83 % 4.41 C
264 08-02-2014 21:55:00 6.8 C 83 % 4.12 C
265 08-02-2014 22:00:00 6.8 C 84 % 4.29 C
266 08-02-2014 22:05:00 6.8 C 83 % 4.12 C
267 08-02-2014 22:10:00 6.8 C 83 % 4.12 C
268 08-02-2014 22:15:00 6.8 C 83 % 4.12 C
269 08-02-2014 22:20:00 6.7 C 83 % 4.02 C
270 08-02-2014 22:25:00 6.7 C 84 % 4.19 C
271 08-02-2014 22:30:00 6.8 C 82 % 3.95 C
272 08-02-2014 22:35:00 7.1 C 81 % 4.07 C
273 08-02-2014 22:40:00 7.2 C 80 % 3.99 C
274 08-02-2014 22:45:00 7.4 C 79 % 4 C
275 08-02-2014 22:50:00 7.5 C 79 % 4.1 C
Sensor: Nr:Datum:Temp:Feuchte:Taupunkt:
Aussen-T/F 276 08-02-2014 22:55:00 7.6 C 79 % 4.2 C
277 08-02-2014 23:00:00 7.6 C 78 % 4.02 C
278 08-02-2014 23:05:00 7.4 C 78 % 3.82 C
279 08-02-2014 23:10:00 7.2 C 78 % 3.63 C
280 08-02-2014 23:15:00 7 C 79 % 3.61 C
281 08-02-2014 23:20:00 6.9 C 79 % 3.52 C
282 08-02-2014 23:25:00 6.9 C 79 % 3.52 C
283 08-02-2014 23:30:00 6.8 C 79 % 3.42 C
284 08-02-2014 23:35:00 6.8 C 78 % 3.24 C
285 08-02-2014 23:40:00 6.8 C 78 % 3.24 C
286 08-02-2014 23:45:00 6.9 C 78 % 3.34 C
287 08-02-2014 23:50:00 6.8 C 78 % 3.24 C
288 08-02-2014 23:55:00 6.7 C 78 % 3.14 C
289 09-02-2014 00:00:00 6.7 C 78 % 3.14 C
290 09-02-2014 00:05:00 6.7 C 78 % 3.14 C
291 09-02-2014 00:10:00 6.7 C 78 % 3.14 C
292 09-02-2014 00:15:00 6.8 C 77 % 3.06 C
293 09-02-2014 00:20:00 7 C 76 % 3.07 C
294 09-02-2014 00:25:00 7.2 C 77 % 3.45 C
295 09-02-2014 00:30:00 6.8 C 81 % 3.77 C
296 09-02-2014 00:35:00 6.3 C 83 % 3.63 C
297 09-02-2014 00:40:00 5.9 C 84 % 3.41 C
298 09-02-2014 00:45:00 5.6 C 85 % 3.28 C
299 09-02-2014 00:50:00 5.4 C 86 % 3.25 C
300 09-02-2014 00:55:00 5.2 C 87 % 3.22 C
Sensor: Nr:Datum:Temp:Feuchte:Taupunkt:
Aussen-T/F 301 09-02-2014 01:00:00 4.9 C 87 % 2.92 C
302 09-02-2014 01:05:00 4.8 C 88 % 2.99 C
303 09-02-2014 01:10:00 4.8 C 88 % 2.99 C
304 09-02-2014 01:15:00 4.7 C 88 % 2.89 C
305 09-02-2014 01:20:00 4.6 C 88 % 2.79 C
306 09-02-2014 01:25:00 4.6 C 89 % 2.95 C
307 09-02-2014 01:30:00 4.5 C 89 % 2.85 C
308 09-02-2014 01:35:00 4.4 C 89 % 2.75 C
309 09-02-2014 01:40:00 4.2 C 90 % 2.71 C
310 09-02-2014 01:45:00 4.1 C 90 % 2.61 C
311 09-02-2014 01:50:00 3.9 C 90 % 2.41 C
312 09-02-2014 01:55:00 3.8 C 91 % 2.47 C
313 09-02-2014 02:00:00 3.9 C 91 % 2.57 C
314 09-02-2014 02:05:00 4 C 90 % 2.51 C
315 09-02-2014 02:10:00 4 C 90 % 2.51 C
316 09-02-2014 02:15:00 4.1 C 89 % 2.45 C
317 09-02-2014 02:20:00 4.2 C 89 % 2.55 C
318 09-02-2014 02:25:00 4.3 C 88 % 2.49 C
319 09-02-2014 02:30:00 4.4 C 88 % 2.59 C
320 09-02-2014 02:35:00 4.5 C 88 % 2.69 C
321 09-02-2014 02:40:00 4.7 C 87 % 2.73 C
322 09-02-2014 02:45:00 4.8 C 86 % 2.66 C
323 09-02-2014 02:50:00 5.1 C 84 % 2.63 C
324 09-02-2014 02:55:00 5.3 C 83 % 2.65 C
325 09-02-2014 03:00:00 5.4 C 83 % 2.75 C
Sensor: Nr:Datum:Temp:Feuchte:Taupunkt:
Aussen-T/F 326 09-02-2014 03:05:00 5.6 C 82 % 2.78 C
327 09-02-2014 03:10:00 5.6 C 82 % 2.78 C
328 09-02-2014 03:15:00 5.7 C 81 % 2.7 C
329 09-02-2014 03:20:00 5.8 C 81 % 2.8 C
330 09-02-2014 03:25:00 5.8 C 81 % 2.8 C
331 09-02-2014 03:30:00 5.9 C 81 % 2.9 C
332 09-02-2014 03:35:00 5.9 C 81 % 2.9 C
333 09-02-2014 03:40:00 5.8 C 81 % 2.8 C
334 09-02-2014 03:45:00 5.9 C 80 % 2.72 C
335 09-02-2014 03:50:00 5.8 C 81 % 2.8 C
336 09-02-2014 03:55:00 5.8 C 81 % 2.8 C
337 09-02-2014 04:00:00 5.7 C 81 % 2.7 C
338 09-02-2014 04:05:00 5.7 C 82 % 2.87 C
339 09-02-2014 04:10:00 5.8 C 81 % 2.8 C
340 09-02-2014 04:15:00 5.9 C 81 % 2.9 C
341 09-02-2014 04:20:00 5.9 C 81 % 2.9 C
342 09-02-2014 04:25:00 5.8 C 82 % 2.97 C
343 09-02-2014 04:30:00 5.8 C 82 % 2.97 C
344 09-02-2014 04:35:00 5.7 C 82 % 2.87 C
345 09-02-2014 04:40:00 5.8 C 81 % 2.8 C
346 09-02-2014 04:45:00 5.8 C 82 % 2.97 C
347 09-02-2014 04:50:00 5.8 C 82 % 2.97 C
348 09-02-2014 04:55:00 5.8 C 82 % 2.97 C
349 09-02-2014 05:00:00 5.8 C 82 % 2.97 C
350 09-02-2014 05:05:00 5.8 C 82 % 2.97 C
Sensor: Nr:Datum:Temp:Feuchte:Taupunkt:
Aussen-T/F 351 09-02-2014 05:10:00 5.8 C 82 % 2.97 C
352 09-02-2014 05:15:00 5.9 C 82 % 3.07 C
353 09-02-2014 05:20:00 6 C 81 % 2.99 C
354 09-02-2014 05:25:00 6 C 82 % 3.17 C
355 09-02-2014 05:30:00 6 C 81 % 2.99 C
356 09-02-2014 05:35:00 6 C 81 % 2.99 C
357 09-02-2014 05:40:00 5.9 C 81 % 2.9 C
358 09-02-2014 05:45:00 5.9 C 81 % 2.9 C
359 09-02-2014 05:50:00 5.9 C 81 % 2.9 C
360 09-02-2014 05:55:00 6 C 81 % 2.99 C
361 09-02-2014 06:00:00 6 C 81 % 2.99 C
362 09-02-2014 06:05:00 5.9 C 81 % 2.9 C
363 09-02-2014 06:10:00 5.9 C 82 % 3.07 C
364 09-02-2014 06:15:00 5.8 C 82 % 2.97 C
365 09-02-2014 06:20:00 5.7 C 83 % 3.04 C
366 09-02-2014 06:25:00 5.7 C 83 % 3.04 C
367 09-02-2014 06:30:00 5.7 C 82 % 2.87 C
368 09-02-2014 06:35:00 5.7 C 83 % 3.04 C
369 09-02-2014 06:40:00 5.6 C 83 % 2.95 C
370 09-02-2014 06:45:00 5.4 C 83 % 2.75 C
371 09-02-2014 06:50:00 5.4 C 83 % 2.75 C
372 09-02-2014 06:55:00 5.4 C 83 % 2.75 C
373 09-02-2014 07:00:00 5.4 C 83 % 2.75 C
374 09-02-2014 07:05:00 5.6 C 83 % 2.95 C
375 09-02-2014 07:10:00 5.6 C 83 % 2.95 C
Sensor: Nr:Datum:Temp:Feuchte:Taupunkt:
Aussen-T/F 376 09-02-2014 07:15:00 5.7 C 83 % 3.04 C
377 09-02-2014 07:20:00 5.7 C 83 % 3.04 C
378 09-02-2014 07:25:00 5.7 C 81 % 2.7 C
379 09-02-2014 07:30:00 5.7 C 81 % 2.7 C
380 09-02-2014 07:35:00 5.7 C 81 % 2.7 C
381 09-02-2014 07:40:00 5.7 C 81 % 2.7 C
382 09-02-2014 07:45:00 5.7 C 81 % 2.7 C
383 09-02-2014 07:50:00 5.7 C 81 % 2.7 C
384 09-02-2014 07:55:00 5.6 C 81 % 2.6 C
385 09-02-2014 08:00:00 5.6 C 82 % 2.78 C
386 09-02-2014 08:05:00 5.6 C 82 % 2.78 C
387 09-02-2014 08:10:00 5.6 C 81 % 2.6 C
388 09-02-2014 08:15:00 5.7 C 81 % 2.7 C
389 09-02-2014 08:20:00 5.7 C 81 % 2.7 C
390 09-02-2014 08:25:00 5.8 C 81 % 2.8 C
391 09-02-2014 08:30:00 5.8 C 82 % 2.97 C
392 09-02-2014 08:35:00 5.8 C 81 % 2.8 C
393 09-02-2014 08:40:00 5.7 C 81 % 2.7 C
394 09-02-2014 08:45:00 5.8 C 81 % 2.8 C
395 09-02-2014 08:50:00 5.8 C 80 % 2.62 C
396 09-02-2014 08:55:00 5.8 C 80 % 2.62 C
397 09-02-2014 09:00:00 5.8 C 80 % 2.62 C
398 09-02-2014 09:05:00 5.8 C 80 % 2.62 C
399 09-02-2014 09:10:00 5.9 C 79 % 2.54 C
400 09-02-2014 09:15:00 5.9 C 79 % 2.54 C
Sensor: Nr:Datum:Temp:Feuchte:Taupunkt:
Aussen-T/F 401 09-02-2014 09:20:00 6 C 79 % 2.64 C
402 09-02-2014 09:25:00 6 C 79 % 2.64 C
403 09-02-2014 09:30:00 5.9 C 80 % 2.72 C
404 09-02-2014 09:35:00 5.9 C 81 % 2.9 C
405 09-02-2014 09:40:00 5.9 C 81 % 2.9 C
406 09-02-2014 09:45:00 5.9 C 81 % 2.9 C
407 09-02-2014 09:50:00 5.9 C 82 % 3.07 C
408 09-02-2014 09:55:00 5.9 C 81 % 2.9 C
409 09-02-2014 10:00:00 5.8 C 81 % 2.8 C
410 09-02-2014 10:05:00 5.8 C 80 % 2.62 C
411 09-02-2014 10:10:00 5.9 C 80 % 2.72 C
412 09-02-2014 10:15:00 6 C 80 % 2.82 C
413 09-02-2014 10:20:00 6.2 C 79 % 2.84 C
414 09-02-2014 10:25:00 6.3 C 78 % 2.75 C
415 09-02-2014 10:30:00 6.4 C 78 % 2.85 C
416 09-02-2014 10:35:00 6.6 C 76 % 2.68 C
417 09-02-2014 10:40:00 6.7 C 76 % 2.78 C
418 09-02-2014 10:45:00 6.7 C 76 % 2.78 C
419 09-02-2014 10:50:00 6.7 C 77 % 2.96 C
420 09-02-2014 10:55:00 6.6 C 77 % 2.86 C
421 09-02-2014 11:00:00 6.4 C 77 % 2.67 C
422 09-02-2014 11:05:00 6.4 C 77 % 2.67 C
423 09-02-2014 11:10:00 6.6 C 78 % 3.05 C
424 09-02-2014 11:15:00 6.6 C 78 % 3.05 C
425 09-02-2014 11:20:00 6.5 C 78 % 2.95 C
Sensor: Nr:Datum:Temp:Feuchte:Taupunkt:
Aussen-T/F 426 09-02-2014 11:25:00 6.6 C 79 % 3.23 C
427 09-02-2014 11:30:00 6.6 C 78 % 3.05 C
428 09-02-2014 11:35:00 6.6 C 78 % 3.05 C
429 09-02-2014 11:40:00 6.6 C 78 % 3.05 C
430 09-02-2014 11:45:00 6.5 C 76 % 2.58 C
431 09-02-2014 11:50:00 6.7 C 76 % 2.78 C
432 09-02-2014 11:55:00 6.8 C 76 % 2.87 C
433 09-02-2014 12:00:00 6.9 C 75 % 2.78 C
434 09-02-2014 12:05:00 6.9 C 74 % 2.6 C
435 09-02-2014 12:10:00 7 C 74 % 2.69 C
436 09-02-2014 12:15:00 7.1 C 75 % 2.98 C
437 09-02-2014 12:20:00 7 C 74 % 2.69 C
438 09-02-2014 12:25:00 6.9 C 75 % 2.78 C
439 09-02-2014 12:30:00 6.9 C 74 % 2.6 C
440 09-02-2014 12:35:00 7.1 C 73 % 2.6 C
441 09-02-2014 12:40:00 7.3 C 72 % 2.6 C
442 09-02-2014 12:45:00 7.5 C 71 % 2.59 C
443 09-02-2014 12:50:00 7.6 C 69 % 2.29 C
444 09-02-2014 12:55:00 7.7 C 68 % 2.18 C
445 09-02-2014 13:00:00 7.7 C 69 % 2.38 C
446 09-02-2014 13:05:00 7.7 C 70 % 2.58 C
447 09-02-2014 13:10:00 7.7 C 69 % 2.38 C
448 09-02-2014 13:15:00 7.8 C 69 % 2.48 C
449 09-02-2014 13:20:00 7.8 C 68 % 2.27 C
450 09-02-2014 13:25:00 7.9 C 66 % 1.95 C
Sensor: Nr:Datum:Temp:Feuchte:Taupunkt:
Aussen-T/F 451 09-02-2014 13:30:00 7.8 C 66 % 1.86 C
452 09-02-2014 13:35:00 7.8 C 67 % 2.07 C
453 09-02-2014 13:40:00 7.8 C 67 % 2.07 C
454 09-02-2014 13:45:00 7.7 C 69 % 2.38 C
455 09-02-2014 13:50:00 7.5 C 70 % 2.39 C
456 09-02-2014 13:55:00 7.5 C 70 % 2.39 C
457 09-02-2014 14:00:00 7.5 C 70 % 2.39 C
458 09-02-2014 14:05:00 7.3 C 71 % 2.4 C
459 09-02-2014 14:10:00 6.9 C 74 % 2.6 C
460 09-02-2014 14:15:00 6.8 C 75 % 2.69 C
461 09-02-2014 14:20:00 6.8 C 75 % 2.69 C
462 09-02-2014 14:25:00 6.8 C 76 % 2.87 C
463 09-02-2014 14:30:00 6.8 C 76 % 2.87 C
464 09-02-2014 14:35:00 6.8 C 78 % 3.24 C
465 09-02-2014 14:40:00 6.7 C 79 % 3.32 C
466 09-02-2014 14:45:00 6.7 C 77 % 2.96 C
467 09-02-2014 14:50:00 6.7 C 78 % 3.14 C
468 09-02-2014 14:55:00 6.7 C 77 % 2.96 C
469 09-02-2014 15:00:00 6.8 C 75 % 2.69 C
470 09-02-2014 15:05:00 6.9 C 73 % 2.4 C
471 09-02-2014 15:10:00 7 C 72 % 2.31 C
472 09-02-2014 15:15:00 7.3 C 71 % 2.4 C
473 09-02-2014 15:20:00 7.6 C 69 % 2.29 C
474 09-02-2014 15:25:00 7.7 C 67 % 1.97 C
475 09-02-2014 15:30:00 7.7 C 68 % 2.18 C
Sensor: Nr:Datum:Temp:Feuchte:Taupunkt:
Aussen-T/F 476 09-02-2014 15:35:00 7.7 C 68 % 2.18 C
477 09-02-2014 15:40:00 7.6 C 69 % 2.29 C
478 09-02-2014 15:45:00 7.4 C 69 % 2.1 C
479 09-02-2014 15:50:00 7.1 C 70 % 2.01 C
480 09-02-2014 15:55:00 7 C 71 % 2.11 C
481 09-02-2014 16:00:00 6.9 C 71 % 2.02 C
482 09-02-2014 16:05:00 6.9 C 71 % 2.02 C
483 09-02-2014 16:10:00 6.9 C 70 % 1.82 C
484 09-02-2014 16:15:00 6.9 C 71 % 2.02 C
485 09-02-2014 16:20:00 6.9 C 70 % 1.82 C
486 09-02-2014 16:25:00 6.8 C 71 % 1.92 C
487 09-02-2014 16:30:00 6.8 C 71 % 1.92 C
488 09-02-2014 16:35:00 6.8 C 71 % 1.92 C
489 09-02-2014 16:40:00 6.7 C 71 % 1.82 C
490 09-02-2014 16:45:00 6.7 C 71 % 1.82 C
491 09-02-2014 16:50:00 6.7 C 72 % 2.02 C
492 09-02-2014 16:55:00 6.7 C 71 % 1.82 C
493 09-02-2014 17:00:00 6.7 C 70 % 1.63 C
494 09-02-2014 17:05:00 6.7 C 70 % 1.63 C
495 09-02-2014 17:10:00 6.5 C 71 % 1.63 C
496 09-02-2014 17:15:00 6.4 C 72 % 1.73 C
497 09-02-2014 17:20:00 6.4 C 71 % 1.54 C
498 09-02-2014 17:25:00 6.4 C 71 % 1.54 C
499 09-02-2014 17:30:00 6.4 C 72 % 1.73 C
500 09-02-2014 17:35:00 6.3 C 73 % 1.83 C
Sensor: Nr:Datum:Temp:Feuchte:Taupunkt:
Aussen-T/F 501 09-02-2014 17:40:00 6.1 C 74 % 1.82 C
502 09-02-2014 17:45:00 5.8 C 74 % 1.53 C
503 09-02-2014 17:50:00 5.7 C 74 % 1.44 C
504 09-02-2014 17:55:00 5.7 C 74 % 1.44 C
505 09-02-2014 18:00:00 5.6 C 75 % 1.53 C
506 09-02-2014 18:05:00 5.2 C 77 % 1.51 C
507 09-02-2014 18:10:00 4.7 C 79 % 1.38 C
508 09-02-2014 18:15:00 4.4 C 80 % 1.26 C
509 09-02-2014 18:20:00 4.3 C 81 % 1.34 C
510 09-02-2014 18:25:00 4.1 C 82 % 1.31 C
511 09-02-2014 18:30:00 3.9 C 83 % 1.28 C
512 09-02-2014 18:35:00 3.8 C 83 % 1.19 C
513 09-02-2014 18:40:00 3.6 C 84 % 1.16 C
514 09-02-2014 18:45:00 3.4 C 85 % 1.12 C
515 09-02-2014 18:50:00 3.4 C 86 % 1.29 C
516 09-02-2014 18:55:00 3.6 C 86 % 1.48 C
517 09-02-2014 19:00:00 3.9 C 86 % 1.78 C
518 09-02-2014 19:05:00 3.9 C 86 % 1.78 C
519 09-02-2014 19:10:00 3.9 C 85 % 1.61 C
520 09-02-2014 19:15:00 3.9 C 85 % 1.61 C
521 09-02-2014 19:20:00 4 C 85 % 1.71 C
522 09-02-2014 19:25:00 4.1 C 84 % 1.65 C
523 09-02-2014 19:30:00 4.2 C 83 % 1.58 C
524 09-02-2014 19:35:00 4.1 C 84 % 1.65 C
525 09-02-2014 19:40:00 3.7 C 85 % 1.42 C
Sensor: Nr:Datum:Temp:Feuchte:Taupunkt:
Aussen-T/F 526 09-02-2014 19:45:00 3.6 C 85 % 1.32 C
527 09-02-2014 19:50:00 3.5 C 86 % 1.38 C
528 09-02-2014 19:55:00 3.3 C 87 % 1.35 C
529 09-02-2014 20:00:00 3.2 C 87 % 1.25 C
530 09-02-2014 20:05:00 3.2 C 87 % 1.25 C
531 09-02-2014 20:10:00 3.1 C 87 % 1.15 C
532 09-02-2014 20:15:00 2.8 C 88 % 1.02 C
533 09-02-2014 20:20:00 2.7 C 88 % 0.92 C
534 09-02-2014 20:25:00 2.6 C 89 % 0.97 C
535 09-02-2014 20:30:00 2.5 C 89 % 0.88 C
536 09-02-2014 20:35:00 2.6 C 89 % 0.97 C
537 09-02-2014 20:40:00 2.6 C 89 % 0.97 C
538 09-02-2014 20:45:00 2.6 C 90 % 1.13 C
539 09-02-2014 20:50:00 2.7 C 90 % 1.23 C
540 09-02-2014 20:55:00 2.7 C 89 % 1.07 C
541 09-02-2014 21:00:00 2.7 C 89 % 1.07 C
542 09-02-2014 21:05:00 2.7 C 89 % 1.07 C
543 09-02-2014 21:10:00 2.7 C 90 % 1.23 C
544 09-02-2014 21:15:00 2.7 C 90 % 1.23 C
545 09-02-2014 21:20:00 2.7 C 90 % 1.23 C
546 09-02-2014 21:25:00 2.7 C 90 % 1.23 C
547 09-02-2014 21:30:00 2.7 C 90 % 1.23 C
548 09-02-2014 21:35:00 2.7 C 90 % 1.23 C
549 09-02-2014 21:40:00 2.7 C 90 % 1.23 C
550 09-02-2014 21:45:00 2.7 C 90 % 1.23 C
Sensor: Nr:Datum:Temp:Feuchte:Taupunkt:
Aussen-T/F 551 09-02-2014 21:50:00 2.7 C 90 % 1.23 C
552 09-02-2014 21:55:00 2.7 C 91 % 1.38 C
553 09-02-2014 22:00:00 2.7 C 90 % 1.23 C
554 09-02-2014 22:05:00 2.5 C 90 % 1.03 C
555 09-02-2014 22:10:00 2.4 C 91 % 1.08 C
556 09-02-2014 22:15:00 2.4 C 91 % 1.08 C
557 09-02-2014 22:20:00 2.3 C 92 % 1.14 C
558 09-02-2014 22:25:00 2.3 C 92 % 1.14 C
559 09-02-2014 22:30:00 2.3 C 92 % 1.14 C
560 09-02-2014 22:35:00 2.2 C 92 % 1.04 C
561 09-02-2014 22:40:00 2.2 C 92 % 1.04 C
562 09-02-2014 22:45:00 2.2 C 92 % 1.04 C
563 09-02-2014 22:50:00 2.2 C 92 % 1.04 C
564 09-02-2014 22:55:00 2.2 C 92 % 1.04 C
565 09-02-2014 23:00:00 2 C 92 % 0.84 C
566 09-02-2014 23:05:00 1.9 C 92 % 0.74 C
567 09-02-2014 23:10:00 1.9 C 93 % 0.89 C
568 09-02-2014 23:15:00 1.9 C 93 % 0.89 C
569 09-02-2014 23:20:00 1.8 C 93 % 0.79 C
570 09-02-2014 23:25:00 1.8 C 93 % 0.79 C
571 09-02-2014 23:30:00 1.7 C 93 % 0.69 C
572 09-02-2014 23:35:00 1.7 C 93 % 0.69 C
573 09-02-2014 23:40:00 1.7 C 93 % 0.69 C
574 09-02-2014 23:45:00 1.6 C 93 % 0.59 C
575 09-02-2014 23:50:00 1.6 C 93 % 0.59 C
Sensor: Nr:Datum:Temp:Feuchte:Taupunkt:
Aussen-T/F 576 09-02-2014 23:55:00 1.5 C 93 % 0.49 C
577 10-02-2014 00:00:00 1.5 C 93 % 0.49 C
578 10-02-2014 00:05:00 1.5 C 93 % 0.49 C
579 10-02-2014 00:10:00 1.5 C 94 % 0.64 C
580 10-02-2014 00:15:00 1.6 C 94 % 0.74 C
581 10-02-2014 00:20:00 1.5 C 94 % 0.64 C
582 10-02-2014 00:25:00 1.4 C 93 % 0.4 C
583 10-02-2014 00:30:00 1.4 C 93 % 0.4 C
584 10-02-2014 00:35:00 1.3 C 94 % 0.44 C
585 10-02-2014 00:40:00 1.3 C 94 % 0.44 C
586 10-02-2014 00:45:00 1.3 C 94 % 0.44 C
587 10-02-2014 00:50:00 1.4 C 94 % 0.54 C
588 10-02-2014 00:55:00 1.4 C 94 % 0.54 C
589 10-02-2014 01:00:00 1.4 C 94 % 0.54 C
590 10-02-2014 01:05:00 1.4 C 94 % 0.54 C
591 10-02-2014 01:10:00 1.3 C 94 % 0.44 C
592 10-02-2014 01:15:00 1.2 C 94 % 0.34 C
593 10-02-2014 01:20:00 1.2 C 93 % 0.2 C
594 10-02-2014 01:25:00 1.2 C 94 % 0.34 C
595 10-02-2014 01:30:00 1.1 C 94 % 0.24 C
596 10-02-2014 01:35:00 1 C 94 % 0.15 C
597 10-02-2014 01:40:00 1 C 94 % 0.15 C
598 10-02-2014 01:45:00 1.1 C 94 % 0.24 C
599 10-02-2014 01:50:00 1.1 C 94 % 0.24 C
600 10-02-2014 01:55:00 1.1 C 94 % 0.24 C
Sensor: Nr:Datum:Temp:Feuchte:Taupunkt:
Aussen-T/F 601 10-02-2014 02:00:00 1 C 94 % 0.15 C
602 10-02-2014 02:05:00 0.9 C 94 % 0.05 C
603 10-02-2014 02:10:00 0.8 C 94 % -0.05 C
604 10-02-2014 02:15:00 0.8 C 94 % -0.05 C
605 10-02-2014 02:20:00 0.8 C 94 % -0.05 C
606 10-02-2014 02:25:00 0.8 C 94 % -0.05 C
607 10-02-2014 02:30:00 0.8 C 94 % -0.05 C
608 10-02-2014 02:35:00 0.9 C 95 % 0.19 C
609 10-02-2014 02:40:00 1.2 C 95 % 0.49 C
610 10-02-2014 02:45:00 1.6 C 95 % 0.89 C
611 10-02-2014 02:50:00 1.9 C 94 % 1.04 C
612 10-02-2014 02:55:00 2.3 C 93 % 1.29 C
613 10-02-2014 03:00:00 2.6 C 92 % 1.43 C
614 10-02-2014 03:05:00 2.8 C 90 % 1.33 C
615 10-02-2014 03:10:00 2.9 C 89 % 1.27 C
616 10-02-2014 03:15:00 3 C 89 % 1.37 C
617 10-02-2014 03:20:00 3 C 89 % 1.37 C
618 10-02-2014 03:25:00 3 C 88 % 1.21 C
619 10-02-2014 03:30:00 3 C 88 % 1.21 C
620 10-02-2014 03:35:00 2.9 C 88 % 1.11 C
621 10-02-2014 03:40:00 2.8 C 88 % 1.02 C
622 10-02-2014 03:45:00 2.8 C 89 % 1.17 C
623 10-02-2014 03:50:00 2.7 C 88 % 0.92 C
624 10-02-2014 03:55:00 2.6 C 89 % 0.97 C
625 10-02-2014 04:00:00 2.4 C 89 % 0.78 C
Sensor: Nr:Datum:Temp:Feuchte:Taupunkt:
Aussen-T/F 626 10-02-2014 04:05:00 2.2 C 89 % 0.58 C
627 10-02-2014 04:10:00 1.9 C 89 % 0.28 C
628 10-02-2014 04:15:00 1.7 C 90 % 0.24 C
629 10-02-2014 04:20:00 1.5 C 91 % 0.19 C
630 10-02-2014 04:25:00 1.3 C 92 % 0.15 C
631 10-02-2014 04:30:00 1.2 C 92 % 0.05 C
632 10-02-2014 04:35:00 1.2 C 93 % 0.2 C
633 10-02-2014 04:40:00 1.2 C 93 % 0.2 C
634 10-02-2014 04:45:00 1.2 C 93 % 0.2 C
635 10-02-2014 04:50:00 1.2 C 93 % 0.2 C
636 10-02-2014 04:55:00 1.1 C 93 % 0.1 C
637 10-02-2014 05:00:00 1.1 C 93 % 0.1 C
638 10-02-2014 05:05:00 1.1 C 94 % 0.24 C
639 10-02-2014 05:10:00 1.2 C 94 % 0.34 C
640 10-02-2014 05:15:00 1.3 C 94 % 0.44 C
641 10-02-2014 05:20:00 1.3 C 93 % 0.3 C
642 10-02-2014 05:25:00 1.4 C 94 % 0.54 C
643 10-02-2014 05:30:00 1.6 C 93 % 0.59 C
644 10-02-2014 05:35:00 1.9 C 93 % 0.89 C
645 10-02-2014 05:40:00 2.3 C 92 % 1.14 C
646 10-02-2014 05:45:00 2.6 C 90 % 1.13 C
647 10-02-2014 05:50:00 2.7 C 89 % 1.07 C
648 10-02-2014 05:55:00 2.8 C 88 % 1.02 C
649 10-02-2014 06:00:00 2.9 C 87 % 0.96 C
650 10-02-2014 06:05:00 3 C 87 % 1.05 C
Sensor: Nr:Datum:Temp:Feuchte:Taupunkt:
Aussen-T/F 651 10-02-2014 06:10:00 3.1 C 86 % 0.99 C
652 10-02-2014 06:15:00 3.1 C 86 % 0.99 C
653 10-02-2014 06:20:00 3.2 C 85 % 0.93 C
654 10-02-2014 06:25:00 3.3 C 85 % 1.03 C
655 10-02-2014 06:30:00 3.2 C 85 % 0.93 C
656 10-02-2014 06:35:00 3.2 C 85 % 0.93 C
657 10-02-2014 06:40:00 3.2 C 85 % 0.93 C
658 10-02-2014 06:45:00 3.1 C 86 % 0.99 C
659 10-02-2014 06:50:00 2.8 C 87 % 0.86 C
660 10-02-2014 06:55:00 2.6 C 88 % 0.82 C
661 10-02-2014 07:00:00 2.6 C 88 % 0.82 C
662 10-02-2014 07:05:00 2.4 C 89 % 0.78 C
663 10-02-2014 07:10:00 2.3 C 89 % 0.68 C
664 10-02-2014 07:15:00 2.3 C 89 % 0.68 C
665 10-02-2014 07:20:00 2.2 C 90 % 0.73 C
666 10-02-2014 07:25:00 2.2 C 90 % 0.73 C
667 10-02-2014 07:30:00 2.2 C 90 % 0.73 C
668 10-02-2014 07:35:00 2.2 C 90 % 0.73 C
669 10-02-2014 07:40:00 2.2 C 90 % 0.73 C
670 10-02-2014 07:45:00 2.1 C 90 % 0.64 C
671 10-02-2014 07:50:00 2.1 C 90 % 0.64 C
672 10-02-2014 07:55:00 2.1 C 90 % 0.64 C
673 10-02-2014 08:00:00 2.1 C 90 % 0.64 C
674 10-02-2014 08:05:00 2.1 C 90 % 0.64 C
675 10-02-2014 08:10:00 1.9 C 90 % 0.44 C
Sensor: Nr:Datum:Temp:Feuchte:Taupunkt:
Aussen-T/F 676 10-02-2014 08:15:00 1.9 C 91 % 0.59 C
677 10-02-2014 08:20:00 1.8 C 91 % 0.49 C
678 10-02-2014 08:25:00 1.8 C 91 % 0.49 C
679 10-02-2014 08:30:00 1.8 C 92 % 0.64 C
680 10-02-2014 08:35:00 1.9 C 92 % 0.74 C
681 10-02-2014 08:40:00 1.9 C 92 % 0.74 C
682 10-02-2014 08:45:00 1.9 C 92 % 0.74 C
683 10-02-2014 08:50:00 1.9 C 92 % 0.74 C
684 10-02-2014 08:55:00 2 C 92 % 0.84 C
685 10-02-2014 09:00:00 2.1 C 92 % 0.94 C
686 10-02-2014 09:05:00 2.1 C 92 % 0.94 C
687 10-02-2014 09:10:00 2.2 C 92 % 1.04 C
688 10-02-2014 09:15:00 2.2 C 92 % 1.04 C
689 10-02-2014 09:20:00 2.3 C 91 % 0.99 C
690 10-02-2014 09:25:00 2.3 C 91 % 0.99 C
691 10-02-2014 09:30:00 2.3 C 91 % 0.99 C
692 10-02-2014 09:35:00 2.4 C 91 % 1.08 C
693 10-02-2014 09:40:00 2.4 C 91 % 1.08 C
694 10-02-2014 09:45:00 2.4 C 91 % 1.08 C
695 10-02-2014 09:50:00 2.5 C 91 % 1.18 C
696 10-02-2014 09:55:00 2.6 C 90 % 1.13 C
697 10-02-2014 10:00:00 2.8 C 90 % 1.33 C
698 10-02-2014 10:05:00 2.9 C 89 % 1.27 C
699 10-02-2014 10:10:00 3.1 C 89 % 1.47 C
700 10-02-2014 10:15:00 3.2 C 87 % 1.25 C
Sensor: Nr:Datum:Temp:Feuchte:Taupunkt:
Aussen-T/F 701 10-02-2014 10:20:00 3.4 C 86 % 1.29 C
702 10-02-2014 10:25:00 3.6 C 85 % 1.32 C
703 10-02-2014 10:30:00 3.8 C 84 % 1.35 C
704 10-02-2014 10:35:00 4.1 C 84 % 1.65 C
705 10-02-2014 10:40:00 4.3 C 83 % 1.67 C
706 10-02-2014 10:45:00 4.6 C 81 % 1.63 C
707 10-02-2014 10:50:00 4.8 C 80 % 1.65 C
708 10-02-2014 10:55:00 5.1 C 79 % 1.77 C
709 10-02-2014 11:00:00 5.2 C 78 % 1.69 C
710 10-02-2014 11:05:00 5.4 C 77 % 1.7 C
711 10-02-2014 11:10:00 5.6 C 76 % 1.71 C
712 10-02-2014 11:15:00 5.8 C 75 % 1.72 C
713 10-02-2014 11:20:00 5.9 C 74 % 1.63 C
714 10-02-2014 11:25:00 6.1 C 74 % 1.82 C
715 10-02-2014 11:30:00 6.1 C 72 % 1.44 C
716 10-02-2014 11:35:00 6.2 C 72 % 1.54 C
717 10-02-2014 11:40:00 6.3 C 72 % 1.63 C
718 10-02-2014 11:45:00 6.3 C 70 % 1.24 C
719 10-02-2014 11:50:00 6.3 C 70 % 1.24 C
720 10-02-2014 11:55:00 6.3 C 69 % 1.04 C
721 10-02-2014 12:00:00 6.4 C 68 % 0.94 C
722 10-02-2014 12:05:00 6.4 C 67 % 0.73 C
723 10-02-2014 12:10:00 6.4 C 67 % 0.73 C
724 10-02-2014 12:15:00 6.4 C 68 % 0.94 C
725 10-02-2014 12:20:00 6.5 C 65 % 0.41 C
Sensor: Nr:Datum:Temp:Feuchte:Taupunkt:
Aussen-T/F 726 10-02-2014 12:25:00 6.5 C 66 % 0.62 C
727 10-02-2014 12:30:00 6.5 C 65 % 0.41 C
728 10-02-2014 12:35:00 6.5 C 64 % 0.19 C
729 10-02-2014 12:40:00 6.6 C 64 % 0.29 C
730 10-02-2014 12:45:00 6.6 C 65 % 0.5 C
731 10-02-2014 12:50:00 6.6 C 64 % 0.29 C
732 10-02-2014 12:55:00 6.6 C 65 % 0.5 C
733 10-02-2014 13:00:00 6.6 C 64 % 0.29 C
734 10-02-2014 13:05:00 6.7 C 64 % 0.38 C
735 10-02-2014 13:10:00 6.7 C 64 % 0.38 C
736 10-02-2014 13:15:00 6.7 C 65 % 0.6 C
737 10-02-2014 13:20:00 6.7 C 63 % 0.17 C
738 10-02-2014 13:25:00 6.6 C 65 % 0.5 C
739 10-02-2014 13:30:00 6.6 C 64 % 0.29 C
740 10-02-2014 13:35:00 6.6 C 64 % 0.29 C
741 10-02-2014 13:40:00 6.7 C 64 % 0.38 C
742 10-02-2014 13:45:00 6.7 C 64 % 0.38 C
743 10-02-2014 13:50:00 6.7 C 63 % 0.17 C
744 10-02-2014 13:55:00 6.7 C 64 % 0.38 C
745 10-02-2014 14:00:00 6.7 C 64 % 0.38 C
746 10-02-2014 14:05:00 6.7 C 64 % 0.38 C
747 10-02-2014 14:10:00 6.8 C 64 % 0.48 C
748 10-02-2014 14:15:00 6.8 C 64 % 0.48 C
749 10-02-2014 14:20:00 6.8 C 64 % 0.48 C
750 10-02-2014 14:25:00 6.8 C 64 % 0.48 C
Sensor: Nr:Datum:Temp:Feuchte:Taupunkt:
Aussen-T/F 751 10-02-2014 14:30:00 6.8 C 63 % 0.26 C
752 10-02-2014 14:35:00 6.8 C 65 % 0.69 C
753 10-02-2014 14:40:00 6.8 C 64 % 0.48 C
754 10-02-2014 14:45:00 6.8 C 64 % 0.48 C
755 10-02-2014 14:50:00 6.8 C 65 % 0.69 C
756 10-02-2014 14:55:00 6.8 C 65 % 0.69 C
757 10-02-2014 15:00:00 6.8 C 65 % 0.69 C
758 10-02-2014 15:05:00 6.7 C 67 % 1.02 C
759 10-02-2014 15:10:00 6.6 C 69 % 1.33 C
760 10-02-2014 15:15:00 6.4 C 70 % 1.34 C
761 10-02-2014 15:20:00 6.3 C 71 % 1.44 C
762 10-02-2014 15:25:00 6.1 C 73 % 1.63 C
763 10-02-2014 15:30:00 5.9 C 75 % 1.82 C
764 10-02-2014 15:35:00 5.8 C 78 % 2.27 C
765 10-02-2014 15:40:00 5.6 C 79 % 2.25 C
766 10-02-2014 15:45:00 5.5 C 82 % 2.68 C
767 10-02-2014 15:50:00 5.3 C 84 % 2.82 C
768 10-02-2014 15:55:00 5.2 C 85 % 2.89 C
769 10-02-2014 16:00:00 5.1 C 85 % 2.79 C
770 10-02-2014 16:05:00 5 C 87 % 3.02 C
771 10-02-2014 16:10:00 4.9 C 88 % 3.08 C
772 10-02-2014 16:15:00 4.7 C 89 % 3.05 C
773 10-02-2014 16:20:00 4.6 C 90 % 3.1 C
774 10-02-2014 16:25:00 4.5 C 91 % 3.16 C
775 10-02-2014 16:30:00 4.4 C 91 % 3.06 C
Sensor: Nr:Datum:Temp:Feuchte:Taupunkt:
Aussen-T/F 776 10-02-2014 16:35:00 4.3 C 91 % 2.96 C
777 10-02-2014 16:40:00 4.2 C 92 % 3.02 C
778 10-02-2014 16:45:00 4.2 C 92 % 3.02 C
779 10-02-2014 16:50:00 4.1 C 92 % 2.92 C
780 10-02-2014 16:55:00 4 C 92 % 2.82 C
781 10-02-2014 17:00:00 4 C 92 % 2.82 C
782 10-02-2014 17:05:00 3.9 C 93 % 2.87 C
783 10-02-2014 17:10:00 3.9 C 93 % 2.87 C
784 10-02-2014 17:15:00 3.9 C 93 % 2.87 C
785 10-02-2014 17:20:00 3.8 C 93 % 2.77 C
786 10-02-2014 17:25:00 3.8 C 94 % 2.93 C
787 10-02-2014 17:30:00 3.8 C 94 % 2.93 C
788 10-02-2014 17:35:00 3.7 C 94 % 2.83 C
789 10-02-2014 17:40:00 3.7 C 94 % 2.83 C
790 10-02-2014 17:45:00 3.6 C 94 % 2.73 C
791 10-02-2014 17:50:00 3.6 C 95 % 2.88 C
792 10-02-2014 17:55:00 3.6 C 95 % 2.88 C
793 10-02-2014 18:00:00 3.6 C 95 % 2.88 C
794 10-02-2014 18:05:00 3.6 C 95 % 2.88 C
795 10-02-2014 18:10:00 3.6 C 95 % 2.88 C
796 10-02-2014 18:15:00 3.6 C 95 % 2.88 C
797 10-02-2014 18:20:00 3.5 C 95 % 2.78 C
798 10-02-2014 18:25:00 3.5 C 95 % 2.78 C
799 10-02-2014 18:30:00 3.5 C 95 % 2.78 C
800 10-02-2014 18:35:00 3.4 C 95 % 2.68 C
Sensor: Nr:Datum:Temp:Feuchte:Taupunkt:
Aussen-T/F 801 10-02-2014 18:40:00 3.4 C 95 % 2.68 C
802 10-02-2014 18:45:00 3.4 C 95 % 2.68 C
803 10-02-2014 18:50:00 3.4 C 95 % 2.68 C
804 10-02-2014 18:55:00 3.3 C 95 % 2.58 C
805 10-02-2014 19:00:00 3.3 C 95 % 2.58 C
806 10-02-2014 19:05:00 3.3 C 95 % 2.58 C
807 10-02-2014 19:10:00 3.3 C 95 % 2.58 C
808 10-02-2014 19:15:00 3.3 C 95 % 2.58 C
809 10-02-2014 19:20:00 3.3 C 95 % 2.58 C
810 10-02-2014 19:25:00 3.3 C 95 % 2.58 C
811 10-02-2014 19:30:00 3.3 C 95 % 2.58 C
812 10-02-2014 19:35:00 3.3 C 96 % 2.72 C
813 10-02-2014 19:40:00 3.3 C 96 % 2.72 C
814 10-02-2014 19:45:00 3.3 C 96 % 2.72 C
815 10-02-2014 19:50:00 3.3 C 96 % 2.72 C
816 10-02-2014 19:55:00 3.3 C 96 % 2.72 C
817 10-02-2014 20:00:00 3.3 C 96 % 2.72 C
818 10-02-2014 20:05:00 3.3 C 96 % 2.72 C
819 10-02-2014 20:10:00 3.3 C 96 % 2.72 C
820 10-02-2014 20:15:00 3.3 C 96 % 2.72 C
821 10-02-2014 20:20:00 3.3 C 96 % 2.72 C
822 10-02-2014 20:25:00 3.3 C 96 % 2.72 C
823 10-02-2014 20:30:00 3.2 C 96 % 2.63 C
824 10-02-2014 20:35:00 3.1 C 95 % 2.38 C
825 10-02-2014 20:40:00 3 C 95 % 2.28 C
Sensor: Nr:Datum:Temp:Feuchte:Taupunkt:
Aussen-T/F 826 10-02-2014 20:45:00 2.9 C 96 % 2.33 C
827 10-02-2014 20:50:00 2.9 C 96 % 2.33 C
828 10-02-2014 20:55:00 2.8 C 95 % 2.08 C
829 10-02-2014 21:00:00 2.8 C 95 % 2.08 C
830 10-02-2014 21:05:00 2.7 C 95 % 1.98 C
831 10-02-2014 21:10:00 2.7 C 95 % 1.98 C
832 10-02-2014 21:15:00 2.6 C 95 % 1.88 C
833 10-02-2014 21:20:00 2.6 C 95 % 1.88 C
834 10-02-2014 21:25:00 2.6 C 95 % 1.88 C
835 10-02-2014 21:30:00 2.6 C 95 % 1.88 C
836 10-02-2014 21:35:00 2.6 C 95 % 1.88 C
837 10-02-2014 21:40:00 2.6 C 95 % 1.88 C
838 10-02-2014 21:45:00 2.6 C 95 % 1.88 C
839 10-02-2014 21:50:00 2.6 C 95 % 1.88 C
840 10-02-2014 21:55:00 2.6 C 95 % 1.88 C
841 10-02-2014 22:00:00 2.6 C 96 % 2.03 C
842 10-02-2014 22:05:00 2.6 C 95 % 1.88 C
843 10-02-2014 22:10:00 2.6 C 95 % 1.88 C
844 10-02-2014 22:15:00 2.6 C 95 % 1.88 C
845 10-02-2014 22:20:00 2.6 C 95 % 1.88 C
846 10-02-2014 22:25:00 2.6 C 96 % 2.03 C
847 10-02-2014 22:30:00 2.6 C 96 % 2.03 C
848 10-02-2014 22:35:00 2.6 C 95 % 1.88 C
849 10-02-2014 22:40:00 2.6 C 95 % 1.88 C
850 10-02-2014 22:45:00 2.7 C 95 % 1.98 C
Sensor: Nr:Datum:Temp:Feuchte:Taupunkt:
Aussen-T/F 851 10-02-2014 22:50:00 2.7 C 95 % 1.98 C
852 10-02-2014 22:55:00 2.8 C 95 % 2.08 C
853 10-02-2014 23:00:00 2.8 C 95 % 2.08 C
854 10-02-2014 23:05:00 2.9 C 95 % 2.18 C
855 10-02-2014 23:10:00 2.9 C 95 % 2.18 C
856 10-02-2014 23:15:00 2.8 C 94 % 1.93 C
857 10-02-2014 23:20:00 2.8 C 95 % 2.08 C
858 10-02-2014 23:25:00 2.7 C 94 % 1.83 C
859 10-02-2014 23:30:00 2.7 C 95 % 1.98 C
860 10-02-2014 23:35:00 2.6 C 95 % 1.88 C
861 10-02-2014 23:40:00 2.6 C 95 % 1.88 C
862 10-02-2014 23:45:00 2.6 C 95 % 1.88 C
863 10-02-2014 23:50:00 2.6 C 95 % 1.88 C
864 10-02-2014 23:55:00 2.5 C 95 % 1.78 C
865 11-02-2014 00:00:00 2.7 C 95 % 1.98 C
866 11-02-2014 00:05:00 2.8 C 96 % 2.23 C
867 11-02-2014 00:10:00 2.9 C 95 % 2.18 C
868 11-02-2014 00:15:00 3 C 95 % 2.28 C
869 11-02-2014 00:20:00 2.9 C 95 % 2.18 C
870 11-02-2014 00:25:00 2.9 C 95 % 2.18 C
871 11-02-2014 00:30:00 2.9 C 95 % 2.18 C
872 11-02-2014 00:35:00 3.1 C 95 % 2.38 C
873 11-02-2014 00:40:00 3.2 C 95 % 2.48 C
874 11-02-2014 00:45:00 3.1 C 95 % 2.38 C
875 11-02-2014 00:50:00 2.9 C 95 % 2.18 C
Sensor: Nr:Datum:Temp:Feuchte:Taupunkt:
Aussen-T/F 876 11-02-2014 00:55:00 3 C 95 % 2.28 C
877 11-02-2014 01:00:00 3.1 C 94 % 2.23 C
878 11-02-2014 01:05:00 3.2 C 94 % 2.33 C
879 11-02-2014 01:10:00 3.3 C 93 % 2.28 C
880 11-02-2014 01:15:00 3.3 C 93 % 2.28 C
881 11-02-2014 01:20:00 3.4 C 92 % 2.23 C
882 11-02-2014 01:25:00 3.6 C 92 % 2.42 C
883 11-02-2014 01:30:00 3.7 C 92 % 2.52 C
884 11-02-2014 01:35:00 3.8 C 91 % 2.47 C
885 11-02-2014 01:40:00 3.9 C 91 % 2.57 C
886 11-02-2014 01:45:00 4 C 91 % 2.67 C
887 11-02-2014 01:50:00 4.2 C 90 % 2.71 C
888 11-02-2014 01:55:00 4.2 C 89 % 2.55 C
889 11-02-2014 02:00:00 4.2 C 89 % 2.55 C
890 11-02-2014 02:05:00 4.1 C 90 % 2.61 C
891 11-02-2014 02:10:00 4.1 C 89 % 2.45 C
892 11-02-2014 02:15:00 4.1 C 89 % 2.45 C
893 11-02-2014 02:20:00 4.1 C 90 % 2.61 C
894 11-02-2014 02:25:00 4.2 C 90 % 2.71 C
895 11-02-2014 02:30:00 4.2 C 90 % 2.71 C
896 11-02-2014 02:35:00 4.2 C 90 % 2.71 C
897 11-02-2014 02:40:00 4.1 C 91 % 2.77 C
898 11-02-2014 02:45:00 4 C 91 % 2.67 C
899 11-02-2014 02:50:00 4 C 91 % 2.67 C
900 11-02-2014 02:55:00 4 C 91 % 2.67 C
Sensor: Nr:Datum:Temp:Feuchte:Taupunkt:
Aussen-T/F 901 11-02-2014 03:00:00 4.1 C 91 % 2.77 C
902 11-02-2014 03:05:00 4.1 C 91 % 2.77 C
903 11-02-2014 03:10:00 4.1 C 91 % 2.77 C
904 11-02-2014 03:15:00 4.1 C 90 % 2.61 C
905 11-02-2014 03:20:00 4 C 90 % 2.51 C
906 11-02-2014 03:25:00 3.9 C 91 % 2.57 C
907 11-02-2014 03:30:00 3.8 C 91 % 2.47 C
908 11-02-2014 03:35:00 3.7 C 91 % 2.37 C
909 11-02-2014 03:40:00 3.7 C 92 % 2.52 C
910 11-02-2014 03:45:00 3.6 C 92 % 2.42 C
911 11-02-2014 03:50:00 3.7 C 92 % 2.52 C
912 11-02-2014 03:55:00 3.7 C 92 % 2.52 C
913 11-02-2014 04:00:00 3.6 C 91 % 2.27 C
914 11-02-2014 04:05:00 3.6 C 92 % 2.42 C
915 11-02-2014 04:10:00 3.6 C 92 % 2.42 C
916 11-02-2014 04:15:00 3.7 C 92 % 2.52 C
917 11-02-2014 04:20:00 3.8 C 92 % 2.62 C
918 11-02-2014 04:25:00 4.1 C 91 % 2.77 C
919 11-02-2014 04:30:00 4.2 C 91 % 2.87 C
920 11-02-2014 04:35:00 4.3 C 91 % 2.96 C
921 11-02-2014 04:40:00 4.3 C 90 % 2.81 C
922 11-02-2014 04:45:00 4.3 C 90 % 2.81 C
923 11-02-2014 04:50:00 4.3 C 90 % 2.81 C
924 11-02-2014 04:55:00 4.1 C 90 % 2.61 C
925 11-02-2014 05:00:00 3.8 C 91 % 2.47 C
Sensor: Nr:Datum:Temp:Feuchte:Taupunkt:
Aussen-T/F 926 11-02-2014 05:05:00 3.7 C 91 % 2.37 C
927 11-02-2014 05:10:00 3.7 C 92 % 2.52 C
928 11-02-2014 05:15:00 3.8 C 92 % 2.62 C
929 11-02-2014 05:20:00 3.9 C 91 % 2.57 C
930 11-02-2014 05:25:00 3.7 C 91 % 2.37 C
931 11-02-2014 05:30:00 3.7 C 92 % 2.52 C
932 11-02-2014 05:35:00 4.1 C 91 % 2.77 C
933 11-02-2014 05:40:00 4.1 C 91 % 2.77 C
934 11-02-2014 05:45:00 3.9 C 91 % 2.57 C
935 11-02-2014 05:50:00 3.9 C 92 % 2.72 C
936 11-02-2014 05:55:00 4.1 C 92 % 2.92 C
937 11-02-2014 06:00:00 4.2 C 92 % 3.02 C
938 11-02-2014 06:05:00 4.3 C 91 % 2.96 C
939 11-02-2014 06:10:00 4.4 C 91 % 3.06 C
940 11-02-2014 06:15:00 4.5 C 91 % 3.16 C
941 11-02-2014 06:20:00 4.7 C 89 % 3.05 C
942 11-02-2014 06:25:00 4.9 C 88 % 3.08 C
943 11-02-2014 06:30:00 4.9 C 88 % 3.08 C
944 11-02-2014 06:35:00 5 C 88 % 3.18 C
945 11-02-2014 06:40:00 4.9 C 87 % 2.92 C
946 11-02-2014 06:45:00 5.1 C 87 % 3.12 C
947 11-02-2014 06:50:00 5.2 C 86 % 3.05 C
948 11-02-2014 06:55:00 5.3 C 86 % 3.15 C
949 11-02-2014 07:00:00 5.3 C 86 % 3.15 C
950 11-02-2014 07:05:00 5.3 C 86 % 3.15 C
Sensor: Nr:Datum:Temp:Feuchte:Taupunkt:
Aussen-T/F 951 11-02-2014 07:10:00 5.3 C 86 % 3.15 C
952 11-02-2014 07:15:00 5.4 C 85 % 3.09 C
953 11-02-2014 07:20:00 5.4 C 85 % 3.09 C
954 11-02-2014 07:25:00 5.4 C 85 % 3.09 C
955 11-02-2014 07:30:00 5.3 C 85 % 2.99 C
956 11-02-2014 07:35:00 5.2 C 85 % 2.89 C
957 11-02-2014 07:40:00 5.3 C 85 % 2.99 C
958 11-02-2014 07:45:00 5.3 C 85 % 2.99 C
959 11-02-2014 07:50:00 5.4 C 85 % 3.09 C
960 11-02-2014 07:55:00 5.3 C 86 % 3.15 C
961 11-02-2014 08:00:00 5.2 C 85 % 2.89 C
962 11-02-2014 08:05:00 5.3 C 85 % 2.99 C
963 11-02-2014 08:10:00 5.2 C 84 % 2.72 C
964 11-02-2014 08:15:00 5.2 C 85 % 2.89 C
965 11-02-2014 08:20:00 5.1 C 85 % 2.79 C
966 11-02-2014 08:25:00 5.3 C 84 % 2.82 C
967 11-02-2014 08:30:00 5.5 C 82 % 2.68 C
968 11-02-2014 08:35:00 5.6 C 82 % 2.78 C
969 11-02-2014 08:40:00 5.6 C 82 % 2.78 C
970 11-02-2014 08:45:00 5.7 C 81 % 2.7 C
971 11-02-2014 08:50:00 5.7 C 81 % 2.7 C
972 11-02-2014 08:55:00 5.7 C 81 % 2.7 C
973 11-02-2014 09:00:00 5.6 C 81 % 2.6 C
974 11-02-2014 09:05:00 5.7 C 80 % 2.53 C
975 11-02-2014 09:10:00 5.7 C 79 % 2.35 C
Sensor: Nr:Datum:Temp:Feuchte:Taupunkt:
Aussen-T/F 976 11-02-2014 09:15:00 5.7 C 79 % 2.35 C
977 11-02-2014 09:20:00 5.7 C 79 % 2.35 C
978 11-02-2014 09:25:00 5.7 C 80 % 2.53 C
979 11-02-2014 09:30:00 5.7 C 79 % 2.35 C
980 11-02-2014 09:35:00 5.7 C 79 % 2.35 C
981 11-02-2014 09:40:00 5.7 C 79 % 2.35 C
982 11-02-2014 09:45:00 5.7 C 79 % 2.35 C
983 11-02-2014 09:50:00 5.7 C 79 % 2.35 C
984 11-02-2014 09:55:00 5.7 C 79 % 2.35 C
985 11-02-2014 10:00:00 5.7 C 80 % 2.53 C
986 11-02-2014 10:05:00 5.7 C 81 % 2.7 C
987 11-02-2014 10:10:00 5.8 C 80 % 2.62 C
988 11-02-2014 10:15:00 5.9 C 80 % 2.72 C
989 11-02-2014 10:20:00 5.9 C 80 % 2.72 C
990 11-02-2014 10:25:00 6 C 80 % 2.82 C
991 11-02-2014 10:30:00 6 C 81 % 2.99 C
992 11-02-2014 10:35:00 6 C 81 % 2.99 C
993 11-02-2014 10:40:00 6 C 81 % 2.99 C
994 11-02-2014 10:45:00 6.1 C 81 % 3.09 C
995 11-02-2014 10:50:00 6.1 C 82 % 3.26 C
996 11-02-2014 10:55:00 6.1 C 82 % 3.26 C
997 11-02-2014 11:00:00 6.1 C 82 % 3.26 C
998 11-02-2014 11:05:00 6.2 C 81 % 3.19 C
999 11-02-2014 11:10:00 6.2 C 82 % 3.36 C
1000 11-02-2014 11:15:00 6.3 C 82 % 3.46 C
Sensor: Nr:Datum:Temp:Feuchte:Taupunkt:
Aussen-T/F 1001 11-02-2014 11:20:00 6.4 C 82 % 3.56 C
1002 11-02-2014 11:25:00 6.5 C 82 % 3.66 C
1003 11-02-2014 11:30:00 6.6 C 81 % 3.58 C
1004 11-02-2014 11:35:00 6.6 C 81 % 3.58 C
1005 11-02-2014 11:40:00 6.6 C 81 % 3.58 C
1006 11-02-2014 11:45:00 6.6 C 80 % 3.4 C
1007 11-02-2014 11:50:00 6.6 C 79 % 3.23 C
1008 11-02-2014 11:55:00 6.5 C 79 % 3.13 C
1009 11-02-2014 12:00:00 6.4 C 79 % 3.03 C
1010 11-02-2014 12:05:00 6.4 C 79 % 3.03 C
1011 11-02-2014 12:10:00 6.5 C 79 % 3.13 C
1012 11-02-2014 12:15:00 6.6 C 78 % 3.05 C
1013 11-02-2014 12:20:00 6.5 C 78 % 2.95 C
1014 11-02-2014 12:25:00 6.5 C 78 % 2.95 C
1015 11-02-2014 12:30:00 6.6 C 78 % 3.05 C
1016 11-02-2014 12:35:00 6.6 C 78 % 3.05 C
1017 11-02-2014 12:40:00 6.7 C 78 % 3.14 C
1018 11-02-2014 12:45:00 6.8 C 77 % 3.06 C
1019 11-02-2014 12:50:00 6.9 C 76 % 2.97 C
1020 11-02-2014 12:55:00 6.9 C 76 % 2.97 C
1021 11-02-2014 13:00:00 7 C 76 % 3.07 C
1022 11-02-2014 13:05:00 7.1 C 75 % 2.98 C
1023 11-02-2014 13:10:00 7.1 C 74 % 2.79 C
1024 11-02-2014 13:15:00 7.1 C 73 % 2.6 C
1025 11-02-2014 13:20:00 7.2 C 75 % 3.07 C
Sensor: Nr:Datum:Temp:Feuchte:Taupunkt:
Aussen-T/F 1026 11-02-2014 13:25:00 7.2 C 74 % 2.89 C
1027 11-02-2014 13:30:00 7.4 C 74 % 3.08 C
1028 11-02-2014 13:35:00 7.4 C 73 % 2.89 C
1029 11-02-2014 13:40:00 7.5 C 73 % 2.98 C
1030 11-02-2014 13:45:00 7.6 C 72 % 2.88 C
1031 11-02-2014 13:50:00 7.6 C 73 % 3.08 C
1032 11-02-2014 13:55:00 7.6 C 73 % 3.08 C
1033 11-02-2014 14:00:00 7.6 C 72 % 2.88 C
1034 11-02-2014 14:05:00 7.7 C 71 % 2.78 C
1035 11-02-2014 14:10:00 7.8 C 71 % 2.88 C
1036 11-02-2014 14:15:00 7.9 C 69 % 2.57 C
1037 11-02-2014 14:20:00 7.8 C 71 % 2.88 C
1038 11-02-2014 14:25:00 7.9 C 71 % 2.98 C
1039 11-02-2014 14:30:00 8.1 C 69 % 2.77 C
1040 11-02-2014 14:35:00 8.1 C 69 % 2.77 C
1041 11-02-2014 14:40:00 8.2 C 67 % 2.45 C
1042 11-02-2014 14:45:00 8.3 C 66 % 2.33 C
1043 11-02-2014 14:50:00 8.2 C 65 % 2.02 C
1044 11-02-2014 14:55:00 8.2 C 64 % 1.81 C
1045 11-02-2014 15:00:00 8.3 C 66 % 2.33 C
1046 11-02-2014 15:05:00 8.4 C 66 % 2.43 C
1047 11-02-2014 15:10:00 8.6 C 65 % 2.4 C
1048 11-02-2014 15:15:00 8.5 C 65 % 2.31 C
1049 11-02-2014 15:20:00 8.4 C 64 % 2 C
1050 11-02-2014 15:25:00 8.4 C 65 % 2.21 C
Sensor: Nr:Datum:Temp:Feuchte:Taupunkt:
Aussen-T/F 1051 11-02-2014 15:30:00 8.4 C 64 % 2 C
1052 11-02-2014 15:35:00 8.5 C 65 % 2.31 C
1053 11-02-2014 15:40:00 8.4 C 65 % 2.21 C
1054 11-02-2014 15:45:00 8.3 C 64 % 1.9 C
1055 11-02-2014 15:50:00 8.2 C 65 % 2.02 C
1056 11-02-2014 15:55:00 8.2 C 65 % 2.02 C
1057 11-02-2014 16:00:00 8.1 C 65 % 1.93 C
1058 11-02-2014 16:05:00 8.1 C 65 % 1.93 C
1059 11-02-2014 16:10:00 7.8 C 68 % 2.27 C
1060 11-02-2014 16:15:00 7.6 C 71 % 2.69 C
1061 11-02-2014 16:20:00 7.3 C 72 % 2.6 C
1062 11-02-2014 16:25:00 7.2 C 74 % 2.89 C
1063 11-02-2014 16:30:00 7.1 C 73 % 2.6 C
1064 11-02-2014 16:35:00 6.9 C 76 % 2.97 C
1065 11-02-2014 16:40:00 6.8 C 70 % 1.72 C
1066 11-02-2014 16:45:00 6.8 C 72 % 2.12 C
1067 11-02-2014 16:50:00 6.8 C 67 % 1.11 C
1068 11-02-2014 16:55:00 7.1 C 69 % 1.81 C
1069 11-02-2014 17:00:00 6.9 C 71 % 2.02 C
1070 11-02-2014 17:05:00 6.8 C 69 % 1.52 C
1071 11-02-2014 17:10:00 6.6 C 73 % 2.12 C
1072 11-02-2014 17:15:00 6.3 C 76 % 2.39 C
1073 11-02-2014 17:20:00 6.1 C 77 % 2.38 C
1074 11-02-2014 17:25:00 5.9 C 78 % 2.37 C
1075 11-02-2014 17:30:00 5.7 C 81 % 2.7 C
Sensor: Nr:Datum:Temp:Feuchte:Taupunkt:
Aussen-T/F 1076 11-02-2014 17:35:00 5.4 C 81 % 2.41 C
1077 11-02-2014 17:40:00 5.2 C 82 % 2.39 C
1078 11-02-2014 17:45:00 4.9 C 84 % 2.43 C
1079 11-02-2014 17:50:00 4.8 C 84 % 2.33 C
1080 11-02-2014 17:55:00 4.7 C 85 % 2.4 C
1081 11-02-2014 18:00:00 4.7 C 83 % 2.07 C
1082 11-02-2014 18:05:00 4.7 C 84 % 2.23 C
1083 11-02-2014 18:10:00 4.6 C 84 % 2.14 C
1084 11-02-2014 18:15:00 4.6 C 85 % 2.3 C
1085 11-02-2014 18:20:00 4.6 C 85 % 2.3 C
1086 11-02-2014 18:25:00 4.6 C 86 % 2.47 C
1087 11-02-2014 18:30:00 4.5 C 85 % 2.2 C
1088 11-02-2014 18:35:00 4.5 C 86 % 2.37 C
1089 11-02-2014 18:40:00 4.4 C 86 % 2.27 C
1090 11-02-2014 18:45:00 4.5 C 85 % 2.2 C
1091 11-02-2014 18:50:00 4.6 C 85 % 2.3 C
1092 11-02-2014 18:55:00 4.6 C 85 % 2.3 C
1093 11-02-2014 19:00:00 4.6 C 86 % 2.47 C
1094 11-02-2014 19:05:00 4.6 C 85 % 2.3 C
1095 11-02-2014 19:10:00 4.6 C 86 % 2.47 C
1096 11-02-2014 19:15:00 4.6 C 86 % 2.47 C
1097 11-02-2014 19:20:00 4.6 C 86 % 2.47 C
1098 11-02-2014 19:25:00 4.5 C 86 % 2.37 C
1099 11-02-2014 19:30:00 4.6 C 86 % 2.47 C
1100 11-02-2014 19:35:00 4.6 C 84 % 2.14 C
Sensor: Nr:Datum:Temp:Feuchte:Taupunkt:
Aussen-T/F 1101 11-02-2014 19:40:00 4.7 C 82 % 1.9 C
1102 11-02-2014 19:45:00 4.9 C 83 % 2.26 C
1103 11-02-2014 19:50:00 4.8 C 84 % 2.33 C
1104 11-02-2014 19:55:00 4.7 C 85 % 2.4 C
1105 11-02-2014 20:00:00 4.7 C 85 % 2.4 C
1106 11-02-2014 20:05:00 4.7 C 85 % 2.4 C
1107 11-02-2014 20:10:00 4.7 C 84 % 2.23 C
1108 11-02-2014 20:15:00 4.8 C 84 % 2.33 C
1109 11-02-2014 20:20:00 4.8 C 85 % 2.5 C
1110 11-02-2014 20:25:00 4.7 C 84 % 2.23 C
1111 11-02-2014 20:30:00 4.7 C 85 % 2.4 C
1112 11-02-2014 20:35:00 4.6 C 85 % 2.3 C
1113 11-02-2014 20:40:00 4.6 C 84 % 2.14 C
1114 11-02-2014 20:45:00 4.7 C 86 % 2.56 C
1115 11-02-2014 20:50:00 4.6 C 85 % 2.3 C
1116 11-02-2014 20:55:00 4.6 C 86 % 2.47 C
1117 11-02-2014 21:00:00 4.6 C 86 % 2.47 C
1118 11-02-2014 21:05:00 4.6 C 85 % 2.3 C
1119 11-02-2014 21:10:00 4.7 C 83 % 2.07 C
1120 11-02-2014 21:15:00 4.9 C 82 % 2.09 C
1121 11-02-2014 21:20:00 5.1 C 82 % 2.29 C
1122 11-02-2014 21:25:00 5.3 C 79 % 1.96 C
1123 11-02-2014 21:30:00 5.4 C 80 % 2.23 C
1124 11-02-2014 21:35:00 5.5 C 79 % 2.16 C
1125 11-02-2014 21:40:00 5.6 C 80 % 2.43 C
Sensor: Nr:Datum:Temp:Feuchte:Taupunkt:
Aussen-T/F 1126 11-02-2014 21:45:00 5.6 C 78 % 2.07 C
1127 11-02-2014 21:50:00 5.7 C 79 % 2.35 C
1128 11-02-2014 21:55:00 5.7 C 76 % 1.81 C
1129 11-02-2014 22:00:00 5.7 C 78 % 2.17 C
1130 11-02-2014 22:05:00 5.7 C 79 % 2.35 C
1131 11-02-2014 22:10:00 5.6 C 81 % 2.6 C
1132 11-02-2014 22:15:00 5.4 C 80 % 2.23 C
1133 11-02-2014 22:20:00 5.5 C 79 % 2.16 C
1134 11-02-2014 22:25:00 5.6 C 80 % 2.43 C
1135 11-02-2014 22:30:00 5.5 C 79 % 2.16 C
1136 11-02-2014 22:35:00 5.6 C 78 % 2.07 C
1137 11-02-2014 22:40:00 5.7 C 78 % 2.17 C
1138 11-02-2014 22:45:00 5.7 C 79 % 2.35 C
1139 11-02-2014 22:50:00 5.8 C 79 % 2.45 C
1140 11-02-2014 22:55:00 5.7 C 81 % 2.7 C
1141 11-02-2014 23:00:00 5.6 C 82 % 2.78 C
1142 11-02-2014 23:05:00 5.6 C 78 % 2.07 C
1143 11-02-2014 23:10:00 5.7 C 79 % 2.35 C
1144 11-02-2014 23:15:00 5.8 C 78 % 2.27 C
1145 11-02-2014 23:20:00 6 C 77 % 2.28 C
1146 11-02-2014 23:25:00 6 C 79 % 2.64 C
1147 11-02-2014 23:30:00 5.9 C 80 % 2.72 C
1148 11-02-2014 23:35:00 5.8 C 80 % 2.62 C
1149 11-02-2014 23:40:00 5.7 C 82 % 2.87 C
1150 11-02-2014 23:45:00 5.7 C 80 % 2.53 C
Sensor: Nr:Datum:Temp:Feuchte:Taupunkt:
Aussen-T/F 1151 11-02-2014 23:50:00 5.7 C 82 % 2.87 C
1152 11-02-2014 23:55:00 5.6 C 82 % 2.78 C
1153 12-02-2014 00:00:00 5.6 C 82 % 2.78 C
1154 12-02-2014 00:05:00 5.7 C 81 % 2.7 C
1155 12-02-2014 00:10:00 5.8 C 81 % 2.8 C
1156 12-02-2014 00:15:00 5.7 C 84 % 3.21 C
1157 12-02-2014 00:20:00 5.7 C 84 % 3.21 C
1158 12-02-2014 00:25:00 5.6 C 85 % 3.28 C
1159 12-02-2014 00:30:00 5.5 C 85 % 3.18 C
1160 12-02-2014 00:35:00 5.3 C 87 % 3.32 C
1161 12-02-2014 00:40:00 5.2 C 87 % 3.22 C
1162 12-02-2014 00:45:00 5.1 C 87 % 3.12 C
1163 12-02-2014 00:50:00 5.1 C 86 % 2.96 C
1164 12-02-2014 00:55:00 5.1 C 87 % 3.12 C
1165 12-02-2014 01:00:00 5.1 C 88 % 3.28 C
1166 12-02-2014 01:05:00 5.1 C 87 % 3.12 C
1167 12-02-2014 01:10:00 5.2 C 86 % 3.05 C
1168 12-02-2014 01:15:00 5.4 C 86 % 3.25 C
1169 12-02-2014 01:20:00 5.4 C 86 % 3.25 C
1170 12-02-2014 01:25:00 5.4 C 86 % 3.25 C
1171 12-02-2014 01:30:00 5.4 C 86 % 3.25 C
1172 12-02-2014 01:35:00 5.4 C 86 % 3.25 C
1173 12-02-2014 01:40:00 5.4 C 86 % 3.25 C
1174 12-02-2014 01:45:00 5.4 C 86 % 3.25 C
1175 12-02-2014 01:50:00 5.3 C 86 % 3.15 C
Sensor: Nr:Datum:Temp:Feuchte:Taupunkt:
Aussen-T/F 1176 12-02-2014 01:55:00 5.3 C 87 % 3.32 C
1177 12-02-2014 02:00:00 5.3 C 87 % 3.32 C
1178 12-02-2014 02:05:00 5.3 C 87 % 3.32 C
1179 12-02-2014 02:10:00 5.2 C 87 % 3.22 C
1180 12-02-2014 02:15:00 5.2 C 87 % 3.22 C
1181 12-02-2014 02:20:00 5.1 C 88 % 3.28 C
1182 12-02-2014 02:25:00 5.1 C 88 % 3.28 C
1183 12-02-2014 02:30:00 5.1 C 88 % 3.28 C
1184 12-02-2014 02:35:00 5.1 C 88 % 3.28 C
1185 12-02-2014 02:40:00 5.1 C 88 % 3.28 C
1186 12-02-2014 02:45:00 5.1 C 88 % 3.28 C
1187 12-02-2014 02:50:00 5.1 C 88 % 3.28 C
1188 12-02-2014 02:55:00 5.1 C 88 % 3.28 C
1189 12-02-2014 03:00:00 5.1 C 88 % 3.28 C
1190 12-02-2014 03:05:00 5.1 C 88 % 3.28 C
1191 12-02-2014 03:10:00 5.1 C 88 % 3.28 C
1192 12-02-2014 03:15:00 5.1 C 88 % 3.28 C
1193 12-02-2014 03:20:00 5.1 C 88 % 3.28 C
1194 12-02-2014 03:25:00 5.1 C 88 % 3.28 C
1195 12-02-2014 03:30:00 5.1 C 88 % 3.28 C
1196 12-02-2014 03:35:00 5 C 88 % 3.18 C
1197 12-02-2014 03:40:00 4.9 C 88 % 3.08 C
1198 12-02-2014 03:45:00 4.9 C 88 % 3.08 C
1199 12-02-2014 03:50:00 4.8 C 88 % 2.99 C
1200 12-02-2014 03:55:00 4.8 C 88 % 2.99 C
Sensor: Nr:Datum:Temp:Feuchte:Taupunkt:
Aussen-T/F 1201 12-02-2014 04:00:00 4.8 C 88 % 2.99 C
1202 12-02-2014 04:05:00 4.7 C 88 % 2.89 C
1203 12-02-2014 04:10:00 4.5 C 88 % 2.69 C
1204 12-02-2014 04:15:00 4.4 C 88 % 2.59 C
1205 12-02-2014 04:20:00 4.2 C 89 % 2.55 C
1206 12-02-2014 04:25:00 4.1 C 90 % 2.61 C
1207 12-02-2014 04:30:00 4.2 C 90 % 2.71 C
1208 12-02-2014 04:35:00 4.2 C 90 % 2.71 C
1209 12-02-2014 04:40:00 4.2 C 90 % 2.71 C
1210 12-02-2014 04:45:00 4 C 90 % 2.51 C
1211 12-02-2014 04:50:00 3.8 C 90 % 2.31 C
1212 12-02-2014 04:55:00 3.6 C 91 % 2.27 C
1213 12-02-2014 05:00:00 3.7 C 91 % 2.37 C
1214 12-02-2014 05:05:00 3.8 C 91 % 2.47 C
1215 12-02-2014 05:10:00 3.9 C 90 % 2.41 C
1216 12-02-2014 05:15:00 4 C 90 % 2.51 C
1217 12-02-2014 05:20:00 3.9 C 90 % 2.41 C
1218 12-02-2014 05:25:00 3.9 C 90 % 2.41 C
1219 12-02-2014 05:30:00 3.7 C 90 % 2.22 C
1220 12-02-2014 05:35:00 3.6 C 90 % 2.12 C
1221 12-02-2014 05:40:00 3.4 C 91 % 2.07 C
1222 12-02-2014 05:45:00 3.5 C 92 % 2.33 C
1223 12-02-2014 05:50:00 3.6 C 91 % 2.27 C
1224 12-02-2014 05:55:00 3.8 C 91 % 2.47 C
1225 12-02-2014 06:00:00 3.8 C 91 % 2.47 C
Sensor: Nr:Datum:Temp:Feuchte:Taupunkt:
Aussen-T/F 1226 12-02-2014 06:05:00 3.9 C 90 % 2.41 C
1227 12-02-2014 06:10:00 4 C 89 % 2.36 C
1228 12-02-2014 06:15:00 4.1 C 89 % 2.45 C
1229 12-02-2014 06:20:00 4.1 C 88 % 2.3 C
1230 12-02-2014 06:25:00 3.9 C 88 % 2.1 C
1231 12-02-2014 06:30:00 3.6 C 88 % 1.8 C
1232 12-02-2014 06:35:00 3.3 C 89 % 1.67 C
1233 12-02-2014 06:40:00 3.2 C 90 % 1.72 C
1234 12-02-2014 06:45:00 3.1 C 91 % 1.78 C
1235 12-02-2014 06:50:00 3.2 C 91 % 1.88 C
1236 12-02-2014 06:55:00 3.2 C 90 % 1.72 C
1237 12-02-2014 07:00:00 3.2 C 91 % 1.88 C
1238 12-02-2014 07:05:00 3.3 C 91 % 1.98 C
1239 12-02-2014 07:10:00 3.5 C 91 % 2.17 C
1240 12-02-2014 07:15:00 3.7 C 91 % 2.37 C
1241 12-02-2014 07:20:00 3.8 C 89 % 2.16 C
1242 12-02-2014 07:25:00 3.9 C 90 % 2.41 C
1243 12-02-2014 07:30:00 4.1 C 89 % 2.45 C
1244 12-02-2014 07:35:00 4.3 C 88 % 2.49 C
1245 12-02-2014 07:40:00 4.3 C 88 % 2.49 C
1246 12-02-2014 07:45:00 4.2 C 88 % 2.39 C
1247 12-02-2014 07:50:00 4.2 C 88 % 2.39 C
1248 12-02-2014 07:55:00 4.1 C 88 % 2.3 C
1249 12-02-2014 08:00:00 3.9 C 89 % 2.26 C
1250 12-02-2014 08:05:00 3.9 C 89 % 2.26 C
Sensor: Nr:Datum:Temp:Feuchte:Taupunkt:
Aussen-T/F 1251 12-02-2014 08:10:00 4 C 89 % 2.36 C
1252 12-02-2014 08:15:00 4 C 89 % 2.36 C
1253 12-02-2014 08:20:00 3.9 C 89 % 2.26 C
1254 12-02-2014 08:25:00 3.7 C 89 % 2.06 C
1255 12-02-2014 08:30:00 3.6 C 90 % 2.12 C
1256 12-02-2014 08:35:00 3.4 C 90 % 1.92 C
1257 12-02-2014 08:40:00 3.2 C 90 % 1.72 C
1258 12-02-2014 08:45:00 3 C 91 % 1.68 C
1259 12-02-2014 08:50:00 2.9 C 92 % 1.73 C
1260 12-02-2014 08:55:00 3.1 C 92 % 1.93 C
1261 12-02-2014 09:00:00 3.2 C 92 % 2.03 C
1262 12-02-2014 09:05:00 3.3 C 92 % 2.13 C
1263 12-02-2014 09:10:00 3.3 C 91 % 1.98 C
1264 12-02-2014 09:15:00 3.2 C 92 % 2.03 C
1265 12-02-2014 09:20:00 3.2 C 92 % 2.03 C
1266 12-02-2014 09:25:00 3.2 C 92 % 2.03 C
1267 12-02-2014 09:30:00 3.7 C 91 % 2.37 C
1268 12-02-2014 09:35:00 3.9 C 90 % 2.41 C
1269 12-02-2014 09:40:00 4.2 C 89 % 2.55 C
1270 12-02-2014 09:45:00 4.3 C 87 % 2.33 C
1271 12-02-2014 09:50:00 4.4 C 87 % 2.43 C
1272 12-02-2014 09:55:00 4.4 C 87 % 2.43 C
1273 12-02-2014 10:00:00 4.6 C 86 % 2.47 C
1274 12-02-2014 10:05:00 4.8 C 85 % 2.5 C
1275 12-02-2014 10:10:00 5.1 C 84 % 2.63 C
Sensor: Nr:Datum:Temp:Feuchte:Taupunkt:
Aussen-T/F 1276 12-02-2014 10:15:00 5.1 C 82 % 2.29 C
1277 12-02-2014 10:20:00 5.3 C 82 % 2.48 C
1278 12-02-2014 10:25:00 5.6 C 80 % 2.43 C
1279 12-02-2014 10:30:00 5.7 C 80 % 2.53 C
1280 12-02-2014 10:35:00 5.8 C 80 % 2.62 C
1281 12-02-2014 10:40:00 5.9 C 79 % 2.54 C
1282 12-02-2014 10:45:00 5.9 C 79 % 2.54 C
1283 12-02-2014 10:50:00 5.9 C 79 % 2.54 C
1284 12-02-2014 10:55:00 6 C 78 % 2.46 C
1285 12-02-2014 11:00:00 6.1 C 78 % 2.56 C
1286 12-02-2014 11:05:00 6.1 C 78 % 2.56 C
1287 12-02-2014 11:10:00 6.2 C 78 % 2.66 C
1288 12-02-2014 11:15:00 6.2 C 76 % 2.29 C
1289 12-02-2014 11:20:00 6.3 C 74 % 2.02 C
1290 12-02-2014 11:25:00 6.3 C 74 % 2.02 C
1291 12-02-2014 11:30:00 6.3 C 74 % 2.02 C
1292 12-02-2014 11:35:00 6.3 C 74 % 2.02 C
1293 12-02-2014 11:40:00 6.4 C 75 % 2.3 C
1294 12-02-2014 11:45:00 6.4 C 75 % 2.3 C
1295 12-02-2014 11:50:00 6.4 C 75 % 2.3 C
1296 12-02-2014 11:55:00 6.5 C 75 % 2.4 C
1297 12-02-2014 12:00:00 6.5 C 74 % 2.21 C
1298 12-02-2014 12:05:00 6.5 C 74 % 2.21 C
1299 12-02-2014 12:10:00 6.6 C 75 % 2.49 C
1300 12-02-2014 12:15:00 6.7 C 75 % 2.59 C
Sensor: Nr:Datum:Temp:Feuchte:Taupunkt:
Aussen-T/F 1301 12-02-2014 12:20:00 6.7 C 75 % 2.59 C
1302 12-02-2014 12:25:00 6.8 C 74 % 2.5 C
1303 12-02-2014 12:30:00 6.8 C 74 % 2.5 C
1304 12-02-2014 12:35:00 6.8 C 73 % 2.31 C
1305 12-02-2014 12:40:00 6.8 C 73 % 2.31 C
1306 12-02-2014 12:45:00 6.9 C 73 % 2.4 C
1307 12-02-2014 12:50:00 7 C 73 % 2.5 C
1308 12-02-2014 12:55:00 7 C 72 % 2.31 C
1309 12-02-2014 13:00:00 7.1 C 72 % 2.4 C
1310 12-02-2014 13:05:00 7.3 C 70 % 2.2 C
1311 12-02-2014 13:10:00 7.6 C 70 % 2.49 C
1312 12-02-2014 13:15:00 7.9 C 68 % 2.37 C
1313 12-02-2014 13:20:00 8.1 C 68 % 2.56 C
1314 12-02-2014 13:25:00 8.2 C 68 % 2.66 C
1315 12-02-2014 13:30:00 8.2 C 66 % 2.24 C
1316 12-02-2014 13:35:00 8.2 C 66 % 2.24 C
1317 12-02-2014 13:40:00 8.1 C 64 % 1.71 C
1318 12-02-2014 13:45:00 8.2 C 65 % 2.02 C
1319 12-02-2014 13:50:00 8.3 C 65 % 2.12 C
1320 12-02-2014 13:55:00 8.3 C 65 % 2.12 C
1321 12-02-2014 14:00:00 8.2 C 66 % 2.24 C
1322 12-02-2014 14:05:00 8.2 C 65 % 2.02 C
1323 12-02-2014 14:10:00 8.2 C 66 % 2.24 C
1324 12-02-2014 14:15:00 8.3 C 66 % 2.33 C
1325 12-02-2014 14:20:00 8.2 C 66 % 2.24 C
Sensor: Nr:Datum:Temp:Feuchte:Taupunkt:
Aussen-T/F 1326 12-02-2014 14:25:00 8.1 C 66 % 2.14 C
1327 12-02-2014 14:30:00 8.1 C 66 % 2.14 C
1328 12-02-2014 14:35:00 8.1 C 66 % 2.14 C
1329 12-02-2014 14:40:00 8 C 66 % 2.05 C
1330 12-02-2014 14:45:00 8 C 67 % 2.26 C
1331 12-02-2014 14:50:00 8.1 C 66 % 2.14 C
1332 12-02-2014 14:55:00 8.2 C 65 % 2.02 C
1333 12-02-2014 15:00:00 8.4 C 65 % 2.21 C
1334 12-02-2014 15:05:00 8.4 C 62 % 1.55 C
1335 12-02-2014 15:10:00 8.4 C 63 % 1.78 C
1336 12-02-2014 15:15:00 8.4 C 62 % 1.55 C
1337 12-02-2014 15:20:00 8.4 C 63 % 1.78 C
1338 12-02-2014 15:25:00 8.3 C 63 % 1.68 C
1339 12-02-2014 15:30:00 8.3 C 63 % 1.68 C
1340 12-02-2014 15:35:00 8.4 C 64 % 2 C
1341 12-02-2014 15:40:00 8.4 C 63 % 1.78 C
1342 12-02-2014 15:45:00 8.4 C 64 % 2 C
1343 12-02-2014 15:50:00 8.2 C 63 % 1.59 C
1344 12-02-2014 15:55:00 8.1 C 64 % 1.71 C
1345 12-02-2014 16:00:00 8.1 C 63 % 1.49 C
1346 12-02-2014 16:05:00 8 C 64 % 1.62 C
1347 12-02-2014 16:10:00 7.9 C 65 % 1.74 C
1348 12-02-2014 16:15:00 7.9 C 67 % 2.16 C
1349 12-02-2014 16:20:00 7.7 C 66 % 1.76 C
1350 12-02-2014 16:25:00 7.7 C 65 % 1.55 C
Sensor: Nr:Datum:Temp:Feuchte:Taupunkt:
Aussen-T/F 1351 12-02-2014 16:30:00 7.5 C 65 % 1.36 C
1352 12-02-2014 16:35:00 7.2 C 71 % 2.3 C
1353 12-02-2014 16:40:00 6.8 C 73 % 2.31 C
1354 12-02-2014 16:45:00 6.5 C 73 % 2.02 C
1355 12-02-2014 16:50:00 6.3 C 75 % 2.2 C
1356 12-02-2014 16:55:00 6.2 C 75 % 2.11 C
1357 12-02-2014 17:00:00 6.1 C 75 % 2.01 C
1358 12-02-2014 17:05:00 6 C 75 % 1.91 C
1359 12-02-2014 17:10:00 5.9 C 75 % 1.82 C
1360 12-02-2014 17:15:00 5.7 C 76 % 1.81 C
1361 12-02-2014 17:20:00 5.7 C 76 % 1.81 C
1362 12-02-2014 17:25:00 5.7 C 76 % 1.81 C
1363 12-02-2014 17:30:00 5.7 C 75 % 1.62 C
1364 12-02-2014 17:35:00 5.7 C 74 % 1.44 C
1365 12-02-2014 17:40:00 5.9 C 75 % 1.82 C
1366 12-02-2014 17:45:00 5.8 C 75 % 1.72 C
1367 12-02-2014 17:50:00 5.6 C 75 % 1.53 C
1368 12-02-2014 17:55:00 5.3 C 77 % 1.6 C
1369 12-02-2014 18:00:00 5 C 79 % 1.67 C
1370 12-02-2014 18:05:00 4.8 C 79 % 1.47 C
1371 12-02-2014 18:10:00 4.8 C 80 % 1.65 C
1372 12-02-2014 18:15:00 4.7 C 81 % 1.73 C
1373 12-02-2014 18:20:00 4.5 C 82 % 1.7 C
1374 12-02-2014 18:25:00 4.4 C 82 % 1.6 C
1375 12-02-2014 18:30:00 4.3 C 83 % 1.67 C
Sensor: Nr:Datum:Temp:Feuchte:Taupunkt:
Aussen-T/F 1376 12-02-2014 18:35:00 4.3 C 83 % 1.67 C
1377 12-02-2014 18:40:00 4.4 C 82 % 1.6 C
1378 12-02-2014 18:45:00 4.4 C 82 % 1.6 C
1379 12-02-2014 18:50:00 4.5 C 83 % 1.87 C
1380 12-02-2014 18:55:00 4.4 C 82 % 1.6 C
1381 12-02-2014 19:00:00 4.3 C 83 % 1.67 C
1382 12-02-2014 19:05:00 4.2 C 83 % 1.58 C
1383 12-02-2014 19:10:00 4.3 C 83 % 1.67 C
1384 12-02-2014 19:15:00 4.4 C 84 % 1.94 C
1385 12-02-2014 19:20:00 4.5 C 84 % 2.04 C
1386 12-02-2014 19:25:00 4.4 C 84 % 1.94 C
1387 12-02-2014 19:30:00 4.4 C 84 % 1.94 C
1388 12-02-2014 19:35:00 4.3 C 85 % 2.01 C
1389 12-02-2014 19:40:00 4.3 C 85 % 2.01 C
1390 12-02-2014 19:45:00 4.3 C 86 % 2.17 C
1391 12-02-2014 19:50:00 4.3 C 86 % 2.17 C
1392 12-02-2014 19:55:00 4.3 C 85 % 2.01 C
1393 12-02-2014 20:00:00 4.4 C 85 % 2.11 C
1394 12-02-2014 20:05:00 4.4 C 85 % 2.11 C
1395 12-02-2014 20:10:00 4.4 C 85 % 2.11 C
1396 12-02-2014 20:15:00 4.4 C 84 % 1.94 C
1397 12-02-2014 20:20:00 4.5 C 84 % 2.04 C
1398 12-02-2014 20:25:00 4.5 C 85 % 2.2 C
1399 12-02-2014 20:30:00 4.5 C 85 % 2.2 C
1400 12-02-2014 20:35:00 4.6 C 84 % 2.14 C
Sensor: Nr:Datum:Temp:Feuchte:Taupunkt:
Aussen-T/F 1401 12-02-2014 20:40:00 4.7 C 84 % 2.23 C
1402 12-02-2014 20:45:00 4.8 C 84 % 2.33 C
1403 12-02-2014 20:50:00 4.9 C 84 % 2.43 C
1404 12-02-2014 20:55:00 4.9 C 84 % 2.43 C
1405 12-02-2014 21:00:00 4.8 C 84 % 2.33 C
1406 12-02-2014 21:05:00 4.8 C 85 % 2.5 C
1407 12-02-2014 21:10:00 4.8 C 85 % 2.5 C
1408 12-02-2014 21:15:00 4.8 C 84 % 2.33 C
1409 12-02-2014 21:20:00 4.8 C 84 % 2.33 C
1410 12-02-2014 21:25:00 4.8 C 84 % 2.33 C
1411 12-02-2014 21:30:00 4.9 C 85 % 2.6 C
1412 12-02-2014 21:35:00 4.9 C 84 % 2.43 C
1413 12-02-2014 21:40:00 4.9 C 84 % 2.43 C
1414 12-02-2014 21:45:00 4.9 C 82 % 2.09 C
1415 12-02-2014 21:50:00 5.1 C 82 % 2.29 C
1416 12-02-2014 21:55:00 5.2 C 81 % 2.21 C
1417 12-02-2014 22:00:00 5.3 C 82 % 2.48 C
1418 12-02-2014 22:05:00 5.4 C 79 % 2.06 C
1419 12-02-2014 22:10:00 5.8 C 77 % 2.09 C
1420 12-02-2014 22:15:00 6.1 C 76 % 2.2 C
1421 12-02-2014 22:20:00 6.4 C 73 % 1.92 C
1422 12-02-2014 22:25:00 6.7 C 72 % 2.02 C
1423 12-02-2014 22:30:00 6.8 C 71 % 1.92 C
1424 12-02-2014 22:35:00 7 C 70 % 1.91 C
1425 12-02-2014 22:40:00 7.1 C 71 % 2.21 C
Sensor: Nr:Datum:Temp:Feuchte:Taupunkt:
Aussen-T/F 1426 12-02-2014 22:45:00 7.2 C 72 % 2.5 C
1427 12-02-2014 22:50:00 7.1 C 75 % 2.98 C
1428 12-02-2014 22:55:00 6.8 C 77 % 3.06 C
1429 12-02-2014 23:00:00 6.6 C 78 % 3.05 C
1430 12-02-2014 23:05:00 6.5 C 81 % 3.48 C
1431 12-02-2014 23:10:00 6.3 C 81 % 3.29 C
1432 12-02-2014 23:15:00 6.2 C 82 % 3.36 C
1433 12-02-2014 23:20:00 6.2 C 82 % 3.36 C
1434 12-02-2014 23:25:00 6.1 C 83 % 3.44 C
1435 12-02-2014 23:30:00 6 C 83 % 3.34 C
1436 12-02-2014 23:35:00 5.9 C 83 % 3.24 C
1437 12-02-2014 23:40:00 5.9 C 83 % 3.24 C
1438 12-02-2014 23:45:00 5.8 C 84 % 3.31 C
1439 12-02-2014 23:50:00 5.7 C 85 % 3.38 C
1440 12-02-2014 23:55:00 5.7 C 85 % 3.38 C
1441 13-02-2014 00:00:00 5.6 C 85 % 3.28 C
1442 13-02-2014 00:05:00 5.6 C 86 % 3.45 C
1443 13-02-2014 00:10:00 5.5 C 86 % 3.35 C
1444 13-02-2014 00:15:00 5.5 C 86 % 3.35 C
1445 13-02-2014 00:20:00 5.4 C 86 % 3.25 C
1446 13-02-2014 00:25:00 5.4 C 86 % 3.25 C
1447 13-02-2014 00:30:00 5.6 C 85 % 3.28 C
1448 13-02-2014 00:35:00 5.7 C 85 % 3.38 C
1449 13-02-2014 00:40:00 5.7 C 85 % 3.38 C
1450 13-02-2014 00:45:00 5.8 C 84 % 3.31 C
Sensor: Nr:Datum:Temp:Feuchte:Taupunkt:
Aussen-T/F 1451 13-02-2014 00:50:00 5.8 C 84 % 3.31 C
1452 13-02-2014 00:55:00 5.9 C 84 % 3.41 C
1453 13-02-2014 01:00:00 5.9 C 84 % 3.41 C
1454 13-02-2014 01:05:00 5.9 C 84 % 3.41 C
1455 13-02-2014 01:10:00 5.9 C 84 % 3.41 C
1456 13-02-2014 01:15:00 5.9 C 84 % 3.41 C
1457 13-02-2014 01:20:00 6 C 84 % 3.51 C
1458 13-02-2014 01:25:00 6 C 84 % 3.51 C
1459 13-02-2014 01:30:00 6.1 C 84 % 3.61 C
1460 13-02-2014 01:35:00 6.1 C 85 % 3.77 C
1461 13-02-2014 01:40:00 6.1 C 86 % 3.94 C
1462 13-02-2014 01:45:00 6 C 86 % 3.84 C
1463 13-02-2014 01:50:00 6 C 86 % 3.84 C
1464 13-02-2014 01:55:00 5.9 C 86 % 3.74 C
1465 13-02-2014 02:00:00 5.8 C 87 % 3.81 C
1466 13-02-2014 02:05:00 5.8 C 87 % 3.81 C
1467 13-02-2014 02:10:00 5.9 C 87 % 3.91 C
1468 13-02-2014 02:15:00 5.9 C 87 % 3.91 C
1469 13-02-2014 02:20:00 6 C 87 % 4 C
1470 13-02-2014 02:25:00 6 C 87 % 4 C
1471 13-02-2014 02:30:00 6.1 C 87 % 4.1 C
1472 13-02-2014 02:35:00 6 C 88 % 4.17 C
1473 13-02-2014 02:40:00 5.9 C 88 % 4.07 C
1474 13-02-2014 02:45:00 5.9 C 88 % 4.07 C
1475 13-02-2014 02:50:00 5.9 C 88 % 4.07 C
Sensor: Nr:Datum:Temp:Feuchte:Taupunkt:
Aussen-T/F 1476 13-02-2014 02:55:00 5.9 C 89 % 4.23 C
1477 13-02-2014 03:00:00 5.9 C 89 % 4.23 C
1478 13-02-2014 03:05:00 5.8 C 89 % 4.13 C
1479 13-02-2014 03:10:00 5.8 C 90 % 4.29 C
1480 13-02-2014 03:15:00 5.7 C 90 % 4.19 C
1481 13-02-2014 03:20:00 5.7 C 91 % 4.35 C
1482 13-02-2014 03:25:00 5.7 C 92 % 4.5 C
1483 13-02-2014 03:30:00 5.7 C 93 % 4.66 C
1484 13-02-2014 03:35:00 5.7 C 93 % 4.66 C
1485 13-02-2014 03:40:00 5.6 C 94 % 4.71 C
1486 13-02-2014 03:45:00 5.8 C 94 % 4.91 C
1487 13-02-2014 03:50:00 6 C 93 % 4.96 C
1488 13-02-2014 03:55:00 6.3 C 91 % 4.94 C
1489 13-02-2014 04:00:00 6.4 C 91 % 5.04 C
1490 13-02-2014 04:05:00 6.3 C 92 % 5.1 C
1491 13-02-2014 04:10:00 6.3 C 92 % 5.1 C
1492 13-02-2014 04:15:00 6.2 C 93 % 5.15 C
1493 13-02-2014 04:20:00 6.1 C 93 % 5.06 C
1494 13-02-2014 04:25:00 6.1 C 92 % 4.9 C
1495 13-02-2014 04:30:00 6.2 C 91 % 4.84 C
1496 13-02-2014 04:35:00 6.2 C 90 % 4.69 C
1497 13-02-2014 04:40:00 6.2 C 88 % 4.36 C
1498 13-02-2014 04:45:00 6.3 C 88 % 4.46 C
1499 13-02-2014 04:50:00 6.2 C 88 % 4.36 C
1500 13-02-2014 04:55:00 5.9 C 89 % 4.23 C
Sensor: Nr:Datum:Temp:Feuchte:Taupunkt:
Aussen-T/F 1501 13-02-2014 05:00:00 6.2 C 89 % 4.53 C
1502 13-02-2014 05:05:00 6.4 C 89 % 4.72 C
1503 13-02-2014 05:10:00 6.5 C 88 % 4.66 C
1504 13-02-2014 05:15:00 6.4 C 88 % 4.56 C
1505 13-02-2014 05:20:00 6.5 C 87 % 4.5 C
1506 13-02-2014 05:25:00 6.6 C 86 % 4.43 C
1507 13-02-2014 05:30:00 6.6 C 86 % 4.43 C
1508 13-02-2014 05:35:00 6.3 C 86 % 4.14 C
1509 13-02-2014 05:40:00 5.9 C 87 % 3.91 C
1510 13-02-2014 05:45:00 5.7 C 88 % 3.87 C
1511 13-02-2014 05:50:00 5.6 C 88 % 3.77 C
1512 13-02-2014 05:55:00 5.3 C 89 % 3.64 C
1513 13-02-2014 06:00:00 5.1 C 90 % 3.6 C
1514 13-02-2014 06:05:00 4.9 C 90 % 3.4 C
1515 13-02-2014 06:10:00 5.1 C 90 % 3.6 C
1516 13-02-2014 06:15:00 5.3 C 90 % 3.8 C
1517 13-02-2014 06:20:00 5.2 C 90 % 3.7 C
1518 13-02-2014 06:25:00 5.2 C 91 % 3.85 C
1519 13-02-2014 06:30:00 5.3 C 91 % 3.95 C
1520 13-02-2014 06:35:00 5.4 C 90 % 3.89 C
1521 13-02-2014 06:40:00 5.7 C 88 % 3.87 C
1522 13-02-2014 06:45:00 6.1 C 87 % 4.1 C
1523 13-02-2014 06:50:00 6.1 C 86 % 3.94 C
1524 13-02-2014 06:55:00 5.8 C 87 % 3.81 C
1525 13-02-2014 07:00:00 5.8 C 88 % 3.97 C
Sensor: Nr:Datum:Temp:Feuchte:Taupunkt:
Aussen-T/F 1526 13-02-2014 07:05:00 5.7 C 88 % 3.87 C
1527 13-02-2014 07:10:00 5.5 C 89 % 3.84 C
1528 13-02-2014 07:15:00 5.5 C 89 % 3.84 C
1529 13-02-2014 07:20:00 5.3 C 89 % 3.64 C
1530 13-02-2014 07:25:00 5.3 C 89 % 3.64 C
1531 13-02-2014 07:30:00 5.4 C 88 % 3.58 C
1532 13-02-2014 07:35:00 5.3 C 89 % 3.64 C
1533 13-02-2014 07:40:00 5.3 C 89 % 3.64 C
1534 13-02-2014 07:45:00 5.2 C 90 % 3.7 C
1535 13-02-2014 07:50:00 5.2 C 90 % 3.7 C
1536 13-02-2014 07:55:00 5.6 C 88 % 3.77 C
1537 13-02-2014 08:00:00 6 C 88 % 4.17 C
1538 13-02-2014 08:05:00 6 C 88 % 4.17 C
1539 13-02-2014 08:10:00 5.9 C 89 % 4.23 C
1540 13-02-2014 08:15:00 5.8 C 89 % 4.13 C
1541 13-02-2014 08:20:00 5.9 C 88 % 4.07 C
1542 13-02-2014 08:25:00 5.9 C 88 % 4.07 C
1543 13-02-2014 08:30:00 5.8 C 89 % 4.13 C
1544 13-02-2014 08:35:00 5.8 C 89 % 4.13 C
1545 13-02-2014 08:40:00 5.7 C 89 % 4.03 C
1546 13-02-2014 08:45:00 5.8 C 89 % 4.13 C
1547 13-02-2014 08:50:00 5.9 C 88 % 4.07 C
1548 13-02-2014 08:55:00 6.1 C 88 % 4.27 C
1549 13-02-2014 09:00:00 6.2 C 87 % 4.2 C
1550 13-02-2014 09:05:00 6.2 C 88 % 4.36 C
Sensor: Nr:Datum:Temp:Feuchte:Taupunkt:
Aussen-T/F 1551 13-02-2014 09:10:00 6.1 C 87 % 4.1 C
1552 13-02-2014 09:15:00 6.2 C 88 % 4.36 C
1553 13-02-2014 09:20:00 6.2 C 88 % 4.36 C
1554 13-02-2014 09:25:00 6.2 C 89 % 4.53 C
1555 13-02-2014 09:30:00 6.2 C 89 % 4.53 C
1556 13-02-2014 09:35:00 6.2 C 89 % 4.53 C
1557 13-02-2014 09:40:00 6.3 C 88 % 4.46 C
1558 13-02-2014 09:45:00 6.4 C 87 % 4.4 C
1559 13-02-2014 09:50:00 6.7 C 85 % 4.36 C
1560 13-02-2014 09:55:00 6.8 C 85 % 4.46 C
1561 13-02-2014 10:00:00 6.9 C 84 % 4.39 C
1562 13-02-2014 10:05:00 7.1 C 84 % 4.58 C
1563 13-02-2014 10:10:00 7.2 C 83 % 4.51 C
1564 13-02-2014 10:15:00 7.3 C 82 % 4.44 C
1565 13-02-2014 10:20:00 7.4 C 82 % 4.53 C
1566 13-02-2014 10:25:00 7.6 C 82 % 4.73 C
1567 13-02-2014 10:30:00 7.6 C 82 % 4.73 C
1568 13-02-2014 10:35:00 7.7 C 82 % 4.83 C
1569 13-02-2014 10:40:00 7.7 C 82 % 4.83 C
1570 13-02-2014 10:45:00 7.8 C 81 % 4.75 C
1571 13-02-2014 10:50:00 7.8 C 81 % 4.75 C
1572 13-02-2014 10:55:00 7.9 C 82 % 5.02 C
1573 13-02-2014 11:00:00 7.9 C 82 % 5.02 C
1574 13-02-2014 11:05:00 7.9 C 81 % 4.85 C
1575 13-02-2014 11:10:00 7.9 C 83 % 5.2 C
Sensor: Nr:Datum:Temp:Feuchte:Taupunkt:
Aussen-T/F 1576 13-02-2014 11:15:00 7.9 C 82 % 5.02 C
1577 13-02-2014 11:20:00 7.9 C 82 % 5.02 C
1578 13-02-2014 11:25:00 7.9 C 82 % 5.02 C
1579 13-02-2014 11:30:00 7.9 C 82 % 5.02 C
1580 13-02-2014 11:35:00 7.9 C 82 % 5.02 C
1581 13-02-2014 11:40:00 7.9 C 83 % 5.2 C
1582 13-02-2014 11:45:00 8 C 83 % 5.29 C
1583 13-02-2014 11:50:00 7.9 C 84 % 5.37 C
1584 13-02-2014 11:55:00 7.9 C 84 % 5.37 C
1585 13-02-2014 12:00:00 7.9 C 85 % 5.54 C
1586 13-02-2014 12:05:00 7.8 C 86 % 5.61 C
1587 13-02-2014 12:10:00 7.8 C 86 % 5.61 C
1588 13-02-2014 12:15:00 7.7 C 88 % 5.84 C
1589 13-02-2014 12:20:00 7.6 C 88 % 5.74 C
1590 13-02-2014 12:25:00 7.4 C 90 % 5.87 C
1591 13-02-2014 12:30:00 7.2 C 91 % 5.83 C
1592 13-02-2014 12:35:00 7.1 C 91 % 5.73 C
1593 13-02-2014 12:40:00 6.8 C 88 % 4.96 C
1594 13-02-2014 12:45:00 6.8 C 90 % 5.28 C
1595 13-02-2014 12:50:00 6.7 C 91 % 5.34 C
1596 13-02-2014 12:55:00 6.6 C 91 % 5.24 C
1597 13-02-2014 13:00:00 6.5 C 92 % 5.3 C
1598 13-02-2014 13:05:00 6.3 C 91 % 4.94 C
1599 13-02-2014 13:10:00 6.2 C 91 % 4.84 C
1600 13-02-2014 13:15:00 6.1 C 91 % 4.74 C
Sensor: Nr:Datum:Temp:Feuchte:Taupunkt:
Aussen-T/F 1601 13-02-2014 13:20:00 5.9 C 91 % 4.55 C
1602 13-02-2014 13:25:00 5.9 C 92 % 4.7 C
1603 13-02-2014 13:30:00 5.8 C 91 % 4.45 C
1604 13-02-2014 13:35:00 5.8 C 92 % 4.6 C
1605 13-02-2014 13:40:00 5.8 C 92 % 4.6 C
1606 13-02-2014 13:45:00 5.7 C 92 % 4.5 C
1607 13-02-2014 13:50:00 5.6 C 92 % 4.41 C
1608 13-02-2014 13:55:00 5.4 C 91 % 4.05 C
1609 13-02-2014 14:00:00 5.4 C 91 % 4.05 C
1610 13-02-2014 14:05:00 5.3 C 92 % 4.11 C
1611 13-02-2014 14:10:00 5.3 C 92 % 4.11 C
1612 13-02-2014 14:15:00 5.2 C 92 % 4.01 C
1613 13-02-2014 14:20:00 5.1 C 92 % 3.91 C
1614 13-02-2014 14:25:00 5 C 92 % 3.81 C
1615 13-02-2014 14:30:00 4.8 C 92 % 3.61 C
1616 13-02-2014 14:35:00 4.8 C 92 % 3.61 C
1617 13-02-2014 14:40:00 4.7 C 93 % 3.67 C
1618 13-02-2014 14:45:00 4.7 C 93 % 3.67 C
1619 13-02-2014 14:50:00 4.6 C 92 % 3.42 C
1620 13-02-2014 14:55:00 4.6 C 93 % 3.57 C
1621 13-02-2014 15:00:00 4.6 C 92 % 3.42 C
1622 13-02-2014 15:05:00 4.6 C 93 % 3.57 C
1623 13-02-2014 15:10:00 4.6 C 93 % 3.57 C
1624 13-02-2014 15:15:00 4.6 C 93 % 3.57 C
1625 13-02-2014 15:20:00 4.6 C 93 % 3.57 C
Sensor: Nr:Datum:Temp:Feuchte:Taupunkt:
Aussen-T/F 1626 13-02-2014 15:25:00 4.7 C 94 % 3.82 C
1627 13-02-2014 15:30:00 4.7 C 94 % 3.82 C
1628 13-02-2014 15:35:00 4.6 C 94 % 3.72 C
1629 13-02-2014 15:40:00 4.6 C 94 % 3.72 C
1630 13-02-2014 15:45:00 4.6 C 94 % 3.72 C
1631 13-02-2014 15:50:00 4.6 C 94 % 3.72 C
1632 13-02-2014 15:55:00 4.6 C 94 % 3.72 C
1633 13-02-2014 16:00:00 4.6 C 94 % 3.72 C
1634 13-02-2014 16:05:00 4.6 C 94 % 3.72 C
1635 13-02-2014 16:10:00 4.6 C 94 % 3.72 C
1636 13-02-2014 16:15:00 4.6 C 94 % 3.72 C
1637 13-02-2014 16:20:00 4.6 C 94 % 3.72 C
1638 13-02-2014 16:25:00 4.6 C 94 % 3.72 C
1639 13-02-2014 16:30:00 4.6 C 94 % 3.72 C
1640 13-02-2014 16:35:00 4.5 C 93 % 3.47 C
1641 13-02-2014 16:40:00 4.5 C 94 % 3.62 C
1642 13-02-2014 16:45:00 4.5 C 94 % 3.62 C
1643 13-02-2014 16:50:00 4.5 C 94 % 3.62 C
1644 13-02-2014 16:55:00 4.4 C 94 % 3.52 C
1645 13-02-2014 17:00:00 4.4 C 94 % 3.52 C
1646 13-02-2014 17:05:00 4.4 C 94 % 3.52 C
1647 13-02-2014 17:10:00 4.5 C 94 % 3.62 C
1648 13-02-2014 17:15:00 4.5 C 94 % 3.62 C
1649 13-02-2014 17:20:00 4.6 C 94 % 3.72 C
1650 13-02-2014 17:25:00 4.6 C 93 % 3.57 C
Sensor: Nr:Datum:Temp:Feuchte:Taupunkt:
Aussen-T/F 1651 13-02-2014 17:30:00 4.6 C 93 % 3.57 C
1652 13-02-2014 17:35:00 4.7 C 93 % 3.67 C
1653 13-02-2014 17:40:00 4.7 C 93 % 3.67 C
1654 13-02-2014 17:45:00 4.7 C 93 % 3.67 C
1655 13-02-2014 17:50:00 4.7 C 93 % 3.67 C
1656 13-02-2014 17:55:00 4.7 C 93 % 3.67 C
1657 13-02-2014 18:00:00 4.8 C 93 % 3.77 C
1658 13-02-2014 18:05:00 4.8 C 93 % 3.77 C
1659 13-02-2014 18:10:00 4.8 C 93 % 3.77 C
1660 13-02-2014 18:15:00 4.9 C 92 % 3.71 C
1661 13-02-2014 18:20:00 5 C 92 % 3.81 C
1662 13-02-2014 18:25:00 5.1 C 92 % 3.91 C
1663 13-02-2014 18:30:00 5.2 C 92 % 4.01 C
1664 13-02-2014 18:35:00 5.2 C 91 % 3.85 C
1665 13-02-2014 18:40:00 5.2 C 91 % 3.85 C
1666 13-02-2014 18:45:00 5.3 C 91 % 3.95 C
1667 13-02-2014 18:50:00 5.4 C 90 % 3.89 C
1668 13-02-2014 18:55:00 5.5 C 90 % 3.99 C
1669 13-02-2014 19:00:00 5.6 C 90 % 4.09 C
1670 13-02-2014 19:05:00 5.7 C 89 % 4.03 C
1671 13-02-2014 19:10:00 5.7 C 89 % 4.03 C
1672 13-02-2014 19:15:00 5.7 C 89 % 4.03 C
1673 13-02-2014 19:20:00 5.7 C 90 % 4.19 C
1674 13-02-2014 19:25:00 5.6 C 90 % 4.09 C
1675 13-02-2014 19:30:00 5.6 C 91 % 4.25 C
Sensor: Nr:Datum:Temp:Feuchte:Taupunkt:
Aussen-T/F 1676 13-02-2014 19:35:00 5.6 C 91 % 4.25 C
1677 13-02-2014 19:40:00 5.5 C 91 % 4.15 C
1678 13-02-2014 19:45:00 5.4 C 91 % 4.05 C
1679 13-02-2014 19:50:00 5.5 C 91 % 4.15 C
1680 13-02-2014 19:55:00 5.5 C 91 % 4.15 C
1681 13-02-2014 20:00:00 5.6 C 91 % 4.25 C
1682 13-02-2014 20:05:00 5.7 C 90 % 4.19 C
1683 13-02-2014 20:10:00 5.7 C 90 % 4.19 C
1684 13-02-2014 20:15:00 5.7 C 90 % 4.19 C
1685 13-02-2014 20:20:00 5.6 C 90 % 4.09 C
1686 13-02-2014 20:25:00 5.6 C 89 % 3.93 C
1687 13-02-2014 20:30:00 5.6 C 88 % 3.77 C
1688 13-02-2014 20:35:00 5.7 C 88 % 3.87 C
1689 13-02-2014 20:40:00 5.7 C 87 % 3.71 C
1690 13-02-2014 20:45:00 5.7 C 87 % 3.71 C
1691 13-02-2014 20:50:00 5.6 C 87 % 3.61 C
1692 13-02-2014 20:55:00 5.5 C 87 % 3.51 C
1693 13-02-2014 21:00:00 5.4 C 86 % 3.25 C
1694 13-02-2014 21:05:00 5.4 C 86 % 3.25 C
1695 13-02-2014 21:10:00 5.6 C 86 % 3.45 C
1696 13-02-2014 21:15:00 5.6 C 86 % 3.45 C
1697 13-02-2014 21:20:00 5.5 C 86 % 3.35 C
1698 13-02-2014 21:25:00 5.4 C 85 % 3.09 C
1699 13-02-2014 21:30:00 5.3 C 86 % 3.15 C
1700 13-02-2014 21:35:00 5.3 C 85 % 2.99 C
Sensor: Nr:Datum:Temp:Feuchte:Taupunkt:
Aussen-T/F 1701 13-02-2014 21:40:00 5.3 C 85 % 2.99 C
1702 13-02-2014 21:45:00 5.4 C 84 % 2.92 C
1703 13-02-2014 21:50:00 5.4 C 83 % 2.75 C
1704 13-02-2014 21:55:00 5.4 C 83 % 2.75 C
1705 13-02-2014 22:00:00 5.3 C 83 % 2.65 C
1706 13-02-2014 22:05:00 5.3 C 82 % 2.48 C
1707 13-02-2014 22:10:00 5.2 C 82 % 2.39 C
1708 13-02-2014 22:15:00 5.3 C 81 % 2.31 C
1709 13-02-2014 22:20:00 5.3 C 81 % 2.31 C
1710 13-02-2014 22:25:00 5.2 C 82 % 2.39 C
1711 13-02-2014 22:30:00 5.1 C 83 % 2.46 C
1712 13-02-2014 22:35:00 4.9 C 84 % 2.43 C
1713 13-02-2014 22:40:00 4.6 C 85 % 2.3 C
1714 13-02-2014 22:45:00 4.4 C 85 % 2.11 C
1715 13-02-2014 22:50:00 4.4 C 85 % 2.11 C
1716 13-02-2014 22:55:00 4.6 C 84 % 2.14 C
1717 13-02-2014 23:00:00 4.7 C 83 % 2.07 C
1718 13-02-2014 23:05:00 4.8 C 83 % 2.16 C
1719 13-02-2014 23:10:00 4.8 C 83 % 2.16 C
1720 13-02-2014 23:15:00 4.7 C 84 % 2.23 C
1721 13-02-2014 23:20:00 4.5 C 85 % 2.2 C
1722 13-02-2014 23:25:00 4.3 C 86 % 2.17 C
1723 13-02-2014 23:30:00 4.3 C 85 % 2.01 C
1724 13-02-2014 23:35:00 4.3 C 86 % 2.17 C
1725 13-02-2014 23:40:00 4.1 C 86 % 1.97 C
Sensor: Nr:Datum:Temp:Feuchte:Taupunkt:
Aussen-T/F 1726 13-02-2014 23:45:00 4.1 C 86 % 1.97 C
1727 13-02-2014 23:50:00 4.2 C 86 % 2.07 C
1728 13-02-2014 23:55:00 4.3 C 85 % 2.01 C
1729 14-02-2014 00:00:00 4.6 C 84 % 2.14 C
1730 14-02-2014 00:05:00 4.7 C 84 % 2.23 C
1731 14-02-2014 00:10:00 4.8 C 84 % 2.33 C
1732 14-02-2014 00:15:00 4.8 C 85 % 2.5 C
1733 14-02-2014 00:20:00 4.6 C 86 % 2.47 C
1734 14-02-2014 00:25:00 4.4 C 85 % 2.11 C
1735 14-02-2014 00:30:00 4.2 C 86 % 2.07 C
1736 14-02-2014 00:35:00 4.2 C 86 % 2.07 C
1737 14-02-2014 00:40:00 4.2 C 87 % 2.23 C
1738 14-02-2014 00:45:00 4.3 C 86 % 2.17 C
1739 14-02-2014 00:50:00 4.4 C 86 % 2.27 C
1740 14-02-2014 00:55:00 4.3 C 86 % 2.17 C
1741 14-02-2014 01:00:00 4.3 C 86 % 2.17 C
1742 14-02-2014 01:05:00 4.3 C 86 % 2.17 C
1743 14-02-2014 01:10:00 4.3 C 86 % 2.17 C
1744 14-02-2014 01:15:00 4.4 C 86 % 2.27 C
1745 14-02-2014 01:20:00 4.4 C 86 % 2.27 C
1746 14-02-2014 01:25:00 4.4 C 86 % 2.27 C
1747 14-02-2014 01:30:00 4.3 C 86 % 2.17 C
1748 14-02-2014 01:35:00 4.2 C 86 % 2.07 C
1749 14-02-2014 01:40:00 4.2 C 86 % 2.07 C
1750 14-02-2014 01:45:00 4.4 C 85 % 2.11 C
Sensor: Nr:Datum:Temp:Feuchte:Taupunkt:
Aussen-T/F 1751 14-02-2014 01:50:00 4.5 C 85 % 2.2 C
1752 14-02-2014 01:55:00 4.7 C 84 % 2.23 C
1753 14-02-2014 02:00:00 4.7 C 84 % 2.23 C
1754 14-02-2014 02:05:00 4.8 C 84 % 2.33 C
1755 14-02-2014 02:10:00 4.7 C 84 % 2.23 C
1756 14-02-2014 02:15:00 4.7 C 84 % 2.23 C
1757 14-02-2014 02:20:00 4.8 C 83 % 2.16 C
1758 14-02-2014 02:25:00 4.8 C 83 % 2.16 C
1759 14-02-2014 02:30:00 4.9 C 84 % 2.43 C
1760 14-02-2014 02:35:00 5 C 83 % 2.36 C
1761 14-02-2014 02:40:00 5.1 C 83 % 2.46 C
1762 14-02-2014 02:45:00 5.1 C 82 % 2.29 C
1763 14-02-2014 02:50:00 5.2 C 82 % 2.39 C
1764 14-02-2014 02:55:00 5.2 C 82 % 2.39 C
1765 14-02-2014 03:00:00 5.1 C 82 % 2.29 C
1766 14-02-2014 03:05:00 5 C 83 % 2.36 C
1767 14-02-2014 03:10:00 4.9 C 83 % 2.26 C
1768 14-02-2014 03:15:00 4.9 C 83 % 2.26 C
1769 14-02-2014 03:20:00 4.9 C 83 % 2.26 C
1770 14-02-2014 03:25:00 4.9 C 83 % 2.26 C
1771 14-02-2014 03:30:00 4.9 C 83 % 2.26 C
1772 14-02-2014 03:35:00 5 C 82 % 2.19 C
1773 14-02-2014 03:40:00 5.1 C 82 % 2.29 C
1774 14-02-2014 03:45:00 5 C 82 % 2.19 C
1775 14-02-2014 03:50:00 5.1 C 82 % 2.29 C
Sensor: Nr:Datum:Temp:Feuchte:Taupunkt:
Aussen-T/F 1776 14-02-2014 03:55:00 5 C 81 % 2.02 C
1777 14-02-2014 04:00:00 5 C 81 % 2.02 C
1778 14-02-2014 04:05:00 4.9 C 81 % 1.92 C
1779 14-02-2014 04:10:00 4.9 C 82 % 2.09 C
1780 14-02-2014 04:15:00 4.8 C 83 % 2.16 C
1781 14-02-2014 04:20:00 4.7 C 82 % 1.9 C
1782 14-02-2014 04:25:00 4.7 C 83 % 2.07 C
1783 14-02-2014 04:30:00 4.6 C 83 % 1.97 C
1784 14-02-2014 04:35:00 4.6 C 83 % 1.97 C
1785 14-02-2014 04:40:00 4.6 C 82 % 1.8 C
1786 14-02-2014 04:45:00 4.6 C 82 % 1.8 C
1787 14-02-2014 04:50:00 4.5 C 83 % 1.87 C
1788 14-02-2014 04:55:00 4.4 C 83 % 1.77 C
1789 14-02-2014 05:00:00 4.2 C 84 % 1.74 C
1790 14-02-2014 05:05:00 4.2 C 84 % 1.74 C
1791 14-02-2014 05:10:00 4.2 C 84 % 1.74 C
1792 14-02-2014 05:15:00 4.3 C 84 % 1.84 C
1793 14-02-2014 05:20:00 4.4 C 83 % 1.77 C
1794 14-02-2014 05:25:00 4.3 C 83 % 1.67 C
1795 14-02-2014 05:30:00 4.3 C 83 % 1.67 C
1796 14-02-2014 05:35:00 4.2 C 84 % 1.74 C
1797 14-02-2014 05:40:00 4.2 C 84 % 1.74 C
1798 14-02-2014 05:45:00 4.1 C 84 % 1.65 C
1799 14-02-2014 05:50:00 4 C 85 % 1.71 C
1800 14-02-2014 05:55:00 3.9 C 85 % 1.61 C
Sensor: Nr:Datum:Temp:Feuchte:Taupunkt:
Aussen-T/F 1801 14-02-2014 06:00:00 3.8 C 86 % 1.68 C
1802 14-02-2014 06:05:00 3.9 C 85 % 1.61 C
1803 14-02-2014 06:10:00 3.9 C 85 % 1.61 C
1804 14-02-2014 06:15:00 3.9 C 85 % 1.61 C
1805 14-02-2014 06:20:00 4 C 85 % 1.71 C
1806 14-02-2014 06:25:00 4 C 85 % 1.71 C
1807 14-02-2014 06:30:00 3.9 C 84 % 1.45 C
1808 14-02-2014 06:35:00 4 C 84 % 1.55 C
1809 14-02-2014 06:40:00 4.1 C 83 % 1.48 C
1810 14-02-2014 06:45:00 4.1 C 83 % 1.48 C
1811 14-02-2014 06:50:00 3.9 C 84 % 1.45 C
1812 14-02-2014 06:55:00 3.6 C 86 % 1.48 C
1813 14-02-2014 07:00:00 3.3 C 87 % 1.35 C
1814 14-02-2014 07:05:00 3 C 88 % 1.21 C
1815 14-02-2014 07:10:00 2.9 C 89 % 1.27 C
1816 14-02-2014 07:15:00 2.7 C 89 % 1.07 C
1817 14-02-2014 07:20:00 2.6 C 90 % 1.13 C
1818 14-02-2014 07:25:00 2.6 C 90 % 1.13 C
1819 14-02-2014 07:30:00 2.7 C 90 % 1.23 C
1820 14-02-2014 07:35:00 2.8 C 90 % 1.33 C
1821 14-02-2014 07:40:00 2.8 C 90 % 1.33 C
1822 14-02-2014 07:45:00 2.8 C 91 % 1.48 C
1823 14-02-2014 07:50:00 2.8 C 92 % 1.63 C
1824 14-02-2014 07:55:00 2.9 C 92 % 1.73 C
1825 14-02-2014 08:00:00 3 C 92 % 1.83 C
Sensor: Nr:Datum:Temp:Feuchte:Taupunkt:
Aussen-T/F 1826 14-02-2014 08:05:00 3.2 C 91 % 1.88 C
1827 14-02-2014 08:10:00 3.3 C 91 % 1.98 C
1828 14-02-2014 08:15:00 3.3 C 91 % 1.98 C
1829 14-02-2014 08:20:00 3.4 C 91 % 2.07 C
1830 14-02-2014 08:25:00 3.6 C 91 % 2.27 C
1831 14-02-2014 08:30:00 3.7 C 90 % 2.22 C
1832 14-02-2014 08:35:00 3.8 C 90 % 2.31 C
1833 14-02-2014 08:40:00 3.9 C 90 % 2.41 C
1834 14-02-2014 08:45:00 4 C 89 % 2.36 C
1835 14-02-2014 08:50:00 4.2 C 89 % 2.55 C
1836 14-02-2014 08:55:00 4.3 C 88 % 2.49 C
1837 14-02-2014 09:00:00 4.5 C 87 % 2.53 C
1838 14-02-2014 09:05:00 4.7 C 87 % 2.73 C
1839 14-02-2014 09:10:00 4.8 C 86 % 2.66 C
1840 14-02-2014 09:15:00 4.9 C 85 % 2.6 C
1841 14-02-2014 09:20:00 5.1 C 85 % 2.79 C
1842 14-02-2014 09:25:00 5.2 C 85 % 2.89 C
1843 14-02-2014 09:30:00 5.3 C 84 % 2.82 C
1844 14-02-2014 09:35:00 5.4 C 83 % 2.75 C
1845 14-02-2014 09:40:00 5.5 C 83 % 2.85 C
1846 14-02-2014 09:45:00 5.6 C 83 % 2.95 C
1847 14-02-2014 09:50:00 5.6 C 82 % 2.78 C
1848 14-02-2014 09:55:00 5.7 C 82 % 2.87 C
1849 14-02-2014 10:00:00 5.7 C 82 % 2.87 C
1850 14-02-2014 10:05:00 5.7 C 82 % 2.87 C
Sensor: Nr:Datum:Temp:Feuchte:Taupunkt:
Aussen-T/F 1851 14-02-2014 10:10:00 5.7 C 81 % 2.7 C
1852 14-02-2014 10:15:00 5.8 C 81 % 2.8 C
1853 14-02-2014 10:20:00 5.8 C 82 % 2.97 C
1854 14-02-2014 10:25:00 5.8 C 83 % 3.14 C
1855 14-02-2014 10:30:00 5.9 C 82 % 3.07 C
1856 14-02-2014 10:35:00 5.9 C 82 % 3.07 C
1857 14-02-2014 10:40:00 6 C 81 % 2.99 C
1858 14-02-2014 10:45:00 6.1 C 81 % 3.09 C
1859 14-02-2014 10:50:00 6.1 C 81 % 3.09 C
1860 14-02-2014 10:55:00 6.2 C 82 % 3.36 C
1861 14-02-2014 11:00:00 6.3 C 82 % 3.46 C
1862 14-02-2014 11:05:00 6.3 C 81 % 3.29 C
1863 14-02-2014 11:10:00 6.4 C 81 % 3.38 C
1864 14-02-2014 11:15:00 6.4 C 80 % 3.21 C
1865 14-02-2014 11:20:00 6.6 C 80 % 3.4 C
1866 14-02-2014 11:25:00 6.6 C 79 % 3.23 C
1867 14-02-2014 11:30:00 6.7 C 79 % 3.32 C
1868 14-02-2014 11:35:00 6.7 C 79 % 3.32 C
1869 14-02-2014 11:40:00 6.7 C 80 % 3.5 C
1870 14-02-2014 11:45:00 6.8 C 79 % 3.42 C
1871 14-02-2014 11:50:00 7 C 80 % 3.79 C
1872 14-02-2014 11:55:00 7.2 C 79 % 3.81 C
1873 14-02-2014 12:00:00 7.3 C 78 % 3.73 C
1874 14-02-2014 12:05:00 7.4 C 78 % 3.82 C
1875 14-02-2014 12:10:00 7.5 C 77 % 3.74 C
Sensor: Nr:Datum:Temp:Feuchte:Taupunkt:
Aussen-T/F 1876 14-02-2014 12:15:00 7.6 C 78 % 4.02 C
1877 14-02-2014 12:20:00 7.7 C 77 % 3.93 C
1878 14-02-2014 12:25:00 7.8 C 76 % 3.84 C
1879 14-02-2014 12:30:00 7.8 C 76 % 3.84 C
1880 14-02-2014 12:35:00 7.9 C 76 % 3.94 C
1881 14-02-2014 12:40:00 8.1 C 78 % 4.5 C
1882 14-02-2014 12:45:00 8.1 C 76 % 4.13 C
1883 14-02-2014 12:50:00 8.1 C 76 % 4.13 C
1884 14-02-2014 12:55:00 8.1 C 77 % 4.32 C
1885 14-02-2014 13:00:00 8.1 C 77 % 4.32 C
1886 14-02-2014 13:05:00 8.1 C 75 % 3.94 C
1887 14-02-2014 13:10:00 8.1 C 75 % 3.94 C
1888 14-02-2014 13:15:00 8.1 C 77 % 4.32 C
1889 14-02-2014 13:20:00 8.1 C 76 % 4.13 C
1890 14-02-2014 13:25:00 8.2 C 76 % 4.23 C
1891 14-02-2014 13:30:00 8.2 C 75 % 4.04 C
1892 14-02-2014 13:35:00 8.2 C 76 % 4.23 C
1893 14-02-2014 13:40:00 8.2 C 76 % 4.23 C
1894 14-02-2014 13:45:00 8.3 C 75 % 4.14 C
1895 14-02-2014 13:50:00 8.2 C 76 % 4.23 C
1896 14-02-2014 13:55:00 8.2 C 76 % 4.23 C
1897 14-02-2014 14:00:00 8.1 C 76 % 4.13 C
1898 14-02-2014 14:05:00 8.1 C 77 % 4.32 C
1899 14-02-2014 14:10:00 8.1 C 78 % 4.5 C
1900 14-02-2014 14:15:00 8.1 C 77 % 4.32 C
Sensor: Nr:Datum:Temp:Feuchte:Taupunkt:
Aussen-T/F 1901 14-02-2014 14:20:00 8.1 C 76 % 4.13 C
1902 14-02-2014 14:25:00 8.2 C 77 % 4.42 C
1903 14-02-2014 14:30:00 8.2 C 76 % 4.23 C
1904 14-02-2014 14:35:00 8.2 C 76 % 4.23 C
1905 14-02-2014 14:40:00 8.3 C 78 % 4.7 C
1906 14-02-2014 14:45:00 8.3 C 76 % 4.33 C
1907 14-02-2014 14:50:00 8.3 C 76 % 4.33 C
1908 14-02-2014 14:55:00 8.3 C 76 % 4.33 C
1909 14-02-2014 15:00:00 8.2 C 77 % 4.42 C
1910 14-02-2014 15:05:00 8.2 C 78 % 4.6 C
1911 14-02-2014 15:10:00 8.2 C 77 % 4.42 C
1912 14-02-2014 15:15:00 8.2 C 77 % 4.42 C
1913 14-02-2014 15:20:00 8.2 C 78 % 4.6 C
1914 14-02-2014 15:25:00 8.3 C 77 % 4.51 C
1915 14-02-2014 15:30:00 8.3 C 78 % 4.7 C
1916 14-02-2014 15:35:00 8.4 C 78 % 4.79 C
1917 14-02-2014 15:40:00 8.4 C 78 % 4.79 C
1918 14-02-2014 15:45:00 8.4 C 78 % 4.79 C
1919 14-02-2014 15:50:00 8.4 C 78 % 4.79 C
1920 14-02-2014 15:55:00 8.4 C 77 % 4.61 C
1921 14-02-2014 16:00:00 8.4 C 77 % 4.61 C
1922 14-02-2014 16:05:00 8.4 C 78 % 4.79 C
1923 14-02-2014 16:10:00 8.4 C 77 % 4.61 C
1924 14-02-2014 16:15:00 8.4 C 78 % 4.79 C
1925 14-02-2014 16:20:00 8.3 C 78 % 4.7 C
Sensor: Nr:Datum:Temp:Feuchte:Taupunkt:
Aussen-T/F 1926 14-02-2014 16:25:00 8.1 C 82 % 5.22 C
1927 14-02-2014 16:30:00 7.8 C 83 % 5.1 C
1928 14-02-2014 16:35:00 7.7 C 85 % 5.34 C
1929 14-02-2014 16:40:00 7.4 C 87 % 5.38 C
1930 14-02-2014 16:45:00 7.2 C 88 % 5.35 C
1931 14-02-2014 16:50:00 7.1 C 90 % 5.57 C
1932 14-02-2014 16:55:00 6.8 C 91 % 5.44 C
1933 14-02-2014 17:00:00 6.7 C 92 % 5.49 C
1934 14-02-2014 17:05:00 6.5 C 92 % 5.3 C
1935 14-02-2014 17:10:00 6.4 C 93 % 5.35 C
1936 14-02-2014 17:15:00 6.4 C 93 % 5.35 C
1937 14-02-2014 17:20:00 6.3 C 93 % 5.25 C
1938 14-02-2014 17:25:00 6.2 C 92 % 5 C
1939 14-02-2014 17:30:00 6.2 C 92 % 5 C
1940 14-02-2014 17:35:00 6.1 C 91 % 4.74 C
1941 14-02-2014 17:40:00 6.1 C 91 % 4.74 C
1942 14-02-2014 17:45:00 6.1 C 91 % 4.74 C
1943 14-02-2014 17:50:00 6.1 C 90 % 4.59 C
1944 14-02-2014 17:55:00 6 C 90 % 4.49 C
1945 14-02-2014 18:00:00 5.9 C 91 % 4.55 C
1946 14-02-2014 18:05:00 5.9 C 90 % 4.39 C
1947 14-02-2014 18:10:00 5.9 C 91 % 4.55 C
1948 14-02-2014 18:15:00 5.9 C 90 % 4.39 C
1949 14-02-2014 18:20:00 5.9 C 91 % 4.55 C
1950 14-02-2014 18:25:00 5.8 C 90 % 4.29 C
Sensor: Nr:Datum:Temp:Feuchte:Taupunkt:
Aussen-T/F 1951 14-02-2014 18:30:00 5.9 C 90 % 4.39 C
1952 14-02-2014 18:35:00 5.9 C 90 % 4.39 C
1953 14-02-2014 18:40:00 5.9 C 90 % 4.39 C
1954 14-02-2014 18:45:00 5.9 C 90 % 4.39 C
1955 14-02-2014 18:50:00 5.9 C 90 % 4.39 C
1956 14-02-2014 18:55:00 5.9 C 90 % 4.39 C
1957 14-02-2014 19:00:00 5.8 C 90 % 4.29 C
1958 14-02-2014 19:05:00 5.8 C 91 % 4.45 C
1959 14-02-2014 19:10:00 5.8 C 91 % 4.45 C
1960 14-02-2014 19:15:00 5.7 C 92 % 4.5 C
1961 14-02-2014 19:20:00 5.6 C 92 % 4.41 C
1962 14-02-2014 19:25:00 5.6 C 93 % 4.56 C
1963 14-02-2014 19:30:00 5.5 C 93 % 4.46 C
1964 14-02-2014 19:35:00 5.4 C 94 % 4.51 C
1965 14-02-2014 19:40:00 5.4 C 94 % 4.51 C
1966 14-02-2014 19:45:00 5.4 C 94 % 4.51 C
1967 14-02-2014 19:50:00 5.4 C 94 % 4.51 C
1968 14-02-2014 19:55:00 5.4 C 94 % 4.51 C
1969 14-02-2014 20:00:00 5.4 C 94 % 4.51 C
1970 14-02-2014 20:05:00 5.4 C 94 % 4.51 C
1971 14-02-2014 20:10:00 5.4 C 94 % 4.51 C
1972 14-02-2014 20:15:00 5.3 C 94 % 4.41 C
1973 14-02-2014 20:20:00 5.2 C 94 % 4.32 C
1974 14-02-2014 20:25:00 5.1 C 94 % 4.22 C
1975 14-02-2014 20:30:00 5 C 94 % 4.12 C
Sensor: Nr:Datum:Temp:Feuchte:Taupunkt:
Aussen-T/F 1976 14-02-2014 20:35:00 5 C 95 % 4.27 C
1977 14-02-2014 20:40:00 4.9 C 95 % 4.17 C
1978 14-02-2014 20:45:00 4.8 C 95 % 4.07 C
1979 14-02-2014 20:50:00 4.8 C 95 % 4.07 C
1980 14-02-2014 20:55:00 4.8 C 95 % 4.07 C
1981 14-02-2014 21:00:00 4.8 C 95 % 4.07 C
1982 14-02-2014 21:05:00 4.8 C 95 % 4.07 C
1983 14-02-2014 21:10:00 4.9 C 95 % 4.17 C
1984 14-02-2014 21:15:00 5 C 95 % 4.27 C
1985 14-02-2014 21:20:00 5.1 C 95 % 4.37 C
1986 14-02-2014 21:25:00 5.2 C 95 % 4.47 C
1987 14-02-2014 21:30:00 5.2 C 95 % 4.47 C
1988 14-02-2014 21:35:00 5.2 C 95 % 4.47 C
1989 14-02-2014 21:40:00 5.2 C 95 % 4.47 C
1990 14-02-2014 21:45:00 5.2 C 95 % 4.47 C
1991 14-02-2014 21:50:00 5.2 C 96 % 4.62 C
1992 14-02-2014 21:55:00 5.3 C 96 % 4.72 C
1993 14-02-2014 22:00:00 5.4 C 96 % 4.81 C
1994 14-02-2014 22:05:00 5.4 C 96 % 4.81 C
1995 14-02-2014 22:10:00 5.6 C 96 % 5.01 C
1996 14-02-2014 22:15:00 5.7 C 96 % 5.11 C
1997 14-02-2014 22:20:00 5.8 C 96 % 5.21 C
1998 14-02-2014 22:25:00 5.9 C 95 % 5.16 C
1999 14-02-2014 22:30:00 6.1 C 94 % 5.21 C
2000 14-02-2014 22:35:00 6.2 C 94 % 5.31 C
Sensor: Nr:Datum:Temp:Feuchte:Taupunkt:
Aussen-T/F 2001 14-02-2014 22:40:00 6.2 C 94 % 5.31 C
2002 14-02-2014 22:45:00 6.1 C 94 % 5.21 C
2003 14-02-2014 22:50:00 6.1 C 94 % 5.21 C
2004 14-02-2014 22:55:00 6.1 C 94 % 5.21 C
2005 14-02-2014 23:00:00 6 C 94 % 5.11 C
2006 14-02-2014 23:05:00 5.9 C 94 % 5.01 C
2007 14-02-2014 23:10:00 5.8 C 94 % 4.91 C
2008 14-02-2014 23:15:00 5.8 C 94 % 4.91 C
2009 14-02-2014 23:20:00 5.7 C 94 % 4.81 C
2010 14-02-2014 23:25:00 5.7 C 94 % 4.81 C
2011 14-02-2014 23:30:00 5.6 C 95 % 4.86 C
2012 14-02-2014 23:35:00 5.6 C 95 % 4.86 C
2013 14-02-2014 23:40:00 5.6 C 95 % 4.86 C
2014 14-02-2014 23:45:00 5.7 C 95 % 4.96 C
2015 14-02-2014 23:50:00 5.8 C 95 % 5.06 C
2016 14-02-2014 23:55:00 5.8 C 94 % 4.91 C
2017 15-02-2014 00:00:00 5.8 C 94 % 4.91 C
2018 15-02-2014 00:05:00 5.8 C 94 % 4.91 C
2019 15-02-2014 00:10:00 5.9 C 94 % 5.01 C
2020 15-02-2014 00:15:00 5.9 C 94 % 5.01 C
2021 15-02-2014 00:20:00 5.8 C 94 % 4.91 C
2022 15-02-2014 00:25:00 5.8 C 94 % 4.91 C
2023 15-02-2014 00:30:00 5.7 C 94 % 4.81 C
2024 15-02-2014 00:35:00 5.7 C 94 % 4.81 C
2025 15-02-2014 00:40:00 5.7 C 94 % 4.81 C
Sensor: Nr:Datum:Temp:Feuchte:Taupunkt:
Aussen-T/F 2026 15-02-2014 00:45:00 5.7 C 94 % 4.81 C
2027 15-02-2014 00:50:00 5.7 C 94 % 4.81 C
2028 15-02-2014 00:55:00 5.7 C 94 % 4.81 C
2029 15-02-2014 01:00:00 5.6 C 94 % 4.71 C
2030 15-02-2014 01:05:00 5.7 C 95 % 4.96 C
2031 15-02-2014 01:10:00 5.9 C 95 % 5.16 C
2032 15-02-2014 01:15:00 6.2 C 94 % 5.31 C
2033 15-02-2014 01:20:00 6.4 C 93 % 5.35 C
2034 15-02-2014 01:25:00 6.6 C 93 % 5.55 C
2035 15-02-2014 01:30:00 6.7 C 92 % 5.49 C
2036 15-02-2014 01:35:00 6.8 C 92 % 5.59 C
2037 15-02-2014 01:40:00 6.8 C 92 % 5.59 C
2038 15-02-2014 01:45:00 6.8 C 93 % 5.75 C
2039 15-02-2014 01:50:00 6.9 C 92 % 5.69 C
2040 15-02-2014 01:55:00 6.9 C 92 % 5.69 C
2041 15-02-2014 02:00:00 7.2 C 92 % 5.99 C
2042 15-02-2014 02:05:00 7.4 C 91 % 6.03 C
2043 15-02-2014 02:10:00 7.5 C 91 % 6.13 C
2044 15-02-2014 02:15:00 7.5 C 91 % 6.13 C
2045 15-02-2014 02:20:00 7.4 C 91 % 6.03 C
2046 15-02-2014 02:25:00 7.5 C 92 % 6.29 C
2047 15-02-2014 02:30:00 7.6 C 92 % 6.39 C
2048 15-02-2014 02:35:00 7.8 C 91 % 6.43 C
2049 15-02-2014 02:40:00 8.2 C 89 % 6.5 C
2050 15-02-2014 02:45:00 8.3 C 89 % 6.6 C
Sensor: Nr:Datum:Temp:Feuchte:Taupunkt:
Aussen-T/F 2051 15-02-2014 02:50:00 8.3 C 89 % 6.6 C
2052 15-02-2014 02:55:00 8.3 C 90 % 6.76 C
2053 15-02-2014 03:00:00 8.3 C 89 % 6.6 C
2054 15-02-2014 03:05:00 8.4 C 88 % 6.53 C
2055 15-02-2014 03:10:00 8.4 C 88 % 6.53 C
2056 15-02-2014 03:15:00 8.2 C 87 % 6.17 C
2057 15-02-2014 03:20:00 8 C 88 % 6.14 C
2058 15-02-2014 03:25:00 7.8 C 89 % 6.1 C
2059 15-02-2014 03:30:00 7.7 C 89 % 6 C
2060 15-02-2014 03:35:00 7.4 C 90 % 5.87 C
2061 15-02-2014 03:40:00 7.4 C 90 % 5.87 C
2062 15-02-2014 03:45:00 7.3 C 90 % 5.77 C
2063 15-02-2014 03:50:00 7.3 C 90 % 5.77 C
2064 15-02-2014 03:55:00 7.2 C 91 % 5.83 C
2065 15-02-2014 04:00:00 7.3 C 91 % 5.93 C
2066 15-02-2014 04:05:00 7.4 C 91 % 6.03 C
2067 15-02-2014 04:10:00 7.5 C 90 % 5.97 C
2068 15-02-2014 04:15:00 7.4 C 90 % 5.87 C
2069 15-02-2014 04:20:00 7.3 C 91 % 5.93 C
2070 15-02-2014 04:25:00 7.3 C 91 % 5.93 C
2071 15-02-2014 04:30:00 7.4 C 91 % 6.03 C
2072 15-02-2014 04:35:00 7.4 C 91 % 6.03 C
2073 15-02-2014 04:40:00 7.4 C 92 % 6.19 C
2074 15-02-2014 04:45:00 7.8 C 91 % 6.43 C
2075 15-02-2014 04:50:00 7.9 C 90 % 6.36 C
Sensor: Nr:Datum:Temp:Feuchte:Taupunkt:
Aussen-T/F 2076 15-02-2014 04:55:00 7.9 C 90 % 6.36 C
2077 15-02-2014 05:00:00 7.9 C 90 % 6.36 C
2078 15-02-2014 05:05:00 8 C 90 % 6.46 C
2079 15-02-2014 05:10:00 8.1 C 91 % 6.72 C
2080 15-02-2014 05:15:00 8.1 C 91 % 6.72 C
2081 15-02-2014 05:20:00 8.1 C 91 % 6.72 C
2082 15-02-2014 05:25:00 8.2 C 91 % 6.82 C
2083 15-02-2014 05:30:00 8.4 C 90 % 6.86 C
2084 15-02-2014 05:35:00 8.8 C 89 % 7.09 C
2085 15-02-2014 05:40:00 9 C 88 % 7.12 C
2086 15-02-2014 05:45:00 8.9 C 89 % 7.19 C
2087 15-02-2014 05:50:00 8.8 C 90 % 7.25 C
2088 15-02-2014 05:55:00 8.7 C 91 % 7.32 C
2089 15-02-2014 06:00:00 8.8 C 90 % 7.25 C
2090 15-02-2014 06:05:00 9.1 C 89 % 7.39 C
2091 15-02-2014 06:10:00 8.9 C 89 % 7.19 C
2092 15-02-2014 06:15:00 8.8 C 90 % 7.25 C
2093 15-02-2014 06:20:00 8.9 C 90 % 7.35 C
2094 15-02-2014 06:25:00 9.4 C 88 % 7.52 C
2095 15-02-2014 06:30:00 9.9 C 86 % 7.67 C
2096 15-02-2014 06:35:00 10 C 86 % 7.77 C
2097 15-02-2014 06:40:00 9.9 C 85 % 7.5 C
2098 15-02-2014 06:45:00 10.4 C 82 % 7.46 C
2099 15-02-2014 06:50:00 10.5 C 81 % 7.38 C
2100 15-02-2014 06:55:00 10.1 C 83 % 7.35 C
Sensor: Nr:Datum:Temp:Feuchte:Taupunkt:
Aussen-T/F 2101 15-02-2014 07:00:00 10.3 C 82 % 7.37 C
2102 15-02-2014 07:05:00 10.3 C 82 % 7.37 C
2103 15-02-2014 07:10:00 10.5 C 81 % 7.38 C
2104 15-02-2014 07:15:00 10.5 C 83 % 7.74 C
2105 15-02-2014 07:20:00 10.4 C 83 % 7.64 C
2106 15-02-2014 07:25:00 10.4 C 81 % 7.28 C
2107 15-02-2014 07:30:00 10.8 C 81 % 7.67 C
2108 15-02-2014 07:35:00 11.1 C 78 % 7.41 C
2109 15-02-2014 07:40:00 11.5 C 74 % 7.03 C
2110 15-02-2014 07:45:00 11.6 C 74 % 7.13 C
2111 15-02-2014 07:50:00 11.6 C 72 % 6.73 C
2112 15-02-2014 07:55:00 11.6 C 72 % 6.73 C
2113 15-02-2014 08:00:00 11.3 C 73 % 6.64 C
2114 15-02-2014 08:05:00 11.1 C 74 % 6.65 C
2115 15-02-2014 08:10:00 11.1 C 75 % 6.84 C
2116 15-02-2014 08:15:00 11.3 C 74 % 6.84 C
2117 15-02-2014 08:20:00 11.4 C 73 % 6.74 C
2118 15-02-2014 08:25:00 11.4 C 73 % 6.74 C
2119 15-02-2014 08:30:00 11.4 C 73 % 6.74 C
2120 15-02-2014 08:35:00 11.4 C 73 % 6.74 C
2121 15-02-2014 08:40:00 11.3 C 73 % 6.64 C
2122 15-02-2014 08:45:00 11.4 C 72 % 6.54 C
2123 15-02-2014 08:50:00 11.4 C 72 % 6.54 C
2124 15-02-2014 08:55:00 11.6 C 71 % 6.53 C
2125 15-02-2014 09:00:00 11.6 C 71 % 6.53 C
Sensor: Nr:Datum:Temp:Feuchte:Taupunkt:
Aussen-T/F 2126 15-02-2014 09:05:00 11.7 C 71 % 6.62 C
2127 15-02-2014 09:10:00 11.7 C 72 % 6.83 C
2128 15-02-2014 09:15:00 11.7 C 71 % 6.62 C
2129 15-02-2014 09:20:00 11.8 C 70 % 6.51 C
2130 15-02-2014 09:25:00 11.8 C 70 % 6.51 C
2131 15-02-2014 09:30:00 11.8 C 70 % 6.51 C
2132 15-02-2014 09:35:00 11.8 C 69 % 6.31 C
2133 15-02-2014 09:40:00 11.9 C 69 % 6.4 C
2134 15-02-2014 09:45:00 11.9 C 70 % 6.61 C
2135 15-02-2014 09:50:00 11.9 C 68 % 6.19 C
2136 15-02-2014 09:55:00 11.9 C 68 % 6.19 C
2137 15-02-2014 10:00:00 12 C 68 % 6.29 C
2138 15-02-2014 10:05:00 12 C 69 % 6.5 C
2139 15-02-2014 10:10:00 12 C 69 % 6.5 C
2140 15-02-2014 10:15:00 12 C 69 % 6.5 C
2141 15-02-2014 10:20:00 12 C 69 % 6.5 C
2142 15-02-2014 10:25:00 12 C 69 % 6.5 C
2143 15-02-2014 10:30:00 12 C 69 % 6.5 C
2144 15-02-2014 10:50:00 11.9 C 68 % 6.19 C
2145 15-02-2014 10:55:00 12.1 C 67 % 6.17 C
2146 15-02-2014 11:00:00 12.1 C 66 % 5.95 C
2147 15-02-2014 11:15:00 12.2 C 67 % 6.26 C
2148 15-02-2014 11:20:00 12.2 C 67 % 6.26 C
2149 15-02-2014 11:25:00 12.2 C 67 % 6.26 C
2150 15-02-2014 11:30:00 12.2 C 66 % 6.04 C
Sensor: Nr:Datum:Temp:Feuchte:Taupunkt:
Aussen-T/F 2151 15-02-2014 11:35:00 12.3 C 66 % 6.14 C
2152 15-02-2014 11:40:00 12.2 C 66 % 6.04 C
2153 15-02-2014 11:45:00 12.3 C 66 % 6.14 C
2154 15-02-2014 11:50:00 12.3 C 67 % 6.36 C
2155 15-02-2014 11:55:00 12.3 C 66 % 6.14 C
2156 15-02-2014 12:00:00 12.2 C 65 % 5.82 C
2157 15-02-2014 12:05:00 12.1 C 65 % 5.73 C
2158 15-02-2014 12:10:00 12.1 C 66 % 5.95 C
2159 15-02-2014 12:15:00 12.2 C 65 % 5.82 C
2160 15-02-2014 12:20:00 12.1 C 66 % 5.95 C
2161 15-02-2014 12:25:00 12.1 C 65 % 5.73 C
2162 15-02-2014 12:30:00 12.2 C 66 % 6.04 C
2163 15-02-2014 12:35:00 12.2 C 65 % 5.82 C
2164 15-02-2014 12:40:00 12.2 C 65 % 5.82 C
2165 15-02-2014 12:45:00 12.2 C 65 % 5.82 C
2166 15-02-2014 12:50:00 12.2 C 65 % 5.82 C
2167 15-02-2014 12:55:00 12.2 C 65 % 5.82 C
2168 15-02-2014 13:00:00 12.2 C 65 % 5.82 C
2169 15-02-2014 13:05:00 12.2 C 65 % 5.82 C
2170 15-02-2014 13:10:00 12.2 C 66 % 6.04 C
2171 15-02-2014 13:15:00 12.1 C 66 % 5.95 C
2172 15-02-2014 13:20:00 12.1 C 67 % 6.17 C
2173 15-02-2014 13:25:00 12.1 C 67 % 6.17 C
2174 15-02-2014 13:30:00 12.2 C 67 % 6.26 C
2175 15-02-2014 13:35:00 12.1 C 68 % 6.38 C
Sensor: Nr:Datum:Temp:Feuchte:Taupunkt:
Aussen-T/F 2176 15-02-2014 13:40:00 12.1 C 68 % 6.38 C
2177 15-02-2014 13:45:00 12.1 C 68 % 6.38 C
2178 15-02-2014 13:50:00 12.1 C 68 % 6.38 C
2179 15-02-2014 13:55:00 12.1 C 68 % 6.38 C
2180 15-02-2014 14:00:00 12.2 C 68 % 6.48 C
2181 15-02-2014 14:05:00 12.3 C 68 % 6.57 C
2182 15-02-2014 14:10:00 12.3 C 68 % 6.57 C
2183 15-02-2014 14:15:00 12.3 C 69 % 6.78 C
2184 15-02-2014 14:20:00 12.3 C 69 % 6.78 C
2185 15-02-2014 14:25:00 12.3 C 69 % 6.78 C
2186 15-02-2014 14:30:00 12.4 C 68 % 6.67 C
2187 15-02-2014 14:35:00 12.3 C 69 % 6.78 C
2188 15-02-2014 14:40:00 12.4 C 69 % 6.88 C
2189 15-02-2014 14:45:00 12.4 C 69 % 6.88 C
2190 15-02-2014 14:50:00 12.3 C 68 % 6.57 C
2191 15-02-2014 14:55:00 12.2 C 69 % 6.69 C
2192 15-02-2014 15:00:00 12.2 C 69 % 6.69 C
2193 15-02-2014 15:05:00 12.2 C 69 % 6.69 C
2194 15-02-2014 15:10:00 12.1 C 69 % 6.59 C
2195 15-02-2014 15:15:00 12.1 C 69 % 6.59 C
2196 15-02-2014 15:20:00 12 C 69 % 6.5 C
2197 15-02-2014 15:25:00 11.9 C 68 % 6.19 C
2198 15-02-2014 15:30:00 11.9 C 67 % 5.98 C
2199 15-02-2014 15:35:00 11.9 C 68 % 6.19 C
2200 15-02-2014 15:40:00 11.8 C 67 % 5.88 C
Sensor: Nr:Datum:Temp:Feuchte:Taupunkt:
Aussen-T/F 2201 15-02-2014 15:45:00 11.8 C 68 % 6.09 C
2202 15-02-2014 15:50:00 11.7 C 68 % 6 C
2203 15-02-2014 15:55:00 11.7 C 69 % 6.21 C
2204 15-02-2014 16:00:00 11.6 C 69 % 6.11 C
2205 15-02-2014 16:00:00 11.6 C 69 % 6.11 C
2206 15-02-2014 16:05:00 11.6 C 69 % 6.11 C
2207 15-02-2014 16:10:00 11.4 C 69 % 5.92 C
2208 15-02-2014 16:15:00 11.4 C 69 % 5.92 C
2209 15-02-2014 16:20:00 11.3 C 69 % 5.83 C
2210 15-02-2014 16:25:00 11.3 C 70 % 6.03 C
2211 15-02-2014 16:30:00 11.3 C 70 % 6.03 C
2212 15-02-2014 16:35:00 11.2 C 70 % 5.94 C
2213 15-02-2014 16:40:00 11.2 C 70 % 5.94 C
2214 15-02-2014 16:45:00 11.1 C 70 % 5.84 C
2215 15-02-2014 16:50:00 11.1 C 70 % 5.84 C
2216 15-02-2014 16:55:00 11 C 70 % 5.75 C
2217 15-02-2014 17:00:00 11 C 71 % 5.95 C
2218 15-02-2014 17:05:00 10.9 C 71 % 5.86 C
2219 15-02-2014 17:10:00 10.8 C 71 % 5.76 C
2220 15-02-2014 17:15:00 10.8 C 71 % 5.76 C
2221 15-02-2014 17:20:00 10.7 C 71 % 5.66 C
2222 15-02-2014 17:25:00 10.7 C 72 % 5.87 C
2223 15-02-2014 17:30:00 10.6 C 72 % 5.77 C
2224 15-02-2014 17:35:00 10.5 C 72 % 5.67 C
2225 15-02-2014 17:40:00 10.4 C 73 % 5.78 C
Sensor: Nr:Datum:Temp:Feuchte:Taupunkt:
Aussen-T/F 2226 15-02-2014 17:45:00 10.3 C 73 % 5.68 C
2227 15-02-2014 17:50:00 10.2 C 73 % 5.58 C
2228 15-02-2014 17:55:00 10.2 C 74 % 5.78 C
2229 15-02-2014 18:00:00 10.2 C 73 % 5.58 C
2230 15-02-2014 18:05:00 10.1 C 74 % 5.68 C
2231 15-02-2014 18:10:00 10.1 C 74 % 5.68 C
2232 15-02-2014 18:15:00 10 C 74 % 5.59 C
2233 15-02-2014 18:20:00 10.1 C 74 % 5.68 C
2234 15-02-2014 18:25:00 10 C 74 % 5.59 C
2235 15-02-2014 18:30:00 9.9 C 74 % 5.49 C
2236 15-02-2014 18:35:00 9.9 C 75 % 5.68 C
2237 15-02-2014 18:40:00 9.9 C 75 % 5.68 C
2238 15-02-2014 18:45:00 9.8 C 75 % 5.59 C
2239 15-02-2014 18:50:00 9.8 C 75 % 5.59 C
2240 15-02-2014 18:55:00 9.8 C 75 % 5.59 C
2241 15-02-2014 19:00:00 9.8 C 75 % 5.59 C
2242 15-02-2014 19:05:00 9.8 C 75 % 5.59 C
2243 15-02-2014 19:10:00 9.8 C 76 % 5.78 C
2244 15-02-2014 19:15:00 9.8 C 78 % 6.15 C
2245 15-02-2014 19:20:00 9.5 C 81 % 6.41 C
2246 15-02-2014 19:25:00 9.3 C 84 % 6.74 C
2247 15-02-2014 19:30:00 9 C 84 % 6.45 C
2248 15-02-2014 19:35:00 8.8 C 85 % 6.42 C
2249 15-02-2014 19:40:00 8.8 C 85 % 6.42 C
2250 15-02-2014 19:45:00 8.7 C 87 % 6.66 C
Sensor: Nr:Datum:Temp:Feuchte:Taupunkt:
Aussen-T/F 2251 15-02-2014 19:50:00 8.4 C 89 % 6.7 C
2252 15-02-2014 19:55:00 8.3 C 90 % 6.76 C
2253 15-02-2014 20:00:00 8.1 C 91 % 6.72 C
2254 15-02-2014 20:05:00 7.9 C 92 % 6.68 C
2255 15-02-2014 20:10:00 7.8 C 92 % 6.58 C
2256 15-02-2014 20:15:00 7.7 C 93 % 6.64 C
2257 15-02-2014 20:20:00 7.6 C 93 % 6.54 C
2258 15-02-2014 20:25:00 7.4 C 93 % 6.34 C
2259 15-02-2014 20:30:00 7.3 C 93 % 6.25 C
2260 15-02-2014 20:35:00 7.3 C 93 % 6.25 C
2261 15-02-2014 20:40:00 7.3 C 93 % 6.25 C
2262 15-02-2014 20:45:00 7.2 C 93 % 6.15 C
2263 15-02-2014 20:50:00 7.2 C 93 % 6.15 C
2264 15-02-2014 20:55:00 7.2 C 93 % 6.15 C
2265 15-02-2014 21:00:00 7.3 C 92 % 6.09 C
2266 15-02-2014 21:05:00 7.3 C 92 % 6.09 C
2267 15-02-2014 21:10:00 7.4 C 92 % 6.19 C
2268 15-02-2014 21:15:00 7.6 C 91 % 6.23 C
2269 15-02-2014 21:20:00 7.7 C 90 % 6.17 C
2270 15-02-2014 21:25:00 7.8 C 88 % 5.94 C
2271 15-02-2014 21:30:00 8 C 88 % 6.14 C
2272 15-02-2014 21:35:00 8 C 88 % 6.14 C
2273 15-02-2014 21:40:00 8.1 C 87 % 6.07 C
2274 15-02-2014 21:45:00 8.1 C 86 % 5.9 C
2275 15-02-2014 21:50:00 8.2 C 87 % 6.17 C
Sensor: Nr:Datum:Temp:Feuchte:Taupunkt:
Aussen-T/F 2276 15-02-2014 21:55:00 8.3 C 85 % 5.93 C
2277 15-02-2014 22:00:00 8.4 C 84 % 5.86 C
2278 15-02-2014 22:05:00 8.5 C 84 % 5.96 C
2279 15-02-2014 22:10:00 8.6 C 84 % 6.05 C
2280 15-02-2014 22:15:00 8.5 C 83 % 5.78 C
2281 15-02-2014 22:20:00 8.6 C 83 % 5.88 C
2282 15-02-2014 22:25:00 8.7 C 81 % 5.63 C
2283 15-02-2014 22:30:00 8.7 C 81 % 5.63 C
2284 15-02-2014 22:35:00 8.7 C 82 % 5.8 C
2285 15-02-2014 22:40:00 8.7 C 81 % 5.63 C
2286 15-02-2014 22:45:00 8.7 C 81 % 5.63 C
2287 15-02-2014 22:50:00 8.8 C 80 % 5.55 C
2288 15-02-2014 22:55:00 8.8 C 80 % 5.55 C
2289 15-02-2014 23:00:00 8.8 C 80 % 5.55 C
2290 15-02-2014 23:05:00 8.7 C 80 % 5.45 C
2291 15-02-2014 23:10:00 8.7 C 80 % 5.45 C
2292 15-02-2014 23:15:00 8.7 C 80 % 5.45 C
2293 15-02-2014 23:20:00 8.8 C 79 % 5.36 C
2294 15-02-2014 23:25:00 8.8 C 79 % 5.36 C
2295 15-02-2014 23:30:00 8.8 C 78 % 5.18 C
2296 15-02-2014 23:35:00 8.9 C 78 % 5.28 C
2297 15-02-2014 23:40:00 8.9 C 77 % 5.09 C
2298 15-02-2014 23:45:00 8.9 C 77 % 5.09 C
2299 15-02-2014 23:50:00 8.9 C 77 % 5.09 C
2300 15-02-2014 23:55:00 8.8 C 78 % 5.18 C
Sensor: Nr:Datum:Temp:Feuchte:Taupunkt:
Aussen-T/F 2301 16-02-2014 00:00:00 8.7 C 79 % 5.27 C
2302 16-02-2014 00:05:00 8.5 C 79 % 5.07 C
2303 16-02-2014 00:10:00 8.4 C 80 % 5.16 C
2304 16-02-2014 00:15:00 8.4 C 80 % 5.16 C
2305 16-02-2014 00:20:00 8.3 C 80 % 5.06 C
2306 16-02-2014 00:25:00 8.3 C 80 % 5.06 C
2307 16-02-2014 00:30:00 8.3 C 80 % 5.06 C
2308 16-02-2014 00:35:00 8.4 C 80 % 5.16 C
2309 16-02-2014 00:40:00 8.4 C 80 % 5.16 C
2310 16-02-2014 00:45:00 8.4 C 80 % 5.16 C
2311 16-02-2014 00:50:00 8.4 C 79 % 4.98 C
2312 16-02-2014 00:55:00 8.4 C 79 % 4.98 C
2313 16-02-2014 01:00:00 8.6 C 78 % 4.99 C
2314 16-02-2014 01:05:00 8.6 C 78 % 4.99 C
2315 16-02-2014 01:10:00 8.6 C 77 % 4.8 C
2316 16-02-2014 01:15:00 8.6 C 77 % 4.8 C
2317 16-02-2014 01:20:00 8.5 C 77 % 4.71 C
2318 16-02-2014 01:25:00 8.4 C 77 % 4.61 C
2319 16-02-2014 01:30:00 8.4 C 78 % 4.79 C
2320 16-02-2014 01:35:00 8.4 C 78 % 4.79 C
2321 16-02-2014 01:40:00 8.4 C 78 % 4.79 C
2322 16-02-2014 01:45:00 8.3 C 79 % 4.88 C
2323 16-02-2014 01:50:00 8.3 C 79 % 4.88 C
2324 16-02-2014 01:55:00 8.3 C 79 % 4.88 C
2325 16-02-2014 02:00:00 8.4 C 78 % 4.79 C
Sensor: Nr:Datum:Temp:Feuchte:Taupunkt:
Aussen-T/F 2326 16-02-2014 02:05:00 8.4 C 78 % 4.79 C
2327 16-02-2014 02:10:00 8.4 C 78 % 4.79 C
2328 16-02-2014 02:15:00 8.3 C 78 % 4.7 C
2329 16-02-2014 02:20:00 8.3 C 78 % 4.7 C
2330 16-02-2014 02:25:00 8.3 C 78 % 4.7 C
2331 16-02-2014 02:30:00 8.2 C 78 % 4.6 C
2332 16-02-2014 02:35:00 8.2 C 78 % 4.6 C
2333 16-02-2014 02:40:00 8.2 C 79 % 4.78 C
2334 16-02-2014 02:45:00 8.2 C 78 % 4.6 C
2335 16-02-2014 02:50:00 8.2 C 78 % 4.6 C
2336 16-02-2014 02:55:00 8.2 C 78 % 4.6 C
2337 16-02-2014 03:00:00 8.2 C 77 % 4.42 C
2338 16-02-2014 03:05:00 8.2 C 77 % 4.42 C
2339 16-02-2014 03:10:00 7.9 C 78 % 4.31 C
2340 16-02-2014 03:15:00 7.9 C 78 % 4.31 C
2341 16-02-2014 03:20:00 7.8 C 78 % 4.21 C
2342 16-02-2014 03:25:00 7.7 C 79 % 4.3 C
2343 16-02-2014 03:30:00 7.7 C 79 % 4.3 C
2344 16-02-2014 03:35:00 7.8 C 78 % 4.21 C
2345 16-02-2014 03:40:00 7.9 C 78 % 4.31 C
2346 16-02-2014 03:45:00 8.1 C 77 % 4.32 C
2347 16-02-2014 03:50:00 8.2 C 77 % 4.42 C
2348 16-02-2014 03:55:00 8.1 C 77 % 4.32 C
2349 16-02-2014 04:00:00 8.1 C 77 % 4.32 C
2350 16-02-2014 04:05:00 8.1 C 76 % 4.13 C
Sensor: Nr:Datum:Temp:Feuchte:Taupunkt:
Aussen-T/F 2351 16-02-2014 04:10:00 8.1 C 76 % 4.13 C
2352 16-02-2014 04:15:00 8.1 C 75 % 3.94 C
2353 16-02-2014 04:20:00 8.2 C 75 % 4.04 C
2354 16-02-2014 04:25:00 8.2 C 75 % 4.04 C
2355 16-02-2014 04:30:00 8.2 C 75 % 4.04 C
2356 16-02-2014 04:35:00 8.1 C 75 % 3.94 C
2357 16-02-2014 04:40:00 8.1 C 76 % 4.13 C
2358 16-02-2014 04:45:00 8.1 C 75 % 3.94 C
2359 16-02-2014 04:50:00 8.1 C 76 % 4.13 C
2360 16-02-2014 04:55:00 8.1 C 76 % 4.13 C
2361 16-02-2014 05:00:00 7.9 C 77 % 4.12 C
2362 16-02-2014 05:05:00 7.8 C 78 % 4.21 C
2363 16-02-2014 05:10:00 7.6 C 79 % 4.2 C
2364 16-02-2014 05:15:00 7.6 C 79 % 4.2 C
2365 16-02-2014 05:20:00 7.8 C 77 % 4.03 C
2366 16-02-2014 05:25:00 7.8 C 77 % 4.03 C
2367 16-02-2014 05:30:00 7.8 C 77 % 4.03 C
2368 16-02-2014 05:35:00 7.8 C 77 % 4.03 C
2369 16-02-2014 05:40:00 7.8 C 77 % 4.03 C
2370 16-02-2014 05:45:00 7.8 C 77 % 4.03 C
2371 16-02-2014 05:50:00 7.8 C 77 % 4.03 C
2372 16-02-2014 05:55:00 7.8 C 77 % 4.03 C
2373 16-02-2014 06:00:00 7.9 C 77 % 4.12 C
2374 16-02-2014 06:05:00 7.8 C 77 % 4.03 C
2375 16-02-2014 06:10:00 7.8 C 78 % 4.21 C
Sensor: Nr:Datum:Temp:Feuchte:Taupunkt:
Aussen-T/F 2376 16-02-2014 06:15:00 7.7 C 79 % 4.3 C
2377 16-02-2014 06:20:00 7.7 C 79 % 4.3 C
2378 16-02-2014 06:25:00 7.6 C 79 % 4.2 C
2379 16-02-2014 06:30:00 7.6 C 79 % 4.2 C
2380 16-02-2014 06:35:00 7.6 C 79 % 4.2 C
2381 16-02-2014 06:40:00 7.6 C 79 % 4.2 C
2382 16-02-2014 06:45:00 7.6 C 79 % 4.2 C
2383 16-02-2014 06:50:00 7.7 C 79 % 4.3 C
2384 16-02-2014 06:55:00 7.7 C 79 % 4.3 C
2385 16-02-2014 07:00:00 7.7 C 79 % 4.3 C
2386 16-02-2014 07:05:00 7.7 C 79 % 4.3 C
2387 16-02-2014 07:10:00 7.7 C 79 % 4.3 C
2388 16-02-2014 07:15:00 7.7 C 79 % 4.3 C
2389 16-02-2014 07:20:00 7.6 C 79 % 4.2 C
2390 16-02-2014 07:25:00 7.6 C 79 % 4.2 C
2391 16-02-2014 07:30:00 7.6 C 80 % 4.38 C
2392 16-02-2014 07:35:00 7.6 C 80 % 4.38 C
2393 16-02-2014 07:40:00 7.5 C 81 % 4.46 C
2394 16-02-2014 07:45:00 7.4 C 81 % 4.36 C
2395 16-02-2014 07:50:00 7.4 C 81 % 4.36 C
2396 16-02-2014 07:55:00 7.4 C 81 % 4.36 C
2397 16-02-2014 08:00:00 7.4 C 81 % 4.36 C
2398 16-02-2014 08:05:00 7.3 C 81 % 4.26 C
2399 16-02-2014 08:10:00 7.4 C 81 % 4.36 C
2400 16-02-2014 08:15:00 7.4 C 80 % 4.18 C
Sensor: Nr:Datum:Temp:Feuchte:Taupunkt:
Aussen-T/F 2401 16-02-2014 08:20:00 7.4 C 80 % 4.18 C
2402 16-02-2014 08:25:00 7.4 C 80 % 4.18 C
2403 16-02-2014 08:30:00 7.4 C 80 % 4.18 C
2404 16-02-2014 08:35:00 7.4 C 80 % 4.18 C
2405 16-02-2014 08:40:00 7.3 C 80 % 4.09 C
2406 16-02-2014 08:45:00 7.3 C 80 % 4.09 C
2407 16-02-2014 08:50:00 7.3 C 81 % 4.26 C
2408 16-02-2014 08:55:00 7.3 C 80 % 4.09 C
2409 16-02-2014 09:00:00 7.3 C 81 % 4.26 C
2410 16-02-2014 09:05:00 7.2 C 83 % 4.51 C
2411 16-02-2014 09:10:00 7.2 C 84 % 4.68 C
2412 16-02-2014 09:15:00 7.2 C 84 % 4.68 C
2413 16-02-2014 09:20:00 7.2 C 84 % 4.68 C
2414 16-02-2014 09:25:00 7.4 C 82 % 4.53 C
2415 16-02-2014 09:30:00 7.5 C 82 % 4.63 C
2416 16-02-2014 09:35:00 7.6 C 81 % 4.55 C
2417 16-02-2014 09:40:00 7.7 C 80 % 4.47 C
2418 16-02-2014 09:45:00 7.8 C 80 % 4.57 C
2419 16-02-2014 09:50:00 7.9 C 79 % 4.49 C
2420 16-02-2014 09:55:00 7.9 C 79 % 4.49 C
2421 16-02-2014 10:00:00 7.9 C 79 % 4.49 C
2422 16-02-2014 10:05:00 8.1 C 79 % 4.68 C
2423 16-02-2014 10:10:00 8.1 C 79 % 4.68 C
2424 16-02-2014 10:15:00 8 C 80 % 4.77 C
2425 16-02-2014 10:20:00 7.9 C 81 % 4.85 C
Sensor: Nr:Datum:Temp:Feuchte:Taupunkt:
Aussen-T/F 2426 16-02-2014 10:25:00 7.9 C 81 % 4.85 C
2427 16-02-2014 10:30:00 7.9 C 80 % 4.67 C
2428 16-02-2014 10:35:00 8 C 79 % 4.59 C
2429 16-02-2014 10:40:00 8 C 79 % 4.59 C
2430 16-02-2014 10:45:00 8 C 79 % 4.59 C
2431 16-02-2014 10:50:00 8.1 C 79 % 4.68 C
2432 16-02-2014 10:55:00 8.2 C 78 % 4.6 C
2433 16-02-2014 11:00:00 8.3 C 78 % 4.7 C
2434 16-02-2014 11:05:00 8.4 C 77 % 4.61 C
2435 16-02-2014 11:10:00 8.4 C 77 % 4.61 C
2436 16-02-2014 11:15:00 8.6 C 76 % 4.62 C
2437 16-02-2014 11:20:00 8.6 C 77 % 4.8 C
2438 16-02-2014 11:25:00 8.7 C 76 % 4.71 C
2439 16-02-2014 11:30:00 8.6 C 76 % 4.62 C
2440 16-02-2014 11:35:00 8.7 C 77 % 4.9 C
2441 16-02-2014 11:40:00 8.7 C 77 % 4.9 C
2442 16-02-2014 11:45:00 8.7 C 77 % 4.9 C
2443 16-02-2014 11:50:00 8.6 C 77 % 4.8 C
2444 16-02-2014 11:55:00 8.5 C 78 % 4.89 C
2445 16-02-2014 12:00:00 8.4 C 79 % 4.98 C
2446 16-02-2014 12:05:00 8.4 C 79 % 4.98 C
2447 16-02-2014 12:10:00 8.5 C 80 % 5.25 C
2448 16-02-2014 12:15:00 8.7 C 79 % 5.27 C
2449 16-02-2014 12:20:00 8.8 C 77 % 5 C
2450 16-02-2014 12:25:00 9 C 77 % 5.19 C
Sensor: Nr:Datum:Temp:Feuchte:Taupunkt:
Aussen-T/F 2451 16-02-2014 12:30:00 8.9 C 75 % 4.72 C
2452 16-02-2014 12:35:00 8.7 C 79 % 5.27 C
2453 16-02-2014 12:40:00 8.3 C 83 % 5.59 C
2454 16-02-2014 12:45:00 8 C 85 % 5.64 C
2455 16-02-2014 12:50:00 7.9 C 85 % 5.54 C
2456 16-02-2014 12:55:00 7.9 C 86 % 5.71 C
2457 16-02-2014 13:00:00 8 C 86 % 5.81 C
2458 16-02-2014 13:05:00 8.2 C 85 % 5.83 C
2459 16-02-2014 13:10:00 8.4 C 82 % 5.51 C
2460 16-02-2014 13:15:00 8.6 C 80 % 5.35 C
2461 16-02-2014 13:20:00 8.7 C 79 % 5.27 C
2462 16-02-2014 13:25:00 8.8 C 78 % 5.18 C
2463 16-02-2014 13:30:00 8.9 C 78 % 5.28 C
2464 16-02-2014 13:35:00 8.9 C 78 % 5.28 C
2465 16-02-2014 13:40:00 8.9 C 78 % 5.28 C
2466 16-02-2014 13:45:00 8.9 C 78 % 5.28 C
2467 16-02-2014 13:50:00 8.9 C 77 % 5.09 C
2468 16-02-2014 13:55:00 9 C 77 % 5.19 C
2469 16-02-2014 14:00:00 9.2 C 77 % 5.38 C
2470 16-02-2014 14:05:00 9.4 C 75 % 5.2 C
2471 16-02-2014 14:10:00 9.4 C 75 % 5.2 C
2472 16-02-2014 14:15:00 9.3 C 75 % 5.1 C
2473 16-02-2014 14:20:00 9.3 C 75 % 5.1 C
2474 16-02-2014 14:25:00 9.3 C 76 % 5.29 C
2475 16-02-2014 14:30:00 9.3 C 74 % 4.91 C
Sensor: Nr:Datum:Temp:Feuchte:Taupunkt:
Aussen-T/F 2476 16-02-2014 14:35:00 9.1 C 75 % 4.91 C
2477 16-02-2014 14:40:00 9 C 75 % 4.81 C
2478 16-02-2014 14:45:00 9 C 76 % 5 C
2479 16-02-2014 14:50:00 9.1 C 76 % 5.1 C
2480 16-02-2014 14:55:00 9.2 C 76 % 5.2 C
2481 16-02-2014 15:00:00 9.2 C 75 % 5.01 C
2482 16-02-2014 15:05:00 9.2 C 74 % 4.81 C
2483 16-02-2014 15:10:00 9.3 C 74 % 4.91 C
2484 16-02-2014 15:15:00 9.4 C 73 % 4.81 C
2485 16-02-2014 15:20:00 9.4 C 73 % 4.81 C
2486 16-02-2014 15:25:00 9.4 C 73 % 4.81 C
2487 16-02-2014 15:30:00 9.3 C 72 % 4.52 C
2488 16-02-2014 15:35:00 9.3 C 72 % 4.52 C
2489 16-02-2014 15:40:00 9.3 C 72 % 4.52 C
2490 16-02-2014 15:45:00 9.3 C 73 % 4.72 C
2491 16-02-2014 15:50:00 9.4 C 73 % 4.81 C
2492 16-02-2014 15:55:00 9.4 C 73 % 4.81 C
2493 16-02-2014 16:00:00 9.5 C 73 % 4.91 C
2494 16-02-2014 16:05:00 9.6 C 72 % 4.81 C
2495 16-02-2014 16:10:00 9.6 C 73 % 5.01 C
2496 16-02-2014 16:15:00 9.7 C 72 % 4.9 C
2497 16-02-2014 16:20:00 9.7 C 72 % 4.9 C
2498 16-02-2014 16:25:00 9.7 C 72 % 4.9 C
2499 16-02-2014 16:30:00 9.7 C 72 % 4.9 C
2500 16-02-2014 16:35:00 9.7 C 72 % 4.9 C
Sensor: Nr:Datum:Temp:Feuchte:Taupunkt:
Aussen-T/F 2501 16-02-2014 16:40:00 9.6 C 72 % 4.81 C
2502 16-02-2014 16:45:00 9.6 C 71 % 4.61 C
2503 16-02-2014 16:50:00 9.6 C 71 % 4.61 C
2504 16-02-2014 16:55:00 9.5 C 71 % 4.51 C
2505 16-02-2014 17:00:00 9.4 C 71 % 4.42 C
2506 16-02-2014 17:05:00 9.4 C 71 % 4.42 C
2507 16-02-2014 17:10:00 9.3 C 70 % 4.12 C
2508 16-02-2014 17:15:00 9.3 C 71 % 4.32 C
2509 16-02-2014 17:20:00 9.3 C 71 % 4.32 C
2510 16-02-2014 17:25:00 9.2 C 70 % 4.02 C
2511 16-02-2014 17:30:00 9.1 C 72 % 4.33 C
2512 16-02-2014 17:35:00 8.8 C 72 % 4.04 C
2513 16-02-2014 17:40:00 8.6 C 75 % 4.43 C
2514 16-02-2014 17:45:00 8.2 C 77 % 4.42 C
2515 16-02-2014 17:50:00 7.7 C 79 % 4.3 C
2516 16-02-2014 17:55:00 7.3 C 80 % 4.09 C
2517 16-02-2014 18:00:00 7.1 C 82 % 4.24 C
2518 16-02-2014 18:05:00 6.8 C 83 % 4.12 C
2519 16-02-2014 18:10:00 6.6 C 83 % 3.92 C
2520 16-02-2014 18:15:00 6.4 C 85 % 4.07 C
2521 16-02-2014 18:20:00 6.3 C 85 % 3.97 C
2522 16-02-2014 18:25:00 6.2 C 85 % 3.87 C
2523 16-02-2014 18:30:00 6.1 C 85 % 3.77 C
2524 16-02-2014 18:35:00 6.1 C 86 % 3.94 C
2525 16-02-2014 18:40:00 5.9 C 86 % 3.74 C
Sensor: Nr:Datum:Temp:Feuchte:Taupunkt:
Aussen-T/F 2526 16-02-2014 18:45:00 5.7 C 87 % 3.71 C
2527 16-02-2014 18:50:00 5.6 C 87 % 3.61 C
2528 16-02-2014 18:55:00 5.5 C 88 % 3.67 C
2529 16-02-2014 19:00:00 5.4 C 88 % 3.58 C
2530 16-02-2014 19:05:00 5.3 C 89 % 3.64 C
2531 16-02-2014 19:10:00 5.2 C 89 % 3.54 C
2532 16-02-2014 19:15:00 5.2 C 89 % 3.54 C
2533 16-02-2014 19:20:00 5.2 C 89 % 3.54 C
2534 16-02-2014 19:25:00 5.4 C 88 % 3.58 C
2535 16-02-2014 19:30:00 5.4 C 88 % 3.58 C
2536 16-02-2014 19:35:00 5.3 C 88 % 3.48 C
2537 16-02-2014 19:40:00 5.2 C 88 % 3.38 C
2538 16-02-2014 19:45:00 5.2 C 88 % 3.38 C
2539 16-02-2014 19:50:00 5.1 C 88 % 3.28 C
2540 16-02-2014 19:55:00 5 C 89 % 3.34 C
2541 16-02-2014 20:00:00 4.9 C 89 % 3.24 C
2542 16-02-2014 20:05:00 4.8 C 89 % 3.14 C
2543 16-02-2014 20:10:00 4.7 C 89 % 3.05 C
2544 16-02-2014 20:15:00 4.7 C 90 % 3.2 C
2545 16-02-2014 20:20:00 4.7 C 90 % 3.2 C
2546 16-02-2014 20:25:00 4.6 C 90 % 3.1 C
2547 16-02-2014 20:30:00 4.5 C 90 % 3.01 C
2548 16-02-2014 20:35:00 4.4 C 90 % 2.91 C
2549 16-02-2014 20:40:00 4.3 C 90 % 2.81 C
2550 16-02-2014 20:45:00 4.2 C 91 % 2.87 C
Sensor: Nr:Datum:Temp:Feuchte:Taupunkt:
Aussen-T/F 2551 16-02-2014 20:50:00 4.1 C 91 % 2.77 C
2552 16-02-2014 20:55:00 4.1 C 91 % 2.77 C
2553 16-02-2014 21:00:00 4 C 91 % 2.67 C
2554 16-02-2014 21:05:00 3.9 C 92 % 2.72 C
2555 16-02-2014 21:10:00 3.9 C 92 % 2.72 C
2556 16-02-2014 21:15:00 3.8 C 92 % 2.62 C
2557 16-02-2014 21:20:00 3.9 C 92 % 2.72 C
2558 16-02-2014 21:25:00 3.9 C 92 % 2.72 C
2559 16-02-2014 21:30:00 3.9 C 92 % 2.72 C
2560 16-02-2014 21:35:00 3.9 C 92 % 2.72 C
2561 16-02-2014 21:40:00 3.8 C 92 % 2.62 C
2562 16-02-2014 21:45:00 3.8 C 92 % 2.62 C
2563 16-02-2014 21:50:00 3.8 C 92 % 2.62 C
2564 16-02-2014 21:55:00 3.8 C 92 % 2.62 C
2565 16-02-2014 22:00:00 3.8 C 92 % 2.62 C
2566 16-02-2014 22:05:00 3.8 C 92 % 2.62 C
2567 16-02-2014 22:10:00 3.8 C 91 % 2.47 C
2568 16-02-2014 22:15:00 3.8 C 91 % 2.47 C
2569 16-02-2014 22:20:00 3.9 C 90 % 2.41 C
2570 16-02-2014 22:25:00 3.8 C 90 % 2.31 C
2571 16-02-2014 22:30:00 3.8 C 90 % 2.31 C
2572 16-02-2014 22:35:00 3.9 C 90 % 2.41 C
2573 16-02-2014 22:40:00 3.8 C 90 % 2.31 C
2574 16-02-2014 22:45:00 3.8 C 90 % 2.31 C
2575 16-02-2014 22:50:00 3.8 C 90 % 2.31 C
Sensor: Nr:Datum:Temp:Feuchte:Taupunkt:
Aussen-T/F 2576 16-02-2014 22:55:00 3.8 C 90 % 2.31 C
2577 16-02-2014 23:00:00 3.8 C 90 % 2.31 C
2578 16-02-2014 23:05:00 3.7 C 90 % 2.22 C
2579 16-02-2014 23:10:00 3.5 C 90 % 2.02 C
2580 16-02-2014 23:15:00 3.4 C 91 % 2.07 C
2581 16-02-2014 23:20:00 3.3 C 91 % 1.98 C
2582 16-02-2014 23:25:00 3.3 C 91 % 1.98 C
2583 16-02-2014 23:30:00 3.3 C 91 % 1.98 C
2584 16-02-2014 23:35:00 3.3 C 91 % 1.98 C
2585 16-02-2014 23:40:00 3.3 C 91 % 1.98 C
2586 16-02-2014 23:45:00 3.2 C 91 % 1.88 C
2587 16-02-2014 23:50:00 3.1 C 92 % 1.93 C
2588 16-02-2014 23:55:00 3 C 92 % 1.83 C
2589 17-02-2014 00:00:00 3 C 92 % 1.83 C
2590 17-02-2014 00:05:00 3 C 93 % 1.98 C
2591 17-02-2014 00:10:00 3.1 C 93 % 2.08 C
2592 17-02-2014 00:15:00 3.1 C 92 % 1.93 C
2593 17-02-2014 00:20:00 3.1 C 92 % 1.93 C
2594 17-02-2014 00:25:00 3.1 C 92 % 1.93 C
2595 17-02-2014 00:30:00 2.9 C 92 % 1.73 C
2596 17-02-2014 00:35:00 2.8 C 91 % 1.48 C
2597 17-02-2014 00:40:00 2.6 C 92 % 1.43 C
2598 17-02-2014 00:45:00 2.4 C 92 % 1.24 C
2599 17-02-2014 00:50:00 2.2 C 92 % 1.04 C
2600 17-02-2014 00:55:00 2 C 92 % 0.84 C
Sensor: Nr:Datum:Temp:Feuchte:Taupunkt:
Aussen-T/F 2601 17-02-2014 01:00:00 1.9 C 93 % 0.89 C
2602 17-02-2014 01:05:00 1.8 C 93 % 0.79 C
2603 17-02-2014 01:10:00 1.8 C 94 % 0.94 C
2604 17-02-2014 01:15:00 1.8 C 94 % 0.94 C
2605 17-02-2014 01:20:00 1.8 C 94 % 0.94 C
2606 17-02-2014 01:25:00 1.8 C 94 % 0.94 C
2607 17-02-2014 01:30:00 1.7 C 94 % 0.84 C
2608 17-02-2014 01:35:00 1.6 C 94 % 0.74 C
2609 17-02-2014 01:40:00 1.6 C 94 % 0.74 C
2610 17-02-2014 01:45:00 1.5 C 94 % 0.64 C
2611 17-02-2014 01:50:00 1.5 C 94 % 0.64 C
2612 17-02-2014 01:55:00 1.5 C 95 % 0.79 C
2613 17-02-2014 02:00:00 1.5 C 95 % 0.79 C
2614 17-02-2014 02:05:00 1.4 C 95 % 0.69 C
2615 17-02-2014 02:10:00 1.4 C 95 % 0.69 C
2616 17-02-2014 02:15:00 1.3 C 95 % 0.59 C
2617 17-02-2014 02:20:00 1.3 C 95 % 0.59 C
2618 17-02-2014 02:25:00 1.3 C 95 % 0.59 C
2619 17-02-2014 02:30:00 1.2 C 95 % 0.49 C
2620 17-02-2014 02:35:00 1.2 C 95 % 0.49 C
2621 17-02-2014 02:40:00 1.2 C 95 % 0.49 C
2622 17-02-2014 02:45:00 1.1 C 95 % 0.39 C
2623 17-02-2014 02:50:00 1.1 C 95 % 0.39 C
2624 17-02-2014 02:55:00 0.9 C 95 % 0.19 C
2625 17-02-2014 03:00:00 0.8 C 95 % 0.09 C
Sensor: Nr:Datum:Temp:Feuchte:Taupunkt:
Aussen-T/F 2626 17-02-2014 03:05:00 0.7 C 95 % -0.01 C
2627 17-02-2014 03:10:00 0.7 C 95 % -0.01 C
2628 17-02-2014 03:15:00 0.7 C 95 % -0.01 C
2629 17-02-2014 03:20:00 0.7 C 95 % -0.01 C
2630 17-02-2014 03:25:00 0.6 C 95 % -0.11 C
2631 17-02-2014 03:30:00 0.6 C 95 % -0.11 C
2632 17-02-2014 03:35:00 0.5 C 95 % -0.21 C
2633 17-02-2014 03:40:00 0.4 C 95 % -0.31 C
2634 17-02-2014 03:45:00 0.4 C 95 % -0.31 C
2635 17-02-2014 03:50:00 0.3 C 96 % -0.26 C
2636 17-02-2014 03:55:00 0.3 C 96 % -0.26 C
2637 17-02-2014 04:00:00 0.3 C 96 % -0.26 C
2638 17-02-2014 04:05:00 0.2 C 96 % -0.36 C
2639 17-02-2014 04:10:00 0.2 C 96 % -0.36 C
2640 17-02-2014 04:15:00 0.2 C 96 % -0.36 C
2641 17-02-2014 04:20:00 0.2 C 96 % -0.36 C
2642 17-02-2014 04:25:00 0.2 C 96 % -0.36 C
2643 17-02-2014 04:30:00 0.2 C 96 % -0.36 C
2644 17-02-2014 04:35:00 0.1 C 96 % -0.46 C
2645 17-02-2014 04:40:00 0.1 C 96 % -0.46 C
2646 17-02-2014 04:45:00 0.1 C 96 % -0.46 C
2647 17-02-2014 04:50:00 0.1 C 96 % -0.46 C
2648 17-02-2014 04:55:00 0.1 C 96 % -0.46 C
2649 17-02-2014 05:00:00 0.1 C 96 % -0.46 C
2650 17-02-2014 05:05:00 0.1 C 96 % -0.46 C
Sensor: Nr:Datum:Temp:Feuchte:Taupunkt:
Aussen-T/F 2651 17-02-2014 05:10:00 0 C 96 % -0.56 C
2652 17-02-2014 05:15:00 0 C 96 % -0.56 C
2653 17-02-2014 05:20:00 0 C 96 % -0.56 C
2654 17-02-2014 05:25:00 -0.1 C 96 % -0.66 C
2655 17-02-2014 05:30:00 -0.1 C 96 % -0.66 C
2656 17-02-2014 05:35:00 -0.1 C 96 % -0.66 C
2657 17-02-2014 05:40:00 -0.2 C 96 % -0.76 C
2658 17-02-2014 05:45:00 -0.1 C 96 % -0.66 C
2659 17-02-2014 05:50:00 -0.1 C 96 % -0.66 C
2660 17-02-2014 05:55:00 0 C 96 % -0.56 C
2661 17-02-2014 06:00:00 0.1 C 97 % -0.32 C
2662 17-02-2014 06:05:00 0.2 C 96 % -0.36 C
2663 17-02-2014 06:10:00 0.2 C 96 % -0.36 C
2664 17-02-2014 06:15:00 0.1 C 96 % -0.46 C
2665 17-02-2014 06:20:00 0.2 C 96 % -0.36 C
2666 17-02-2014 06:25:00 0.1 C 96 % -0.46 C
2667 17-02-2014 06:30:00 0.1 C 96 % -0.46 C
2668 17-02-2014 06:35:00 0 C 97 % -0.42 C
2669 17-02-2014 06:40:00 0.1 C 97 % -0.32 C
2670 17-02-2014 06:45:00 0.1 C 97 % -0.32 C
2671 17-02-2014 06:50:00 0.2 C 97 % -0.22 C
2672 17-02-2014 06:55:00 0.2 C 97 % -0.22 C
2673 17-02-2014 07:00:00 0.2 C 97 % -0.22 C
2674 17-02-2014 07:05:00 0.2 C 97 % -0.22 C
2675 17-02-2014 07:10:00 0.3 C 97 % -0.12 C
Sensor: Nr:Datum:Temp:Feuchte:Taupunkt:
Aussen-T/F 2676 17-02-2014 07:15:00 0.3 C 97 % -0.12 C
2677 17-02-2014 07:20:00 0.3 C 97 % -0.12 C
2678 17-02-2014 07:25:00 0.4 C 97 % -0.02 C
2679 17-02-2014 07:30:00 0.6 C 97 % 0.18 C
2680 17-02-2014 07:35:00 0.6 C 97 % 0.18 C
2681 17-02-2014 07:40:00 0.7 C 97 % 0.28 C
2682 17-02-2014 07:45:00 0.7 C 97 % 0.28 C
2683 17-02-2014 07:50:00 0.8 C 97 % 0.38 C
2684 17-02-2014 07:55:00 0.8 C 97 % 0.38 C
2685 17-02-2014 08:00:00 0.9 C 97 % 0.48 C
2686 17-02-2014 08:05:00 0.9 C 97 % 0.48 C
2687 17-02-2014 08:10:00 1 C 97 % 0.58 C
2688 17-02-2014 08:15:00 1.1 C 97 % 0.68 C
2689 17-02-2014 08:20:00 1.1 C 97 % 0.68 C
2690 17-02-2014 08:25:00 1.2 C 97 % 0.78 C
2691 17-02-2014 08:30:00 1.3 C 97 % 0.88 C
2692 17-02-2014 08:35:00 1.3 C 97 % 0.88 C
2693 17-02-2014 08:40:00 1.3 C 97 % 0.88 C
2694 17-02-2014 08:45:00 1.5 C 97 % 1.08 C
2695 17-02-2014 08:50:00 1.7 C 97 % 1.28 C
2696 17-02-2014 08:55:00 1.7 C 97 % 1.28 C
2697 17-02-2014 09:00:00 1.8 C 97 % 1.38 C
2698 17-02-2014 09:05:00 1.8 C 97 % 1.38 C
2699 17-02-2014 09:10:00 1.9 C 97 % 1.48 C
2700 17-02-2014 09:15:00 1.9 C 97 % 1.48 C
Sensor: Nr:Datum:Temp:Feuchte:Taupunkt:
Aussen-T/F 2701 17-02-2014 09:20:00 2.1 C 97 % 1.67 C
2702 17-02-2014 09:25:00 2.2 C 97 % 1.77 C
2703 17-02-2014 09:30:00 2.3 C 97 % 1.87 C
2704 17-02-2014 09:35:00 2.4 C 97 % 1.97 C
2705 17-02-2014 09:40:00 2.5 C 97 % 2.07 C
2706 17-02-2014 09:45:00 2.6 C 97 % 2.17 C
2707 17-02-2014 09:50:00 2.7 C 97 % 2.27 C
2708 17-02-2014 09:55:00 2.7 C 97 % 2.27 C
2709 17-02-2014 10:00:00 2.8 C 97 % 2.37 C
2710 17-02-2014 10:05:00 2.8 C 97 % 2.37 C
2711 17-02-2014 10:10:00 2.9 C 97 % 2.47 C
2712 17-02-2014 10:15:00 3.1 C 97 % 2.67 C
2713 17-02-2014 10:20:00 3.3 C 97 % 2.87 C
2714 17-02-2014 10:25:00 3.5 C 97 % 3.07 C
2715 17-02-2014 10:30:00 3.6 C 97 % 3.17 C
2716 17-02-2014 10:35:00 3.8 C 97 % 3.37 C
2717 17-02-2014 10:40:00 3.9 C 96 % 3.32 C
2718 17-02-2014 10:45:00 4.1 C 96 % 3.52 C
2719 17-02-2014 10:50:00 4.2 C 96 % 3.62 C
2720 17-02-2014 10:55:00 4.2 C 95 % 3.47 C
2721 17-02-2014 11:00:00 4.3 C 95 % 3.57 C
2722 17-02-2014 11:05:00 4.3 C 95 % 3.57 C
2723 17-02-2014 11:10:00 4.4 C 94 % 3.52 C
2724 17-02-2014 11:15:00 4.6 C 94 % 3.72 C
2725 17-02-2014 11:20:00 4.7 C 94 % 3.82 C
Sensor: Nr:Datum:Temp:Feuchte:Taupunkt:
Aussen-T/F 2726 17-02-2014 11:25:00 4.9 C 94 % 4.02 C
2727 17-02-2014 11:30:00 5.1 C 94 % 4.22 C
2728 17-02-2014 11:35:00 5.2 C 94 % 4.32 C
2729 17-02-2014 11:40:00 5.4 C 93 % 4.36 C
2730 17-02-2014 11:45:00 5.5 C 93 % 4.46 C
2731 17-02-2014 11:50:00 5.7 C 92 % 4.5 C
2732 17-02-2014 11:55:00 5.8 C 92 % 4.6 C
2733 17-02-2014 12:00:00 6.1 C 91 % 4.74 C
2734 17-02-2014 12:05:00 6.4 C 91 % 5.04 C
2735 17-02-2014 12:10:00 6.7 C 89 % 5.02 C
2736 17-02-2014 12:15:00 6.8 C 89 % 5.12 C
2737 17-02-2014 12:20:00 6.9 C 88 % 5.05 C
2738 17-02-2014 12:25:00 7 C 88 % 5.15 C
2739 17-02-2014 12:30:00 7.1 C 87 % 5.09 C
2740 17-02-2014 12:35:00 7.1 C 87 % 5.09 C
2741 17-02-2014 12:40:00 7.2 C 87 % 5.19 C
2742 17-02-2014 12:45:00 7.2 C 87 % 5.19 C
2743 17-02-2014 12:50:00 7.3 C 86 % 5.12 C
2744 17-02-2014 12:55:00 7.4 C 86 % 5.22 C
2745 17-02-2014 13:00:00 7.4 C 86 % 5.22 C
2746 17-02-2014 13:05:00 7.4 C 85 % 5.05 C
2747 17-02-2014 13:10:00 7.4 C 85 % 5.05 C
2748 17-02-2014 13:15:00 7.4 C 84 % 4.88 C
2749 17-02-2014 13:20:00 7.4 C 84 % 4.88 C
2750 17-02-2014 13:25:00 7.6 C 83 % 4.9 C
Sensor: Nr:Datum:Temp:Feuchte:Taupunkt:
Aussen-T/F 2751 17-02-2014 13:30:00 7.6 C 84 % 5.07 C
2752 17-02-2014 13:35:00 7.8 C 83 % 5.1 C
2753 17-02-2014 13:40:00 7.9 C 82 % 5.02 C
2754 17-02-2014 13:45:00 7.9 C 82 % 5.02 C
2755 17-02-2014 13:50:00 8 C 82 % 5.12 C
2756 17-02-2014 13:55:00 8.1 C 82 % 5.22 C
2757 17-02-2014 14:00:00 8.2 C 81 % 5.14 C
2758 17-02-2014 14:05:00 8.3 C 82 % 5.41 C
2759 17-02-2014 14:10:00 8.5 C 81 % 5.43 C
2760 17-02-2014 14:15:00 8.6 C 80 % 5.35 C
2761 17-02-2014 14:20:00 8.6 C 79 % 5.17 C
2762 17-02-2014 14:25:00 8.7 C 79 % 5.27 C
2763 17-02-2014 14:30:00 8.7 C 79 % 5.27 C
2764 17-02-2014 14:35:00 8.8 C 78 % 5.18 C
2765 17-02-2014 14:40:00 8.9 C 77 % 5.09 C
2766 17-02-2014 14:45:00 9 C 76 % 5 C
2767 17-02-2014 14:50:00 9.1 C 76 % 5.1 C
2768 17-02-2014 14:55:00 9.2 C 76 % 5.2 C
2769 17-02-2014 15:00:00 9.2 C 76 % 5.2 C
2770 17-02-2014 15:05:00 9.3 C 76 % 5.29 C
2771 17-02-2014 15:10:00 9.3 C 75 % 5.1 C
2772 17-02-2014 15:15:00 9.5 C 75 % 5.3 C
2773 17-02-2014 15:20:00 9.6 C 75 % 5.39 C
2774 17-02-2014 15:25:00 9.4 C 75 % 5.2 C
2775 17-02-2014 15:30:00 9.4 C 74 % 5.01 C
Sensor: Nr:Datum:Temp:Feuchte:Taupunkt:
Aussen-T/F 2776 17-02-2014 15:35:00 9.4 C 74 % 5.01 C
2777 17-02-2014 15:40:00 9.4 C 74 % 5.01 C
2778 17-02-2014 15:45:00 9.4 C 75 % 5.2 C
2779 17-02-2014 15:50:00 9.2 C 75 % 5.01 C
2780 17-02-2014 15:55:00 9.2 C 75 % 5.01 C
2781 17-02-2014 16:00:00 9.1 C 75 % 4.91 C
2782 17-02-2014 16:05:00 9 C 75 % 4.81 C
2783 17-02-2014 16:10:00 9 C 75 % 4.81 C
2784 17-02-2014 16:15:00 9 C 77 % 5.19 C
2785 17-02-2014 16:20:00 8.9 C 77 % 5.09 C
2786 17-02-2014 16:25:00 8.9 C 76 % 4.91 C
2787 17-02-2014 16:30:00 8.8 C 78 % 5.18 C
2788 17-02-2014 16:35:00 8.6 C 80 % 5.35 C
2789 17-02-2014 16:40:00 8.3 C 81 % 5.24 C
2790 17-02-2014 16:45:00 8.1 C 82 % 5.22 C
2791 17-02-2014 16:50:00 7.8 C 83 % 5.1 C
2792 17-02-2014 16:55:00 7.6 C 84 % 5.07 C
2793 17-02-2014 17:00:00 7.3 C 85 % 4.95 C
2794 17-02-2014 17:05:00 7.2 C 86 % 5.02 C
2795 17-02-2014 17:10:00 7 C 86 % 4.82 C
2796 17-02-2014 17:15:00 6.9 C 86 % 4.72 C
2797 17-02-2014 17:20:00 6.8 C 86 % 4.63 C
2798 17-02-2014 17:25:00 6.7 C 87 % 4.69 C
2799 17-02-2014 17:30:00 6.5 C 87 % 4.5 C
2800 17-02-2014 17:35:00 6.3 C 88 % 4.46 C
Sensor: Nr:Datum:Temp:Feuchte:Taupunkt:
Aussen-T/F 2801 17-02-2014 17:40:00 6.2 C 88 % 4.36 C
2802 17-02-2014 17:45:00 5.9 C 88 % 4.07 C
2803 17-02-2014 17:50:00 5.8 C 89 % 4.13 C
2804 17-02-2014 17:55:00 5.6 C 89 % 3.93 C
2805 17-02-2014 18:00:00 5.4 C 90 % 3.89 C
2806 17-02-2014 18:05:00 5.3 C 90 % 3.8 C
2807 17-02-2014 18:10:00 5.2 C 91 % 3.85 C
2808 17-02-2014 18:15:00 5.2 C 91 % 3.85 C
2809 17-02-2014 18:20:00 5.1 C 91 % 3.76 C
2810 17-02-2014 18:25:00 5.1 C 92 % 3.91 C
2811 17-02-2014 18:30:00 5 C 92 % 3.81 C
2812 17-02-2014 18:35:00 5 C 92 % 3.81 C
2813 17-02-2014 18:40:00 4.9 C 92 % 3.71 C
2814 17-02-2014 18:45:00 4.8 C 92 % 3.61 C
2815 17-02-2014 18:50:00 4.7 C 92 % 3.51 C
2816 17-02-2014 18:55:00 4.7 C 93 % 3.67 C
2817 17-02-2014 19:00:00 4.6 C 92 % 3.42 C
2818 17-02-2014 19:05:00 4.4 C 92 % 3.22 C
2819 17-02-2014 19:10:00 4.4 C 93 % 3.37 C
2820 17-02-2014 19:15:00 4.5 C 93 % 3.47 C
2821 17-02-2014 19:20:00 4.4 C 93 % 3.37 C
2822 17-02-2014 19:25:00 4.3 C 93 % 3.27 C
2823 17-02-2014 19:30:00 4.2 C 93 % 3.17 C
2824 17-02-2014 19:35:00 4.1 C 93 % 3.07 C
2825 17-02-2014 19:40:00 4.1 C 93 % 3.07 C
Sensor: Nr:Datum:Temp:Feuchte:Taupunkt:
Aussen-T/F 2826 17-02-2014 19:45:00 3.9 C 93 % 2.87 C
2827 17-02-2014 19:50:00 3.9 C 94 % 3.02 C
2828 17-02-2014 19:55:00 3.8 C 94 % 2.93 C
2829 17-02-2014 20:00:00 3.8 C 94 % 2.93 C
2830 17-02-2014 20:05:00 3.8 C 94 % 2.93 C
2831 17-02-2014 20:10:00 3.8 C 94 % 2.93 C
2832 17-02-2014 20:15:00 3.8 C 95 % 3.07 C
2833 17-02-2014 20:20:00 3.8 C 94 % 2.93 C
2834 17-02-2014 20:25:00 3.8 C 94 % 2.93 C
2835 17-02-2014 20:30:00 3.7 C 94 % 2.83 C
2836 17-02-2014 20:35:00 3.6 C 94 % 2.73 C
2837 17-02-2014 20:40:00 3.6 C 94 % 2.73 C
2838 17-02-2014 20:45:00 3.5 C 94 % 2.63 C
2839 17-02-2014 20:50:00 3.4 C 94 % 2.53 C
2840 17-02-2014 20:55:00 3.3 C 94 % 2.43 C
2841 17-02-2014 21:00:00 3.3 C 94 % 2.43 C
2842 17-02-2014 21:05:00 3.3 C 95 % 2.58 C
2843 17-02-2014 21:10:00 3.2 C 95 % 2.48 C
2844 17-02-2014 21:15:00 3.2 C 95 % 2.48 C
2845 17-02-2014 21:20:00 3.1 C 94 % 2.23 C
2846 17-02-2014 21:25:00 3 C 94 % 2.13 C
2847 17-02-2014 21:30:00 2.9 C 95 % 2.18 C
2848 17-02-2014 21:35:00 2.8 C 94 % 1.93 C
2849 17-02-2014 21:40:00 2.7 C 94 % 1.83 C
2850 17-02-2014 21:45:00 2.7 C 95 % 1.98 C
Sensor: Nr:Datum:Temp:Feuchte:Taupunkt:
Aussen-T/F 2851 17-02-2014 21:50:00 2.7 C 95 % 1.98 C
2852 17-02-2014 21:55:00 2.5 C 95 % 1.78 C
2853 17-02-2014 22:00:00 2.4 C 95 % 1.68 C
2854 17-02-2014 22:05:00 2.3 C 95 % 1.58 C
2855 17-02-2014 22:10:00 2.2 C 95 % 1.48 C
2856 17-02-2014 22:15:00 2.2 C 95 % 1.48 C
2857 17-02-2014 22:20:00 2.1 C 95 % 1.38 C
2858 17-02-2014 22:25:00 2.1 C 95 % 1.38 C
2859 17-02-2014 22:30:00 2 C 95 % 1.29 C
2860 17-02-2014 22:35:00 2.1 C 95 % 1.38 C
2861 17-02-2014 22:40:00 2 C 96 % 1.43 C
2862 17-02-2014 22:45:00 2 C 96 % 1.43 C
2863 17-02-2014 22:50:00 1.9 C 96 % 1.33 C
2864 17-02-2014 22:55:00 1.8 C 96 % 1.23 C
2865 17-02-2014 23:00:00 1.8 C 95 % 1.09 C
2866 17-02-2014 23:05:00 1.7 C 96 % 1.13 C
2867 17-02-2014 23:10:00 1.7 C 96 % 1.13 C
2868 17-02-2014 23:15:00 1.7 C 96 % 1.13 C
2869 17-02-2014 23:20:00 1.6 C 96 % 1.03 C
2870 17-02-2014 23:25:00 1.5 C 96 % 0.93 C
2871 17-02-2014 23:30:00 1.5 C 96 % 0.93 C
2872 17-02-2014 23:35:00 1.6 C 96 % 1.03 C
2873 17-02-2014 23:40:00 1.6 C 96 % 1.03 C
2874 17-02-2014 23:45:00 1.6 C 96 % 1.03 C
2875 17-02-2014 23:50:00 1.6 C 96 % 1.03 C
Sensor: Nr:Datum:Temp:Feuchte:Taupunkt:
Aussen-T/F 2876 17-02-2014 23:55:00 1.6 C 96 % 1.03 C
2877 18-02-2014 00:00:00 1.5 C 96 % 0.93 C
2878 18-02-2014 00:05:00 1.5 C 96 % 0.93 C
2879 18-02-2014 00:10:00 1.5 C 96 % 0.93 C
2880 18-02-2014 00:15:00 1.4 C 96 % 0.83 C
2881 18-02-2014 00:20:00 1.4 C 96 % 0.83 C
2882 18-02-2014 00:25:00 1.3 C 96 % 0.73 C
2883 18-02-2014 00:30:00 1.3 C 96 % 0.73 C
2884 18-02-2014 00:35:00 1.2 C 96 % 0.63 C
2885 18-02-2014 00:40:00 1.2 C 96 % 0.63 C
2886 18-02-2014 00:45:00 1.1 C 96 % 0.54 C
2887 18-02-2014 00:50:00 1.1 C 96 % 0.54 C
2888 18-02-2014 00:55:00 1.1 C 96 % 0.54 C
2889 18-02-2014 01:00:00 1.1 C 96 % 0.54 C
2890 18-02-2014 01:05:00 1.1 C 96 % 0.54 C
2891 18-02-2014 01:10:00 1 C 96 % 0.44 C
2892 18-02-2014 01:15:00 1 C 96 % 0.44 C
2893 18-02-2014 01:20:00 0.9 C 96 % 0.34 C
2894 18-02-2014 01:25:00 0.9 C 96 % 0.34 C
2895 18-02-2014 01:30:00 0.8 C 96 % 0.24 C
2896 18-02-2014 01:35:00 0.8 C 96 % 0.24 C
2897 18-02-2014 01:40:00 0.8 C 96 % 0.24 C
2898 18-02-2014 01:45:00 0.8 C 96 % 0.24 C
2899 18-02-2014 01:50:00 0.8 C 97 % 0.38 C
2900 18-02-2014 01:55:00 0.8 C 96 % 0.24 C
Sensor: Nr:Datum:Temp:Feuchte:Taupunkt:
Aussen-T/F 2901 18-02-2014 02:00:00 0.8 C 97 % 0.38 C
2902 18-02-2014 02:05:00 0.8 C 97 % 0.38 C
2903 18-02-2014 02:10:00 0.8 C 97 % 0.38 C
2904 18-02-2014 02:15:00 0.8 C 97 % 0.38 C
2905 18-02-2014 02:20:00 0.7 C 97 % 0.28 C
2906 18-02-2014 02:25:00 0.7 C 97 % 0.28 C
2907 18-02-2014 02:30:00 0.7 C 97 % 0.28 C
2908 18-02-2014 02:35:00 0.7 C 97 % 0.28 C
2909 18-02-2014 02:40:00 0.6 C 97 % 0.18 C
2910 18-02-2014 02:45:00 0.5 C 96 % -0.06 C
2911 18-02-2014 02:50:00 0.5 C 97 % 0.08 C
2912 18-02-2014 02:55:00 0.5 C 97 % 0.08 C
2913 18-02-2014 03:00:00 0.6 C 97 % 0.18 C
2914 18-02-2014 03:05:00 0.6 C 97 % 0.18 C
2915 18-02-2014 03:10:00 0.6 C 97 % 0.18 C
2916 18-02-2014 03:15:00 0.6 C 97 % 0.18 C
2917 18-02-2014 03:20:00 0.6 C 97 % 0.18 C
2918 18-02-2014 03:25:00 0.6 C 97 % 0.18 C
2919 18-02-2014 03:30:00 0.6 C 97 % 0.18 C
2920 18-02-2014 03:35:00 0.5 C 97 % 0.08 C
2921 18-02-2014 03:40:00 0.5 C 97 % 0.08 C
2922 18-02-2014 03:45:00 0.4 C 97 % -0.02 C
2923 18-02-2014 03:50:00 0.3 C 97 % -0.12 C
2924 18-02-2014 03:55:00 0.3 C 97 % -0.12 C
2925 18-02-2014 04:00:00 0.3 C 97 % -0.12 C
Sensor: Nr:Datum:Temp:Feuchte:Taupunkt:
Aussen-T/F 2926 18-02-2014 04:05:00 0.3 C 97 % -0.12 C
2927 18-02-2014 04:10:00 0.3 C 97 % -0.12 C
2928 18-02-2014 04:15:00 0.4 C 97 % -0.02 C
2929 18-02-2014 04:20:00 0.4 C 97 % -0.02 C
2930 18-02-2014 04:25:00 0.4 C 97 % -0.02 C
2931 18-02-2014 04:30:00 0.5 C 97 % 0.08 C
2932 18-02-2014 04:35:00 0.5 C 97 % 0.08 C
2933 18-02-2014 04:40:00 0.5 C 97 % 0.08 C
2934 18-02-2014 04:45:00 0.5 C 97 % 0.08 C
2935 18-02-2014 04:50:00 0.5 C 97 % 0.08 C
2936 18-02-2014 04:55:00 0.5 C 97 % 0.08 C
2937 18-02-2014 05:00:00 0.4 C 97 % -0.02 C
2938 18-02-2014 05:05:00 0.4 C 97 % -0.02 C
2939 18-02-2014 05:10:00 0.3 C 97 % -0.12 C
2940 18-02-2014 05:15:00 0.3 C 97 % -0.12 C
2941 18-02-2014 05:20:00 0.3 C 97 % -0.12 C
2942 18-02-2014 05:25:00 0.3 C 97 % -0.12 C
2943 18-02-2014 05:30:00 0.3 C 97 % -0.12 C
2944 18-02-2014 05:35:00 0.3 C 97 % -0.12 C
2945 18-02-2014 05:40:00 0.3 C 97 % -0.12 C
2946 18-02-2014 05:45:00 0.3 C 97 % -0.12 C
2947 18-02-2014 05:50:00 0.3 C 97 % -0.12 C
2948 18-02-2014 05:55:00 0.3 C 97 % -0.12 C
2949 18-02-2014 06:00:00 0.3 C 97 % -0.12 C
2950 18-02-2014 06:05:00 0.3 C 97 % -0.12 C
Sensor: Nr:Datum:Temp:Feuchte:Taupunkt:
Aussen-T/F 2951 18-02-2014 06:10:00 0.2 C 97 % -0.22 C
2952 18-02-2014 06:15:00 0.2 C 97 % -0.22 C
2953 18-02-2014 06:20:00 0.2 C 97 % -0.22 C
2954 18-02-2014 06:25:00 0.2 C 97 % -0.22 C
2955 18-02-2014 06:30:00 0.2 C 97 % -0.22 C
2956 18-02-2014 06:35:00 0.2 C 97 % -0.22 C
2957 18-02-2014 06:40:00 0.2 C 97 % -0.22 C
2958 18-02-2014 06:45:00 0.2 C 97 % -0.22 C
2959 18-02-2014 06:50:00 0.2 C 97 % -0.22 C
2960 18-02-2014 06:55:00 0.2 C 97 % -0.22 C
2961 18-02-2014 07:00:00 0.2 C 97 % -0.22 C
2962 18-02-2014 07:05:00 0.2 C 97 % -0.22 C
2963 18-02-2014 07:10:00 0.2 C 97 % -0.22 C
2964 18-02-2014 07:15:00 0.2 C 97 % -0.22 C
2965 18-02-2014 07:20:00 0.2 C 97 % -0.22 C
2966 18-02-2014 07:25:00 0.1 C 97 % -0.32 C
2967 18-02-2014 07:30:00 0.1 C 97 % -0.32 C
2968 18-02-2014 07:35:00 0 C 97 % -0.42 C
2969 18-02-2014 07:40:00 0 C 97 % -0.42 C
2970 18-02-2014 07:45:00 0 C 97 % -0.42 C
2971 18-02-2014 07:50:00 0 C 97 % -0.42 C
2972 18-02-2014 07:55:00 0 C 97 % -0.42 C
2973 18-02-2014 08:00:00 0.1 C 97 % -0.32 C
2974 18-02-2014 08:05:00 0.1 C 97 % -0.32 C
2975 18-02-2014 08:10:00 0.1 C 98 % -0.18 C
Sensor: Nr:Datum:Temp:Feuchte:Taupunkt:
Aussen-T/F 2976 18-02-2014 08:15:00 0.1 C 98 % -0.18 C
2977 18-02-2014 08:20:00 0.1 C 98 % -0.18 C
2978 18-02-2014 08:25:00 0.1 C 98 % -0.18 C
2979 18-02-2014 08:30:00 0.1 C 98 % -0.18 C
2980 18-02-2014 08:35:00 0.1 C 97 % -0.32 C
2981 18-02-2014 08:40:00 0.2 C 97 % -0.22 C
2982 18-02-2014 08:45:00 0.2 C 97 % -0.22 C
2983 18-02-2014 08:50:00 0.2 C 97 % -0.22 C
2984 18-02-2014 08:55:00 0.2 C 97 % -0.22 C
2985 18-02-2014 09:00:00 0.2 C 97 % -0.22 C
2986 18-02-2014 09:05:00 0.2 C 97 % -0.22 C
2987 18-02-2014 09:10:00 0.2 C 97 % -0.22 C
2988 18-02-2014 09:15:00 0.2 C 97 % -0.22 C
2989 18-02-2014 09:20:00 0.2 C 97 % -0.22 C
2990 18-02-2014 09:25:00 0.3 C 98 % 0.02 C
2991 18-02-2014 09:30:00 0.3 C 98 % 0.02 C
2992 18-02-2014 09:35:00 0.3 C 98 % 0.02 C
2993 18-02-2014 09:40:00 0.3 C 98 % 0.02 C
2994 18-02-2014 09:45:00 0.4 C 98 % 0.12 C
2995 18-02-2014 09:50:00 0.4 C 98 % 0.12 C
2996 18-02-2014 09:55:00 0.4 C 98 % 0.12 C
2997 18-02-2014 10:00:00 0.5 C 98 % 0.22 C
2998 18-02-2014 10:05:00 0.5 C 98 % 0.22 C
2999 18-02-2014 10:10:00 0.6 C 98 % 0.32 C
3000 18-02-2014 10:15:00 0.7 C 98 % 0.42 C
Sensor: Nr:Datum:Temp:Feuchte:Taupunkt:
Aussen-T/F 3001 18-02-2014 10:20:00 0.7 C 98 % 0.42 C
3002 18-02-2014 10:25:00 0.8 C 98 % 0.52 C
3003 18-02-2014 10:30:00 0.9 C 98 % 0.62 C
3004 18-02-2014 10:35:00 1 C 98 % 0.72 C
3005 18-02-2014 10:40:00 1.1 C 98 % 0.82 C
3006 18-02-2014 10:45:00 1.3 C 98 % 1.02 C
3007 18-02-2014 10:50:00 1.4 C 98 % 1.12 C
3008 18-02-2014 10:55:00 1.6 C 98 % 1.32 C
3009 18-02-2014 11:00:00 1.8 C 98 % 1.52 C
3010 18-02-2014 11:05:00 1.9 C 98 % 1.62 C
3011 18-02-2014 11:10:00 2.1 C 98 % 1.82 C
3012 18-02-2014 11:15:00 2.2 C 98 % 1.92 C
3013 18-02-2014 11:20:00 2.4 C 98 % 2.12 C
3014 18-02-2014 11:25:00 2.5 C 98 % 2.22 C
3015 18-02-2014 11:30:00 2.6 C 98 % 2.32 C
3016 18-02-2014 11:35:00 2.7 C 98 % 2.42 C
3017 18-02-2014 11:40:00 2.8 C 98 % 2.52 C
3018 18-02-2014 11:45:00 2.8 C 98 % 2.52 C
3019 18-02-2014 11:50:00 2.9 C 98 % 2.62 C
3020 18-02-2014 11:55:00 2.9 C 98 % 2.62 C
3021 18-02-2014 12:00:00 2.9 C 98 % 2.62 C
3022 18-02-2014 12:05:00 3 C 98 % 2.72 C
3023 18-02-2014 12:10:00 3.1 C 98 % 2.82 C
3024 18-02-2014 12:15:00 3.2 C 98 % 2.92 C
3025 18-02-2014 12:20:00 3.2 C 98 % 2.92 C
Sensor: Nr:Datum:Temp:Feuchte:Taupunkt:
Aussen-T/F 3026 18-02-2014 12:25:00 3.3 C 98 % 3.01 C
3027 18-02-2014 12:30:00 3.4 C 98 % 3.11 C
3028 18-02-2014 12:35:00 3.6 C 98 % 3.31 C
3029 18-02-2014 12:40:00 3.6 C 98 % 3.31 C
3030 18-02-2014 12:45:00 3.6 C 98 % 3.31 C
3031 18-02-2014 12:50:00 3.6 C 97 % 3.17 C
3032 18-02-2014 12:55:00 3.7 C 97 % 3.27 C
3033 18-02-2014 13:00:00 3.7 C 97 % 3.27 C
3034 18-02-2014 13:05:00 4 C 97 % 3.57 C
3035 18-02-2014 13:10:00 4.3 C 97 % 3.87 C
3036 18-02-2014 13:15:00 4.4 C 96 % 3.82 C
3037 18-02-2014 13:20:00 4.6 C 95 % 3.87 C
3038 18-02-2014 13:25:00 4.7 C 95 % 3.97 C
3039 18-02-2014 13:30:00 4.9 C 94 % 4.02 C
3040 18-02-2014 13:35:00 5.1 C 93 % 4.06 C
3041 18-02-2014 13:40:00 5.2 C 93 % 4.16 C
3042 18-02-2014 13:45:00 5.3 C 93 % 4.26 C
3043 18-02-2014 13:50:00 5.6 C 93 % 4.56 C
3044 18-02-2014 13:55:00 5.7 C 92 % 4.5 C
3045 18-02-2014 14:00:00 5.9 C 91 % 4.55 C
3046 18-02-2014 14:05:00 6 C 90 % 4.49 C
3047 18-02-2014 14:10:00 6.2 C 89 % 4.53 C
3048 18-02-2014 14:15:00 6.3 C 90 % 4.78 C
3049 18-02-2014 14:20:00 6.4 C 89 % 4.72 C
3050 18-02-2014 14:25:00 6.7 C 88 % 4.86 C
Sensor: Nr:Datum:Temp:Feuchte:Taupunkt:
Aussen-T/F 3051 18-02-2014 14:30:00 6.8 C 87 % 4.79 C
3052 18-02-2014 14:35:00 6.9 C 88 % 5.05 C
3053 18-02-2014 14:40:00 7 C 87 % 4.99 C
3054 18-02-2014 14:45:00 7.1 C 86 % 4.92 C
3055 18-02-2014 14:50:00 7.1 C 86 % 4.92 C
3056 18-02-2014 14:55:00 7.3 C 86 % 5.12 C
3057 18-02-2014 15:00:00 7.4 C 85 % 5.05 C
3058 18-02-2014 15:05:00 7.6 C 85 % 5.24 C
3059 18-02-2014 15:10:00 7.7 C 85 % 5.34 C
3060 18-02-2014 15:15:00 7.8 C 84 % 5.27 C
3061 18-02-2014 15:20:00 7.8 C 84 % 5.27 C
3062 18-02-2014 15:25:00 7.8 C 84 % 5.27 C
3063 18-02-2014 15:30:00 7.9 C 84 % 5.37 C
3064 18-02-2014 15:35:00 7.9 C 83 % 5.2 C
3065 18-02-2014 15:40:00 7.9 C 83 % 5.2 C
3066 18-02-2014 15:45:00 7.9 C 83 % 5.2 C
3067 18-02-2014 15:50:00 7.9 C 84 % 5.37 C
3068 18-02-2014 15:55:00 7.9 C 84 % 5.37 C
3069 18-02-2014 16:00:00 7.9 C 85 % 5.54 C
3070 18-02-2014 16:05:00 8 C 86 % 5.81 C
3071 18-02-2014 16:10:00 7.9 C 86 % 5.71 C
3072 18-02-2014 16:15:00 7.9 C 86 % 5.71 C
3073 18-02-2014 16:20:00 7.9 C 87 % 5.87 C
3074 18-02-2014 16:25:00 7.9 C 88 % 6.04 C
3075 18-02-2014 16:30:00 7.9 C 88 % 6.04 C
Sensor: Nr:Datum:Temp:Feuchte:Taupunkt:
Aussen-T/F 3076 18-02-2014 16:35:00 7.9 C 87 % 5.87 C
3077 18-02-2014 16:40:00 7.9 C 87 % 5.87 C
3078 18-02-2014 16:45:00 7.8 C 87 % 5.78 C
3079 18-02-2014 16:50:00 7.7 C 87 % 5.68 C
3080 18-02-2014 16:55:00 7.6 C 88 % 5.74 C
3081 18-02-2014 17:00:00 7.5 C 89 % 5.81 C
3082 18-02-2014 17:05:00 7.3 C 89 % 5.61 C
3083 18-02-2014 17:10:00 7.2 C 90 % 5.67 C
3084 18-02-2014 17:15:00 7.2 C 90 % 5.67 C
3085 18-02-2014 17:20:00 7.1 C 91 % 5.73 C
3086 18-02-2014 17:25:00 6.9 C 91 % 5.54 C
3087 18-02-2014 17:30:00 6.8 C 91 % 5.44 C
3088 18-02-2014 17:35:00 6.7 C 91 % 5.34 C
3089 18-02-2014 17:40:00 6.7 C 91 % 5.34 C
3090 18-02-2014 17:45:00 6.7 C 91 % 5.34 C
3091 18-02-2014 17:50:00 6.7 C 91 % 5.34 C
3092 18-02-2014 17:55:00 6.7 C 91 % 5.34 C
3093 18-02-2014 18:00:00 6.6 C 91 % 5.24 C
3094 18-02-2014 18:05:00 6.6 C 91 % 5.24 C
3095 18-02-2014 18:10:00 6.6 C 91 % 5.24 C
3096 18-02-2014 18:15:00 6.6 C 91 % 5.24 C
3097 18-02-2014 18:20:00 6.6 C 91 % 5.24 C
3098 18-02-2014 18:25:00 6.5 C 90 % 4.98 C
3099 18-02-2014 18:30:00 6.6 C 91 % 5.24 C
3100 18-02-2014 18:35:00 6.5 C 90 % 4.98 C
Sensor: Nr:Datum:Temp:Feuchte:Taupunkt:
Aussen-T/F 3101 18-02-2014 18:40:00 6.5 C 90 % 4.98 C
3102 18-02-2014 18:45:00 6.5 C 91 % 5.14 C
3103 18-02-2014 18:50:00 6.5 C 91 % 5.14 C
3104 18-02-2014 18:55:00 6.4 C 91 % 5.04 C
3105 18-02-2014 19:00:00 6.4 C 90 % 4.88 C
3106 18-02-2014 19:05:00 6.3 C 90 % 4.78 C
3107 18-02-2014 19:10:00 6.3 C 90 % 4.78 C
3108 18-02-2014 19:15:00 6.2 C 90 % 4.69 C
3109 18-02-2014 19:20:00 6.2 C 91 % 4.84 C
3110 18-02-2014 19:25:00 6.1 C 91 % 4.74 C
3111 18-02-2014 19:30:00 6 C 92 % 4.8 C
3112 18-02-2014 19:35:00 6 C 92 % 4.8 C
3113 18-02-2014 19:40:00 5.9 C 92 % 4.7 C
3114 18-02-2014 19:45:00 5.9 C 92 % 4.7 C
3115 18-02-2014 19:50:00 5.8 C 92 % 4.6 C
3116 18-02-2014 19:55:00 5.8 C 92 % 4.6 C
3117 18-02-2014 20:00:00 5.8 C 92 % 4.6 C
3118 18-02-2014 20:05:00 5.8 C 92 % 4.6 C
3119 18-02-2014 20:10:00 5.8 C 92 % 4.6 C
3120 18-02-2014 20:15:00 5.8 C 92 % 4.6 C
3121 18-02-2014 20:20:00 5.8 C 92 % 4.6 C
3122 18-02-2014 20:25:00 5.8 C 92 % 4.6 C
3123 18-02-2014 20:30:00 5.8 C 92 % 4.6 C
3124 18-02-2014 20:35:00 5.8 C 92 % 4.6 C
3125 18-02-2014 20:40:00 5.7 C 92 % 4.5 C
Sensor: Nr:Datum:Temp:Feuchte:Taupunkt:
Aussen-T/F 3126 18-02-2014 20:45:00 5.7 C 93 % 4.66 C
3127 18-02-2014 20:50:00 5.7 C 92 % 4.5 C
3128 18-02-2014 20:55:00 5.7 C 92 % 4.5 C
3129 18-02-2014 21:00:00 5.7 C 92 % 4.5 C
3130 18-02-2014 21:05:00 5.7 C 93 % 4.66 C
3131 18-02-2014 21:10:00 5.6 C 93 % 4.56 C
3132 18-02-2014 21:15:00 5.6 C 93 % 4.56 C
3133 18-02-2014 21:20:00 5.6 C 93 % 4.56 C
3134 18-02-2014 21:25:00 5.6 C 93 % 4.56 C
3135 18-02-2014 21:30:00 5.7 C 93 % 4.66 C
3136 18-02-2014 21:35:00 5.7 C 93 % 4.66 C
3137 18-02-2014 21:40:00 5.7 C 93 % 4.66 C
3138 18-02-2014 21:45:00 5.7 C 93 % 4.66 C
3139 18-02-2014 21:50:00 5.6 C 93 % 4.56 C
3140 18-02-2014 21:55:00 5.6 C 92 % 4.41 C
3141 18-02-2014 22:00:00 5.7 C 93 % 4.66 C
3142 18-02-2014 22:05:00 5.7 C 93 % 4.66 C
3143 18-02-2014 22:10:00 5.7 C 93 % 4.66 C
3144 18-02-2014 22:15:00 5.7 C 93 % 4.66 C
3145 18-02-2014 22:20:00 5.7 C 93 % 4.66 C
3146 18-02-2014 22:25:00 5.8 C 92 % 4.6 C
3147 18-02-2014 22:30:00 5.8 C 92 % 4.6 C
3148 18-02-2014 22:35:00 5.7 C 92 % 4.5 C
3149 18-02-2014 22:40:00 5.7 C 92 % 4.5 C
3150 18-02-2014 22:45:00 5.8 C 92 % 4.6 C
Sensor: Nr:Datum:Temp:Feuchte:Taupunkt:
Aussen-T/F 3151 18-02-2014 22:50:00 5.9 C 92 % 4.7 C
3152 18-02-2014 22:55:00 5.9 C 92 % 4.7 C
3153 18-02-2014 23:00:00 5.9 C 92 % 4.7 C
3154 18-02-2014 23:05:00 5.9 C 92 % 4.7 C
3155 18-02-2014 23:10:00 5.9 C 92 % 4.7 C
3156 18-02-2014 23:15:00 5.9 C 92 % 4.7 C
3157 18-02-2014 23:20:00 5.9 C 91 % 4.55 C
3158 18-02-2014 23:25:00 5.9 C 91 % 4.55 C
3159 18-02-2014 23:30:00 5.9 C 91 % 4.55 C
3160 18-02-2014 23:35:00 5.9 C 91 % 4.55 C
3161 18-02-2014 23:40:00 5.8 C 91 % 4.45 C
3162 18-02-2014 23:45:00 5.8 C 91 % 4.45 C
3163 18-02-2014 23:50:00 5.7 C 91 % 4.35 C
3164 18-02-2014 23:55:00 5.7 C 91 % 4.35 C
3165 19-02-2014 00:00:00 5.6 C 92 % 4.41 C
3166 19-02-2014 00:05:00 5.6 C 92 % 4.41 C
3167 19-02-2014 00:10:00 5.6 C 92 % 4.41 C
3168 19-02-2014 00:15:00 5.6 C 92 % 4.41 C
3169 19-02-2014 00:20:00 5.5 C 92 % 4.31 C
3170 19-02-2014 00:25:00 5.4 C 93 % 4.36 C
3171 19-02-2014 00:30:00 5.4 C 93 % 4.36 C
3172 19-02-2014 00:35:00 5.4 C 93 % 4.36 C
3173 19-02-2014 00:40:00 5.5 C 93 % 4.46 C
3174 19-02-2014 00:45:00 5.5 C 93 % 4.46 C
3175 19-02-2014 00:50:00 5.5 C 93 % 4.46 C
Sensor: Nr:Datum:Temp:Feuchte:Taupunkt:
Aussen-T/F 3176 19-02-2014 00:55:00 5.5 C 93 % 4.46 C
3177 19-02-2014 01:00:00 5.5 C 92 % 4.31 C
3178 19-02-2014 01:05:00 5.4 C 93 % 4.36 C
3179 19-02-2014 01:10:00 5.4 C 93 % 4.36 C
3180 19-02-2014 01:15:00 5.4 C 93 % 4.36 C
3181 19-02-2014 01:20:00 5.3 C 93 % 4.26 C
3182 19-02-2014 01:25:00 5.3 C 93 % 4.26 C
3183 19-02-2014 01:30:00 5.3 C 93 % 4.26 C
3184 19-02-2014 01:35:00 5.2 C 93 % 4.16 C
3185 19-02-2014 01:40:00 5.2 C 93 % 4.16 C
3186 19-02-2014 01:45:00 5.2 C 93 % 4.16 C
3187 19-02-2014 01:50:00 5.2 C 93 % 4.16 C
3188 19-02-2014 01:55:00 5.2 C 93 % 4.16 C
3189 19-02-2014 02:00:00 5.2 C 93 % 4.16 C
3190 19-02-2014 02:05:00 5.2 C 93 % 4.16 C
3191 19-02-2014 02:10:00 5.1 C 93 % 4.06 C
3192 19-02-2014 02:15:00 5.1 C 93 % 4.06 C
3193 19-02-2014 02:20:00 5.1 C 93 % 4.06 C
3194 19-02-2014 02:25:00 5.1 C 93 % 4.06 C
3195 19-02-2014 02:30:00 5.1 C 93 % 4.06 C
3196 19-02-2014 02:35:00 5.1 C 93 % 4.06 C
3197 19-02-2014 02:40:00 5.1 C 93 % 4.06 C
3198 19-02-2014 02:45:00 5 C 93 % 3.96 C
3199 19-02-2014 02:50:00 4.9 C 93 % 3.87 C
3200 19-02-2014 02:55:00 4.9 C 93 % 3.87 C
Sensor: Nr:Datum:Temp:Feuchte:Taupunkt:
Aussen-T/F 3201 19-02-2014 03:00:00 4.9 C 93 % 3.87 C
3202 19-02-2014 03:05:00 4.9 C 93 % 3.87 C
3203 19-02-2014 03:10:00 4.9 C 93 % 3.87 C
3204 19-02-2014 03:15:00 4.9 C 93 % 3.87 C
3205 19-02-2014 03:20:00 5.1 C 94 % 4.22 C
3206 19-02-2014 03:25:00 5.1 C 93 % 4.06 C
3207 19-02-2014 03:30:00 5.1 C 93 % 4.06 C
3208 19-02-2014 03:35:00 5.2 C 93 % 4.16 C
3209 19-02-2014 03:40:00 5.2 C 93 % 4.16 C
3210 19-02-2014 03:45:00 5.1 C 93 % 4.06 C
3211 19-02-2014 03:50:00 5.2 C 93 % 4.16 C
3212 19-02-2014 03:55:00 5.2 C 93 % 4.16 C
3213 19-02-2014 04:00:00 5.2 C 93 % 4.16 C
3214 19-02-2014 04:05:00 5.2 C 93 % 4.16 C
3215 19-02-2014 04:10:00 5.2 C 93 % 4.16 C
3216 19-02-2014 04:15:00 5.2 C 93 % 4.16 C
3217 19-02-2014 04:20:00 5.3 C 93 % 4.26 C
3218 19-02-2014 04:25:00 5.4 C 93 % 4.36 C
3219 19-02-2014 04:30:00 5.4 C 93 % 4.36 C
3220 19-02-2014 04:35:00 5.4 C 93 % 4.36 C
3221 19-02-2014 04:40:00 5.6 C 93 % 4.56 C
3222 19-02-2014 04:45:00 5.6 C 93 % 4.56 C
3223 19-02-2014 04:50:00 5.8 C 93 % 4.76 C
3224 19-02-2014 04:55:00 6.2 C 91 % 4.84 C
3225 19-02-2014 05:00:00 6.4 C 90 % 4.88 C
Sensor: Nr:Datum:Temp:Feuchte:Taupunkt:
Aussen-T/F 3226 19-02-2014 05:05:00 6.8 C 88 % 4.96 C
3227 19-02-2014 05:10:00 7.3 C 87 % 5.28 C
3228 19-02-2014 05:15:00 7.5 C 86 % 5.31 C
3229 19-02-2014 05:20:00 7.4 C 86 % 5.22 C
3230 19-02-2014 05:25:00 7.3 C 87 % 5.28 C
3231 19-02-2014 05:30:00 7.1 C 87 % 5.09 C
3232 19-02-2014 05:35:00 6.9 C 88 % 5.05 C
3233 19-02-2014 05:40:00 6.7 C 89 % 5.02 C
3234 19-02-2014 05:45:00 6.6 C 89 % 4.92 C
3235 19-02-2014 05:50:00 6.4 C 90 % 4.88 C
3236 19-02-2014 05:55:00 6.4 C 90 % 4.88 C
3237 19-02-2014 06:00:00 6.4 C 91 % 5.04 C
3238 19-02-2014 06:05:00 6.4 C 91 % 5.04 C
3239 19-02-2014 06:10:00 6.4 C 91 % 5.04 C
3240 19-02-2014 06:15:00 6.4 C 91 % 5.04 C
3241 19-02-2014 06:20:00 6.6 C 91 % 5.24 C
3242 19-02-2014 06:25:00 6.8 C 90 % 5.28 C
3243 19-02-2014 06:30:00 7.2 C 89 % 5.51 C
3244 19-02-2014 06:35:00 7.4 C 88 % 5.55 C
3245 19-02-2014 06:40:00 7.5 C 87 % 5.48 C
3246 19-02-2014 06:45:00 7.6 C 87 % 5.58 C
3247 19-02-2014 06:50:00 7.6 C 87 % 5.58 C
3248 19-02-2014 06:55:00 7.6 C 87 % 5.58 C
3249 19-02-2014 07:00:00 7.6 C 87 % 5.58 C
3250 19-02-2014 07:05:00 7.7 C 87 % 5.68 C
Sensor: Nr:Datum:Temp:Feuchte:Taupunkt:
Aussen-T/F 3251 19-02-2014 07:10:00 7.6 C 87 % 5.58 C
3252 19-02-2014 07:15:00 7.6 C 87 % 5.58 C
3253 19-02-2014 07:20:00 7.4 C 87 % 5.38 C
3254 19-02-2014 07:25:00 7.3 C 88 % 5.45 C
3255 19-02-2014 07:30:00 7.3 C 88 % 5.45 C
3256 19-02-2014 07:35:00 7.1 C 88 % 5.25 C
3257 19-02-2014 07:40:00 6.8 C 89 % 5.12 C
3258 19-02-2014 07:45:00 6.7 C 90 % 5.18 C
3259 19-02-2014 07:50:00 6.6 C 90 % 5.08 C
3260 19-02-2014 07:55:00 6.4 C 90 % 4.88 C
3261 19-02-2014 08:00:00 6.4 C 91 % 5.04 C
3262 19-02-2014 08:05:00 6.3 C 92 % 5.1 C
3263 19-02-2014 08:10:00 6.4 C 92 % 5.2 C
3264 19-02-2014 08:15:00 6.6 C 92 % 5.4 C
3265 19-02-2014 08:20:00 6.8 C 91 % 5.44 C
3266 19-02-2014 08:25:00 7 C 90 % 5.48 C
3267 19-02-2014 08:30:00 7.2 C 90 % 5.67 C
3268 19-02-2014 08:35:00 7.3 C 89 % 5.61 C
3269 19-02-2014 08:40:00 7.4 C 89 % 5.71 C
3270 19-02-2014 08:45:00 7.4 C 88 % 5.55 C
3271 19-02-2014 08:50:00 7.6 C 88 % 5.74 C
3272 19-02-2014 08:55:00 7.6 C 87 % 5.58 C
3273 19-02-2014 09:00:00 7.7 C 87 % 5.68 C
3274 19-02-2014 09:05:00 7.8 C 87 % 5.78 C
3275 19-02-2014 09:10:00 7.8 C 87 % 5.78 C
Sensor: Nr:Datum:Temp:Feuchte:Taupunkt:
Aussen-T/F 3276 19-02-2014 09:15:00 7.8 C 87 % 5.78 C
3277 19-02-2014 09:20:00 7.8 C 88 % 5.94 C
3278 19-02-2014 09:25:00 7.8 C 88 % 5.94 C
3279 19-02-2014 09:30:00 7.7 C 88 % 5.84 C
3280 19-02-2014 09:35:00 7.8 C 89 % 6.1 C
3281 19-02-2014 09:40:00 7.8 C 88 % 5.94 C
3282 19-02-2014 09:45:00 7.9 C 88 % 6.04 C
3283 19-02-2014 09:50:00 8 C 87 % 5.97 C
3284 19-02-2014 09:55:00 8.1 C 87 % 6.07 C
3285 19-02-2014 10:00:00 8.2 C 87 % 6.17 C
3286 19-02-2014 10:05:00 8.3 C 86 % 6.1 C
3287 19-02-2014 10:10:00 8.4 C 85 % 6.03 C
3288 19-02-2014 10:15:00 8.6 C 85 % 6.23 C
3289 19-02-2014 10:20:00 8.7 C 84 % 6.15 C
3290 19-02-2014 10:25:00 8.8 C 83 % 6.08 C
3291 19-02-2014 10:30:00 8.9 C 83 % 6.17 C
3292 19-02-2014 10:35:00 8.8 C 82 % 5.9 C
3293 19-02-2014 10:40:00 8.8 C 82 % 5.9 C
3294 19-02-2014 10:45:00 8.7 C 83 % 5.98 C
3295 19-02-2014 10:50:00 8.7 C 83 % 5.98 C
3296 19-02-2014 10:55:00 8.7 C 82 % 5.8 C
3297 19-02-2014 11:00:00 8.7 C 82 % 5.8 C
3298 19-02-2014 11:05:00 8.7 C 81 % 5.63 C
3299 19-02-2014 11:10:00 8.8 C 82 % 5.9 C
3300 19-02-2014 11:15:00 8.8 C 81 % 5.72 C
Sensor: Nr:Datum:Temp:Feuchte:Taupunkt:
Aussen-T/F 3301 19-02-2014 11:20:00 8.9 C 81 % 5.82 C
3302 19-02-2014 11:25:00 9 C 81 % 5.92 C
3303 19-02-2014 11:30:00 9.2 C 81 % 6.11 C
3304 19-02-2014 11:35:00 9.3 C 80 % 6.03 C
3305 19-02-2014 11:40:00 9.4 C 79 % 5.95 C
3306 19-02-2014 11:45:00 9.6 C 79 % 6.14 C
3307 19-02-2014 11:50:00 9.8 C 78 % 6.15 C
3308 19-02-2014 11:55:00 9.9 C 77 % 6.06 C
3309 19-02-2014 12:00:00 10 C 77 % 6.16 C
3310 19-02-2014 12:05:00 10.1 C 76 % 6.07 C
3311 19-02-2014 12:10:00 10.1 C 76 % 6.07 C
3312 19-02-2014 12:15:00 10.1 C 75 % 5.88 C
3313 19-02-2014 12:20:00 10.1 C 75 % 5.88 C
3314 19-02-2014 12:25:00 10.2 C 75 % 5.97 C
3315 19-02-2014 12:30:00 10.2 C 75 % 5.97 C
3316 19-02-2014 12:35:00 10.3 C 75 % 6.07 C
3317 19-02-2014 12:40:00 10.5 C 73 % 5.87 C
3318 19-02-2014 12:45:00 10.6 C 72 % 5.77 C
3319 19-02-2014 12:50:00 10.7 C 71 % 5.66 C
3320 19-02-2014 12:55:00 10.9 C 71 % 5.86 C
3321 19-02-2014 13:00:00 11.2 C 70 % 5.94 C
3322 19-02-2014 13:05:00 11.4 C 69 % 5.92 C
3323 19-02-2014 13:10:00 11.5 C 68 % 5.81 C
3324 19-02-2014 13:15:00 11.6 C 68 % 5.9 C
3325 19-02-2014 13:20:00 11.8 C 68 % 6.09 C
Sensor: Nr:Datum:Temp:Feuchte:Taupunkt:
Aussen-T/F 3326 19-02-2014 13:25:00 11.7 C 67 % 5.78 C
3327 19-02-2014 13:30:00 11.7 C 68 % 6 C
3328 19-02-2014 13:35:00 11.6 C 68 % 5.9 C
3329 19-02-2014 13:40:00 11.6 C 67 % 5.69 C
3330 19-02-2014 13:45:00 11.3 C 67 % 5.4 C
3331 19-02-2014 13:50:00 11.4 C 68 % 5.71 C
3332 19-02-2014 13:55:00 11.6 C 68 % 5.9 C
3333 19-02-2014 14:00:00 11.7 C 67 % 5.78 C
3334 19-02-2014 14:05:00 11.7 C 68 % 6 C
3335 19-02-2014 14:10:00 11.6 C 68 % 5.9 C
3336 19-02-2014 14:15:00 11.6 C 67 % 5.69 C
3337 19-02-2014 14:20:00 11.6 C 67 % 5.69 C
3338 19-02-2014 14:25:00 11.6 C 67 % 5.69 C
3339 19-02-2014 14:30:00 11.4 C 68 % 5.71 C
3340 19-02-2014 14:35:00 11.4 C 67 % 5.5 C
3341 19-02-2014 14:40:00 11.4 C 67 % 5.5 C
3342 19-02-2014 14:45:00 11.4 C 68 % 5.71 C
3343 19-02-2014 14:50:00 11.5 C 68 % 5.81 C
3344 19-02-2014 14:55:00 11.4 C 68 % 5.71 C
3345 19-02-2014 15:00:00 11.3 C 70 % 6.03 C
3346 19-02-2014 15:05:00 11.3 C 68 % 5.62 C
3347 19-02-2014 15:10:00 11.2 C 69 % 5.73 C
3348 19-02-2014 15:15:00 11 C 69 % 5.54 C
3349 19-02-2014 15:20:00 10.9 C 70 % 5.65 C
3350 19-02-2014 15:25:00 10.8 C 71 % 5.76 C
Sensor: Nr:Datum:Temp:Feuchte:Taupunkt:
Aussen-T/F 3351 19-02-2014 15:30:00 10.9 C 71 % 5.86 C
3352 19-02-2014 15:35:00 10.9 C 71 % 5.86 C
3353 19-02-2014 15:40:00 10.8 C 69 % 5.35 C
3354 19-02-2014 15:45:00 10.7 C 71 % 5.66 C
3355 19-02-2014 15:50:00 10.3 C 75 % 6.07 C
3356 19-02-2014 15:55:00 9.9 C 81 % 6.8 C
3357 19-02-2014 16:00:00 9.7 C 81 % 6.6 C
3358 19-02-2014 16:05:00 9.5 C 81 % 6.41 C
3359 19-02-2014 16:10:00 9.5 C 82 % 6.59 C
3360 19-02-2014 16:15:00 9.5 C 82 % 6.59 C
3361 19-02-2014 16:20:00 9.6 C 82 % 6.68 C
3362 19-02-2014 16:25:00 9.6 C 82 % 6.68 C
3363 19-02-2014 16:30:00 9.7 C 80 % 6.42 C
3364 19-02-2014 16:35:00 9.7 C 80 % 6.42 C
3365 19-02-2014 16:40:00 9.7 C 81 % 6.6 C
3366 19-02-2014 16:45:00 9.7 C 82 % 6.78 C
3367 19-02-2014 16:50:00 9.5 C 81 % 6.41 C
3368 19-02-2014 16:55:00 9.4 C 81 % 6.31 C
3369 19-02-2014 17:00:00 9.3 C 81 % 6.21 C
3370 19-02-2014 17:05:00 9.2 C 81 % 6.11 C
3371 19-02-2014 17:10:00 9.2 C 82 % 6.29 C
3372 19-02-2014 17:15:00 9.2 C 82 % 6.29 C
3373 19-02-2014 17:20:00 9.2 C 82 % 6.29 C
3374 19-02-2014 17:25:00 9.2 C 82 % 6.29 C
3375 19-02-2014 17:30:00 9.3 C 81 % 6.21 C
Sensor: Nr:Datum:Temp:Feuchte:Taupunkt:
Aussen-T/F 3376 19-02-2014 17:35:00 9.3 C 81 % 6.21 C
3377 19-02-2014 17:40:00 9.3 C 81 % 6.21 C
3378 19-02-2014 17:45:00 9.3 C 81 % 6.21 C
3379 19-02-2014 17:50:00 9.3 C 81 % 6.21 C
3380 19-02-2014 17:55:00 9.3 C 81 % 6.21 C
3381 19-02-2014 18:00:00 9.3 C 81 % 6.21 C
3382 19-02-2014 18:05:00 9.2 C 81 % 6.11 C
3383 19-02-2014 18:10:00 9.2 C 82 % 6.29 C
3384 19-02-2014 18:15:00 9.1 C 83 % 6.37 C
3385 19-02-2014 18:20:00 9.1 C 83 % 6.37 C
3386 19-02-2014 18:25:00 9 C 83 % 6.27 C
3387 19-02-2014 18:30:00 8.9 C 83 % 6.17 C
3388 19-02-2014 18:35:00 8.7 C 84 % 6.15 C
3389 19-02-2014 18:40:00 8.6 C 84 % 6.05 C
3390 19-02-2014 18:45:00 8.4 C 84 % 5.86 C
3391 19-02-2014 18:50:00 8.4 C 83 % 5.69 C
3392 19-02-2014 18:55:00 8.4 C 84 % 5.86 C
3393 19-02-2014 19:00:00 8.3 C 84 % 5.76 C
3394 19-02-2014 19:05:00 8.3 C 84 % 5.76 C
3395 19-02-2014 19:10:00 8.2 C 85 % 5.83 C
3396 19-02-2014 19:15:00 8.2 C 85 % 5.83 C
3397 19-02-2014 19:20:00 8.2 C 85 % 5.83 C
3398 19-02-2014 19:25:00 8.3 C 83 % 5.59 C
3399 19-02-2014 19:30:00 8.4 C 84 % 5.86 C
3400 19-02-2014 19:35:00 8.3 C 85 % 5.93 C
Sensor: Nr:Datum:Temp:Feuchte:Taupunkt:
Aussen-T/F 3401 19-02-2014 19:40:00 8.1 C 85 % 5.73 C
3402 19-02-2014 19:45:00 8.1 C 85 % 5.73 C
3403 19-02-2014 19:50:00 8 C 85 % 5.64 C
3404 19-02-2014 19:55:00 7.9 C 86 % 5.71 C
3405 19-02-2014 20:00:00 7.9 C 86 % 5.71 C
3406 19-02-2014 20:05:00 8 C 86 % 5.81 C
3407 19-02-2014 20:10:00 7.9 C 87 % 5.87 C
3408 19-02-2014 20:15:00 7.7 C 87 % 5.68 C
3409 19-02-2014 20:20:00 7.7 C 87 % 5.68 C
3410 19-02-2014 20:25:00 7.6 C 88 % 5.74 C
3411 19-02-2014 20:30:00 7.7 C 87 % 5.68 C
3412 19-02-2014 20:35:00 7.8 C 87 % 5.78 C
3413 19-02-2014 20:40:00 7.8 C 86 % 5.61 C
3414 19-02-2014 20:45:00 7.8 C 87 % 5.78 C
3415 19-02-2014 20:50:00 7.7 C 87 % 5.68 C
3416 19-02-2014 20:55:00 7.6 C 88 % 5.74 C
3417 19-02-2014 21:00:00 7.4 C 88 % 5.55 C
3418 19-02-2014 21:05:00 7.5 C 88 % 5.64 C
3419 19-02-2014 21:10:00 7.4 C 88 % 5.55 C
3420 19-02-2014 21:15:00 7.3 C 88 % 5.45 C
3421 19-02-2014 21:20:00 7.2 C 88 % 5.35 C
3422 19-02-2014 21:25:00 6.9 C 89 % 5.22 C
3423 19-02-2014 21:30:00 6.7 C 90 % 5.18 C
3424 19-02-2014 21:35:00 6.6 C 90 % 5.08 C
3425 19-02-2014 21:40:00 6.3 C 90 % 4.78 C
Sensor: Nr:Datum:Temp:Feuchte:Taupunkt:
Aussen-T/F 3426 19-02-2014 21:45:00 6.2 C 90 % 4.69 C
3427 19-02-2014 21:50:00 6.2 C 91 % 4.84 C
3428 19-02-2014 21:55:00 6.2 C 90 % 4.69 C
3429 19-02-2014 22:00:00 6.1 C 90 % 4.59 C
3430 19-02-2014 22:05:00 6 C 91 % 4.65 C
3431 19-02-2014 22:10:00 5.9 C 91 % 4.55 C
3432 19-02-2014 22:15:00 5.9 C 92 % 4.7 C
3433 19-02-2014 22:20:00 5.9 C 92 % 4.7 C
3434 19-02-2014 22:25:00 5.9 C 92 % 4.7 C
3435 19-02-2014 22:30:00 5.9 C 93 % 4.86 C
3436 19-02-2014 22:35:00 6.2 C 93 % 5.15 C
3437 19-02-2014 22:40:00 6.5 C 92 % 5.3 C
3438 19-02-2014 22:45:00 6.7 C 91 % 5.34 C
3439 19-02-2014 22:50:00 6.7 C 90 % 5.18 C
3440 19-02-2014 22:55:00 6.7 C 90 % 5.18 C
3441 19-02-2014 23:00:00 6.7 C 90 % 5.18 C
3442 19-02-2014 23:05:00 6.7 C 90 % 5.18 C
3443 19-02-2014 23:10:00 6.8 C 90 % 5.28 C
3444 19-02-2014 23:15:00 6.8 C 90 % 5.28 C
3445 19-02-2014 23:20:00 6.8 C 89 % 5.12 C
3446 19-02-2014 23:25:00 6.9 C 89 % 5.22 C
3447 19-02-2014 23:30:00 6.8 C 89 % 5.12 C
3448 19-02-2014 23:35:00 6.9 C 89 % 5.22 C
3449 19-02-2014 23:40:00 6.8 C 89 % 5.12 C
3450 19-02-2014 23:45:00 6.8 C 89 % 5.12 C
Sensor: Nr:Datum:Temp:Feuchte:Taupunkt:
Aussen-T/F 3451 19-02-2014 23:50:00 6.7 C 89 % 5.02 C
3452 19-02-2014 23:55:00 6.7 C 90 % 5.18 C
3453 20-02-2014 00:00:00 6.7 C 90 % 5.18 C
3454 20-02-2014 00:05:00 6.7 C 89 % 5.02 C
3455 20-02-2014 00:10:00 6.8 C 89 % 5.12 C
3456 20-02-2014 00:15:00 7 C 88 % 5.15 C
3457 20-02-2014 00:20:00 7.1 C 88 % 5.25 C
3458 20-02-2014 00:25:00 7.1 C 88 % 5.25 C
3459 20-02-2014 00:30:00 7.1 C 88 % 5.25 C
3460 20-02-2014 00:35:00 7.1 C 87 % 5.09 C
3461 20-02-2014 00:40:00 7.1 C 87 % 5.09 C
3462 20-02-2014 00:45:00 7 C 87 % 4.99 C
3463 20-02-2014 00:50:00 7 C 88 % 5.15 C
3464 20-02-2014 00:55:00 6.9 C 88 % 5.05 C
3465 20-02-2014 01:00:00 6.8 C 88 % 4.96 C
3466 20-02-2014 01:05:00 6.7 C 88 % 4.86 C
3467 20-02-2014 01:10:00 6.7 C 89 % 5.02 C
3468 20-02-2014 01:15:00 6.6 C 89 % 4.92 C
3469 20-02-2014 01:20:00 6.6 C 89 % 4.92 C
3470 20-02-2014 01:25:00 6.5 C 90 % 4.98 C
3471 20-02-2014 01:30:00 6.5 C 90 % 4.98 C
3472 20-02-2014 01:35:00 6.5 C 90 % 4.98 C
3473 20-02-2014 01:40:00 6.5 C 90 % 4.98 C
3474 20-02-2014 01:45:00 6.4 C 90 % 4.88 C
3475 20-02-2014 01:50:00 6.4 C 90 % 4.88 C
Sensor: Nr:Datum:Temp:Feuchte:Taupunkt:
Aussen-T/F 3476 20-02-2014 01:55:00 6.4 C 90 % 4.88 C
3477 20-02-2014 02:00:00 6.5 C 91 % 5.14 C
3478 20-02-2014 02:05:00 6.6 C 91 % 5.24 C
3479 20-02-2014 02:10:00 6.6 C 91 % 5.24 C
3480 20-02-2014 02:15:00 6.6 C 90 % 5.08 C
3481 20-02-2014 02:20:00 6.6 C 90 % 5.08 C
3482 20-02-2014 02:25:00 6.5 C 90 % 4.98 C
3483 20-02-2014 02:30:00 6.4 C 91 % 5.04 C
3484 20-02-2014 02:35:00 6.4 C 91 % 5.04 C
3485 20-02-2014 02:40:00 6.4 C 91 % 5.04 C
3486 20-02-2014 02:45:00 6.4 C 91 % 5.04 C
3487 20-02-2014 02:50:00 6.4 C 91 % 5.04 C
3488 20-02-2014 02:55:00 6.4 C 91 % 5.04 C
3489 20-02-2014 03:00:00 6.4 C 91 % 5.04 C
3490 20-02-2014 03:05:00 6.3 C 91 % 4.94 C
3491 20-02-2014 03:10:00 6.3 C 91 % 4.94 C
3492 20-02-2014 03:15:00 6.3 C 92 % 5.1 C
3493 20-02-2014 03:20:00 6.4 C 91 % 5.04 C
3494 20-02-2014 03:25:00 6.4 C 91 % 5.04 C
3495 20-02-2014 03:30:00 6.5 C 91 % 5.14 C
3496 20-02-2014 03:35:00 6.4 C 91 % 5.04 C
3497 20-02-2014 03:40:00 6.4 C 91 % 5.04 C
3498 20-02-2014 03:45:00 6.4 C 91 % 5.04 C
3499 20-02-2014 03:50:00 6.4 C 91 % 5.04 C
3500 20-02-2014 03:55:00 6.4 C 90 % 4.88 C
Sensor: Nr:Datum:Temp:Feuchte:Taupunkt:
Aussen-T/F 3501 20-02-2014 04:00:00 6.4 C 90 % 4.88 C
3502 20-02-2014 04:05:00 6.4 C 90 % 4.88 C
3503 20-02-2014 04:10:00 6.5 C 90 % 4.98 C
3504 20-02-2014 04:15:00 6.6 C 89 % 4.92 C
3505 20-02-2014 04:20:00 6.6 C 89 % 4.92 C
3506 20-02-2014 04:25:00 6.6 C 89 % 4.92 C
3507 20-02-2014 04:30:00 6.6 C 89 % 4.92 C
3508 20-02-2014 04:35:00 6.4 C 90 % 4.88 C
3509 20-02-2014 04:40:00 6.3 C 90 % 4.78 C
3510 20-02-2014 04:45:00 6.3 C 91 % 4.94 C
3511 20-02-2014 04:50:00 6.2 C 91 % 4.84 C
3512 20-02-2014 04:55:00 6.2 C 91 % 4.84 C
3513 20-02-2014 05:00:00 6.1 C 91 % 4.74 C
3514 20-02-2014 05:05:00 6.1 C 92 % 4.9 C
3515 20-02-2014 05:10:00 6 C 92 % 4.8 C
3516 20-02-2014 05:15:00 5.8 C 92 % 4.6 C
3517 20-02-2014 05:20:00 5.7 C 92 % 4.5 C
3518 20-02-2014 05:25:00 5.7 C 93 % 4.66 C
3519 20-02-2014 05:30:00 5.8 C 93 % 4.76 C
3520 20-02-2014 05:35:00 5.8 C 93 % 4.76 C
3521 20-02-2014 05:40:00 5.8 C 93 % 4.76 C
3522 20-02-2014 05:45:00 5.8 C 93 % 4.76 C
3523 20-02-2014 05:50:00 5.9 C 94 % 5.01 C
3524 20-02-2014 05:55:00 5.9 C 94 % 5.01 C
3525 20-02-2014 06:00:00 6 C 93 % 4.96 C
Sensor: Nr:Datum:Temp:Feuchte:Taupunkt:
Aussen-T/F 3526 20-02-2014 06:05:00 6 C 93 % 4.96 C
3527 20-02-2014 06:10:00 6 C 93 % 4.96 C
3528 20-02-2014 06:15:00 6 C 93 % 4.96 C
3529 20-02-2014 06:20:00 6 C 93 % 4.96 C
3530 20-02-2014 06:25:00 6.1 C 93 % 5.06 C
3531 20-02-2014 06:30:00 6 C 93 % 4.96 C
3532 20-02-2014 06:35:00 5.9 C 93 % 4.86 C
3533 20-02-2014 06:40:00 5.9 C 93 % 4.86 C
3534 20-02-2014 06:45:00 5.9 C 93 % 4.86 C
3535 20-02-2014 06:50:00 5.9 C 93 % 4.86 C
3536 20-02-2014 06:55:00 5.9 C 93 % 4.86 C
3537 20-02-2014 07:00:00 6 C 93 % 4.96 C
3538 20-02-2014 07:05:00 6.1 C 93 % 5.06 C
3539 20-02-2014 07:10:00 6 C 93 % 4.96 C
3540 20-02-2014 07:15:00 6 C 93 % 4.96 C
3541 20-02-2014 07:20:00 5.9 C 93 % 4.86 C
3542 20-02-2014 07:25:00 6 C 93 % 4.96 C
3543 20-02-2014 07:30:00 6 C 93 % 4.96 C
3544 20-02-2014 07:35:00 6.1 C 93 % 5.06 C
3545 20-02-2014 07:40:00 6.2 C 93 % 5.15 C
3546 20-02-2014 07:45:00 6.2 C 93 % 5.15 C
3547 20-02-2014 07:50:00 6.3 C 93 % 5.25 C
3548 20-02-2014 07:55:00 6.3 C 93 % 5.25 C
3549 20-02-2014 08:00:00 6.3 C 93 % 5.25 C
3550 20-02-2014 08:05:00 6.4 C 93 % 5.35 C
Sensor: Nr:Datum:Temp:Feuchte:Taupunkt:
Aussen-T/F 3551 20-02-2014 08:10:00 6.4 C 93 % 5.35 C
3552 20-02-2014 08:15:00 6.5 C 93 % 5.45 C
3553 20-02-2014 08:20:00 6.6 C 92 % 5.4 C
3554 20-02-2014 08:25:00 6.6 C 91 % 5.24 C
3555 20-02-2014 08:30:00 6.8 C 91 % 5.44 C
3556 20-02-2014 08:35:00 6.8 C 91 % 5.44 C
3557 20-02-2014 08:40:00 6.9 C 90 % 5.38 C
3558 20-02-2014 08:45:00 7.1 C 89 % 5.41 C
3559 20-02-2014 08:50:00 7.2 C 88 % 5.35 C
3560 20-02-2014 08:55:00 7.4 C 88 % 5.55 C
3561 20-02-2014 09:00:00 7.5 C 87 % 5.48 C
3562 20-02-2014 09:05:00 7.7 C 87 % 5.68 C
3563 20-02-2014 09:10:00 7.7 C 86 % 5.51 C
3564 20-02-2014 09:15:00 7.8 C 86 % 5.61 C
3565 20-02-2014 09:20:00 7.8 C 85 % 5.44 C
3566 20-02-2014 09:25:00 7.9 C 85 % 5.54 C
3567 20-02-2014 09:30:00 8 C 85 % 5.64 C
3568 20-02-2014 09:35:00 8.1 C 85 % 5.73 C
3569 20-02-2014 09:40:00 8.2 C 86 % 6 C
3570 20-02-2014 09:45:00 8.3 C 84 % 5.76 C
3571 20-02-2014 09:50:00 8.4 C 84 % 5.86 C
3572 20-02-2014 09:55:00 8.4 C 84 % 5.86 C
3573 20-02-2014 10:00:00 8.6 C 83 % 5.88 C
3574 20-02-2014 10:05:00 8.6 C 82 % 5.71 C
3575 20-02-2014 10:10:00 8.7 C 83 % 5.98 C
Sensor: Nr:Datum:Temp:Feuchte:Taupunkt:
Aussen-T/F 3576 20-02-2014 10:15:00 8.7 C 82 % 5.8 C
3577 20-02-2014 10:20:00 8.8 C 82 % 5.9 C
3578 20-02-2014 10:25:00 8.8 C 81 % 5.72 C
3579 20-02-2014 10:30:00 8.9 C 82 % 6 C
3580 20-02-2014 10:35:00 8.9 C 81 % 5.82 C
3581 20-02-2014 10:40:00 9 C 81 % 5.92 C
3582 20-02-2014 10:45:00 9.1 C 80 % 5.84 C
3583 20-02-2014 10:50:00 9.2 C 82 % 6.29 C
3584 20-02-2014 10:55:00 9.3 C 80 % 6.03 C
3585 20-02-2014 11:00:00 9.4 C 79 % 5.95 C
3586 20-02-2014 11:05:00 9.6 C 78 % 5.96 C
3587 20-02-2014 11:10:00 9.6 C 78 % 5.96 C
3588 20-02-2014 11:15:00 9.6 C 78 % 5.96 C
3589 20-02-2014 11:20:00 9.6 C 78 % 5.96 C
3590 20-02-2014 11:25:00 9.6 C 77 % 5.77 C
3591 20-02-2014 11:30:00 9.6 C 77 % 5.77 C
3592 20-02-2014 11:35:00 9.7 C 77 % 5.87 C
3593 20-02-2014 11:40:00 9.8 C 75 % 5.59 C
3594 20-02-2014 11:45:00 10 C 74 % 5.59 C
3595 20-02-2014 11:50:00 10.1 C 73 % 5.49 C
3596 20-02-2014 11:55:00 10.2 C 74 % 5.78 C
3597 20-02-2014 12:00:00 10.2 C 72 % 5.39 C
3598 20-02-2014 12:05:00 10.2 C 72 % 5.39 C
3599 20-02-2014 12:10:00 10.2 C 73 % 5.58 C
3600 20-02-2014 12:15:00 10.4 C 73 % 5.78 C
Sensor: Nr:Datum:Temp:Feuchte:Taupunkt:
Aussen-T/F 3601 20-02-2014 12:20:00 10.7 C 72 % 5.87 C
3602 20-02-2014 12:25:00 10.9 C 70 % 5.65 C
3603 20-02-2014 12:30:00 10.9 C 69 % 5.44 C
3604 20-02-2014 12:35:00 11 C 68 % 5.33 C
3605 20-02-2014 12:40:00 11.1 C 68 % 5.43 C
3606 20-02-2014 12:45:00 11.2 C 68 % 5.52 C
3607 20-02-2014 12:50:00 11.2 C 67 % 5.31 C
3608 20-02-2014 12:55:00 11.2 C 67 % 5.31 C
3609 20-02-2014 13:00:00 11.3 C 68 % 5.62 C
3610 20-02-2014 13:05:00 11.3 C 67 % 5.4 C
3611 20-02-2014 13:10:00 11.3 C 66 % 5.19 C
3612 20-02-2014 13:15:00 11.3 C 67 % 5.4 C
3613 20-02-2014 13:20:00 11.3 C 67 % 5.4 C
3614 20-02-2014 13:25:00 11.3 C 67 % 5.4 C
3615 20-02-2014 13:30:00 11.4 C 68 % 5.71 C
3616 20-02-2014 13:35:00 11.4 C 67 % 5.5 C
3617 20-02-2014 13:40:00 11.4 C 67 % 5.5 C
3618 20-02-2014 13:45:00 11.4 C 68 % 5.71 C
3619 20-02-2014 13:50:00 11.4 C 67 % 5.5 C
3620 20-02-2014 13:55:00 11.4 C 68 % 5.71 C
3621 20-02-2014 14:00:00 11.4 C 68 % 5.71 C
3622 20-02-2014 14:05:00 11.3 C 68 % 5.62 C
3623 20-02-2014 14:10:00 11.4 C 69 % 5.92 C
3624 20-02-2014 14:15:00 11.4 C 69 % 5.92 C
3625 20-02-2014 14:20:00 11.4 C 69 % 5.92 C
Sensor: Nr:Datum:Temp:Feuchte:Taupunkt:
Aussen-T/F 3626 20-02-2014 14:25:00 11.3 C 68 % 5.62 C
3627 20-02-2014 14:30:00 11.2 C 70 % 5.94 C
3628 20-02-2014 14:35:00 11.2 C 70 % 5.94 C
3629 20-02-2014 14:40:00 11.1 C 70 % 5.84 C
3630 20-02-2014 14:45:00 11.1 C 71 % 6.05 C
3631 20-02-2014 14:50:00 11 C 72 % 6.15 C
3632 20-02-2014 14:55:00 10.9 C 73 % 6.26 C
3633 20-02-2014 15:00:00 11 C 73 % 6.35 C
3634 20-02-2014 15:05:00 11 C 73 % 6.35 C
3635 20-02-2014 15:10:00 11 C 73 % 6.35 C
3636 20-02-2014 15:15:00 11 C 73 % 6.35 C
3637 20-02-2014 15:20:00 11 C 73 % 6.35 C
3638 20-02-2014 15:25:00 11.1 C 74 % 6.65 C
3639 20-02-2014 15:30:00 11.2 C 73 % 6.55 C
3640 20-02-2014 15:35:00 11.3 C 73 % 6.64 C
3641 20-02-2014 15:40:00 11.3 C 72 % 6.44 C
3642 20-02-2014 15:45:00 11.3 C 72 % 6.44 C
3643 20-02-2014 15:50:00 11.3 C 72 % 6.44 C
3644 20-02-2014 15:55:00 11.3 C 72 % 6.44 C
3645 20-02-2014 16:00:00 11.3 C 72 % 6.44 C
3646 20-02-2014 16:05:00 11.3 C 72 % 6.44 C
3647 20-02-2014 16:10:00 11.3 C 72 % 6.44 C
3648 20-02-2014 16:15:00 11.3 C 73 % 6.64 C
3649 20-02-2014 16:20:00 11.3 C 73 % 6.64 C
3650 20-02-2014 16:25:00 11.3 C 72 % 6.44 C
Sensor: Nr:Datum:Temp:Feuchte:Taupunkt:
Aussen-T/F 3651 20-02-2014 16:30:00 11.3 C 73 % 6.64 C
3652 20-02-2014 16:35:00 11.2 C 73 % 6.55 C
3653 20-02-2014 16:40:00 11.2 C 73 % 6.55 C
3654 20-02-2014 16:45:00 11.2 C 74 % 6.74 C
3655 20-02-2014 16:50:00 11.2 C 73 % 6.55 C
3656 20-02-2014 16:55:00 11.2 C 75 % 6.94 C
3657 20-02-2014 17:00:00 11.1 C 76 % 7.04 C
3658 20-02-2014 17:05:00 11 C 75 % 6.75 C
3659 20-02-2014 17:10:00 11 C 76 % 6.94 C
3660 20-02-2014 17:15:00 10.9 C 74 % 6.45 C
3661 20-02-2014 17:20:00 10.9 C 75 % 6.65 C
3662 20-02-2014 17:25:00 11 C 75 % 6.75 C
3663 20-02-2014 17:30:00 10.9 C 76 % 6.84 C
3664 20-02-2014 17:35:00 10.8 C 76 % 6.75 C
3665 20-02-2014 17:40:00 10.8 C 75 % 6.55 C
3666 20-02-2014 17:45:00 10.8 C 76 % 6.75 C
3667 20-02-2014 17:50:00 10.7 C 77 % 6.84 C
3668 20-02-2014 17:55:00 10.6 C 76 % 6.55 C
3669 20-02-2014 18:00:00 10.4 C 78 % 6.74 C
3670 20-02-2014 18:05:00 10.3 C 78 % 6.64 C
3671 20-02-2014 18:10:00 10.2 C 79 % 6.73 C
3672 20-02-2014 18:15:00 10.1 C 80 % 6.81 C
3673 20-02-2014 18:20:00 10 C 79 % 6.53 C
3674 20-02-2014 18:25:00 9.9 C 81 % 6.8 C
3675 20-02-2014 18:30:00 9.8 C 81 % 6.7 C
Sensor: Nr:Datum:Temp:Feuchte:Taupunkt:
Aussen-T/F 3676 20-02-2014 18:35:00 9.8 C 79 % 6.34 C
3677 20-02-2014 18:40:00 9.8 C 80 % 6.52 C
3678 20-02-2014 18:45:00 9.8 C 80 % 6.52 C
3679 20-02-2014 18:50:00 9.7 C 81 % 6.6 C
3680 20-02-2014 18:55:00 9.6 C 81 % 6.5 C
3681 20-02-2014 19:00:00 9.6 C 82 % 6.68 C
3682 20-02-2014 19:05:00 9.6 C 80 % 6.32 C
3683 20-02-2014 19:10:00 9.6 C 80 % 6.32 C
3684 20-02-2014 19:15:00 9.6 C 81 % 6.5 C
3685 20-02-2014 19:20:00 9.6 C 80 % 6.32 C
3686 20-02-2014 19:25:00 9.8 C 79 % 6.34 C
3687 20-02-2014 19:30:00 9.9 C 79 % 6.43 C
3688 20-02-2014 19:35:00 9.8 C 79 % 6.34 C
3689 20-02-2014 19:40:00 9.8 C 79 % 6.34 C
3690 20-02-2014 19:45:00 9.9 C 78 % 6.25 C
3691 20-02-2014 19:50:00 9.9 C 79 % 6.43 C
3692 20-02-2014 19:55:00 9.9 C 78 % 6.25 C
3693 20-02-2014 20:00:00 9.9 C 79 % 6.43 C
3694 20-02-2014 20:05:00 9.8 C 79 % 6.34 C
3695 20-02-2014 20:10:00 9.8 C 80 % 6.52 C
3696 20-02-2014 20:15:00 9.6 C 82 % 6.68 C
3697 20-02-2014 20:20:00 9.5 C 81 % 6.41 C
3698 20-02-2014 20:25:00 9.4 C 83 % 6.66 C
3699 20-02-2014 20:30:00 9.4 C 83 % 6.66 C
3700 20-02-2014 20:35:00 9.3 C 82 % 6.39 C
Sensor: Nr:Datum:Temp:Feuchte:Taupunkt:
Aussen-T/F 3701 20-02-2014 20:40:00 9.2 C 83 % 6.47 C
3702 20-02-2014 20:45:00 9.2 C 81 % 6.11 C
3703 20-02-2014 20:50:00 9.3 C 82 % 6.39 C
3704 20-02-2014 20:55:00 9.3 C 82 % 6.39 C
3705 20-02-2014 21:00:00 9.4 C 83 % 6.66 C
3706 20-02-2014 21:05:00 9.4 C 82 % 6.49 C
3707 20-02-2014 21:10:00 9.4 C 82 % 6.49 C
3708 20-02-2014 21:15:00 9.6 C 82 % 6.68 C
3709 20-02-2014 21:20:00 9.7 C 82 % 6.78 C
3710 20-02-2014 21:25:00 9.7 C 81 % 6.6 C
3711 20-02-2014 21:30:00 9.8 C 81 % 6.7 C
3712 20-02-2014 21:35:00 9.8 C 82 % 6.88 C
3713 20-02-2014 21:40:00 9.7 C 82 % 6.78 C
3714 20-02-2014 21:45:00 9.6 C 83 % 6.86 C
3715 20-02-2014 21:50:00 9.6 C 83 % 6.86 C
3716 20-02-2014 21:55:00 9.5 C 83 % 6.76 C
3717 20-02-2014 22:00:00 9.6 C 82 % 6.68 C
3718 20-02-2014 22:05:00 9.7 C 83 % 6.96 C
3719 20-02-2014 22:10:00 9.7 C 82 % 6.78 C
3720 20-02-2014 22:15:00 9.8 C 83 % 7.05 C
3721 20-02-2014 22:20:00 9.7 C 83 % 6.96 C
3722 20-02-2014 22:25:00 9.7 C 83 % 6.96 C
3723 20-02-2014 22:30:00 9.8 C 83 % 7.05 C
3724 20-02-2014 22:35:00 9.7 C 84 % 7.13 C
3725 20-02-2014 22:40:00 9.6 C 84 % 7.03 C
Sensor: Nr:Datum:Temp:Feuchte:Taupunkt:
Aussen-T/F 3726 20-02-2014 22:45:00 9.6 C 84 % 7.03 C
3727 20-02-2014 22:50:00 9.5 C 85 % 7.11 C
3728 20-02-2014 22:55:00 9.4 C 85 % 7.01 C
3729 20-02-2014 23:00:00 9.3 C 85 % 6.91 C
3730 20-02-2014 23:05:00 9.3 C 86 % 7.08 C
3731 20-02-2014 23:10:00 9.3 C 86 % 7.08 C
3732 20-02-2014 23:15:00 9.4 C 86 % 7.18 C
3733 20-02-2014 23:20:00 9.4 C 86 % 7.18 C
3734 20-02-2014 23:25:00 9.4 C 86 % 7.18 C
3735 20-02-2014 23:30:00 9.4 C 87 % 7.35 C
3736 20-02-2014 23:35:00 9.4 C 87 % 7.35 C
3737 20-02-2014 23:40:00 9.4 C 87 % 7.35 C
3738 20-02-2014 23:45:00 9.5 C 86 % 7.28 C
3739 20-02-2014 23:50:00 9.6 C 86 % 7.38 C
3740 20-02-2014 23:55:00 9.6 C 87 % 7.55 C
3741 21-02-2014 00:00:00 9.4 C 87 % 7.35 C
3742 21-02-2014 00:05:00 9.4 C 87 % 7.35 C
3743 21-02-2014 00:10:00 9.3 C 88 % 7.42 C
3744 21-02-2014 00:15:00 9.3 C 88 % 7.42 C
3745 21-02-2014 00:20:00 9.4 C 88 % 7.52 C
3746 21-02-2014 00:25:00 9.4 C 88 % 7.52 C
3747 21-02-2014 00:30:00 9.4 C 88 % 7.52 C
3748 21-02-2014 00:35:00 9.4 C 88 % 7.52 C
3749 21-02-2014 00:40:00 9.4 C 88 % 7.52 C
3750 21-02-2014 00:45:00 9.4 C 88 % 7.52 C
Sensor: Nr:Datum:Temp:Feuchte:Taupunkt:
Aussen-T/F 3751 21-02-2014 00:50:00 9.4 C 88 % 7.52 C
3752 21-02-2014 00:55:00 9.4 C 88 % 7.52 C
3753 21-02-2014 01:00:00 9.6 C 88 % 7.71 C
3754 21-02-2014 01:05:00 9.6 C 88 % 7.71 C
3755 21-02-2014 01:10:00 9.7 C 88 % 7.81 C
3756 21-02-2014 01:15:00 9.7 C 87 % 7.64 C
3757 21-02-2014 01:20:00 9.7 C 88 % 7.81 C
3758 21-02-2014 01:25:00 9.7 C 88 % 7.81 C
3759 21-02-2014 01:30:00 9.6 C 88 % 7.71 C
3760 21-02-2014 01:35:00 9.6 C 88 % 7.71 C
3761 21-02-2014 01:40:00 9.6 C 88 % 7.71 C
3762 21-02-2014 01:45:00 9.6 C 88 % 7.71 C
3763 21-02-2014 01:50:00 9.7 C 88 % 7.81 C
3764 21-02-2014 01:55:00 9.7 C 88 % 7.81 C
3765 21-02-2014 02:00:00 9.8 C 88 % 7.91 C
3766 21-02-2014 02:05:00 9.8 C 88 % 7.91 C
3767 21-02-2014 02:10:00 9.9 C 88 % 8.01 C
3768 21-02-2014 02:15:00 9.9 C 88 % 8.01 C
3769 21-02-2014 02:20:00 9.8 C 88 % 7.91 C
3770 21-02-2014 02:25:00 9.7 C 88 % 7.81 C
3771 21-02-2014 02:30:00 9.7 C 88 % 7.81 C
3772 21-02-2014 02:35:00 9.7 C 88 % 7.81 C
3773 21-02-2014 02:40:00 9.6 C 89 % 7.88 C
3774 21-02-2014 02:45:00 9.6 C 89 % 7.88 C
3775 21-02-2014 02:50:00 9.6 C 89 % 7.88 C
Sensor: Nr:Datum:Temp:Feuchte:Taupunkt:
Aussen-T/F 3776 21-02-2014 02:55:00 9.7 C 88 % 7.81 C
3777 21-02-2014 03:00:00 9.7 C 88 % 7.81 C
3778 21-02-2014 03:05:00 9.5 C 88 % 7.61 C
3779 21-02-2014 03:10:00 9.4 C 89 % 7.68 C
3780 21-02-2014 03:15:00 9.4 C 88 % 7.52 C
3781 21-02-2014 03:20:00 9.4 C 88 % 7.52 C
3782 21-02-2014 03:25:00 9.5 C 89 % 7.78 C
3783 21-02-2014 03:30:00 9.5 C 89 % 7.78 C
3784 21-02-2014 03:35:00 9.4 C 89 % 7.68 C
3785 21-02-2014 03:40:00 9.4 C 89 % 7.68 C
3786 21-02-2014 03:45:00 9.3 C 89 % 7.58 C
3787 21-02-2014 03:50:00 9.4 C 89 % 7.68 C
3788 21-02-2014 03:55:00 9.5 C 89 % 7.78 C
3789 21-02-2014 04:00:00 9.6 C 88 % 7.71 C
3790 21-02-2014 04:05:00 9.5 C 88 % 7.61 C
3791 21-02-2014 04:10:00 9.6 C 88 % 7.71 C
3792 21-02-2014 04:15:00 9.7 C 87 % 7.64 C
3793 21-02-2014 04:20:00 9.7 C 86 % 7.47 C
3794 21-02-2014 04:25:00 9.7 C 86 % 7.47 C
3795 21-02-2014 04:30:00 9.7 C 85 % 7.3 C
3796 21-02-2014 04:35:00 9.5 C 86 % 7.28 C
3797 21-02-2014 04:40:00 9.4 C 86 % 7.18 C
3798 21-02-2014 04:45:00 9.3 C 86 % 7.08 C
3799 21-02-2014 04:50:00 9.3 C 86 % 7.08 C
3800 21-02-2014 04:55:00 9.3 C 86 % 7.08 C
Sensor: Nr:Datum:Temp:Feuchte:Taupunkt:
Aussen-T/F 3801 21-02-2014 05:00:00 9.3 C 85 % 6.91 C
3802 21-02-2014 05:05:00 9.4 C 85 % 7.01 C
3803 21-02-2014 05:10:00 9.4 C 83 % 6.66 C
3804 21-02-2014 05:15:00 9.5 C 83 % 6.76 C
3805 21-02-2014 05:20:00 9.5 C 82 % 6.59 C
3806 21-02-2014 05:25:00 9.6 C 82 % 6.68 C
3807 21-02-2014 05:30:00 9.5 C 82 % 6.59 C
3808 21-02-2014 05:35:00 9.4 C 82 % 6.49 C
3809 21-02-2014 05:40:00 9.4 C 83 % 6.66 C
3810 21-02-2014 05:45:00 9.4 C 83 % 6.66 C
3811 21-02-2014 05:50:00 9.2 C 84 % 6.64 C
3812 21-02-2014 05:55:00 9 C 85 % 6.62 C
3813 21-02-2014 06:00:00 8.8 C 86 % 6.59 C
3814 21-02-2014 06:05:00 8.4 C 86 % 6.2 C
3815 21-02-2014 06:10:00 8.2 C 88 % 6.33 C
3816 21-02-2014 06:15:00 8 C 89 % 6.3 C
3817 21-02-2014 06:20:00 7.9 C 90 % 6.36 C
3818 21-02-2014 06:25:00 8.1 C 89 % 6.4 C
3819 21-02-2014 06:30:00 8.2 C 89 % 6.5 C
3820 21-02-2014 06:35:00 8.2 C 89 % 6.5 C
3821 21-02-2014 06:40:00 8.2 C 89 % 6.5 C
3822 21-02-2014 06:45:00 8.2 C 88 % 6.33 C
3823 21-02-2014 06:50:00 8.2 C 89 % 6.5 C
3824 21-02-2014 06:55:00 8.2 C 88 % 6.33 C
3825 21-02-2014 07:00:00 8.3 C 88 % 6.43 C
Sensor: Nr:Datum:Temp:Feuchte:Taupunkt:
Aussen-T/F 3826 21-02-2014 07:05:00 8.3 C 88 % 6.43 C
3827 21-02-2014 07:10:00 8.3 C 87 % 6.27 C
3828 21-02-2014 07:15:00 8.2 C 87 % 6.17 C
3829 21-02-2014 07:20:00 7.9 C 88 % 6.04 C
3830 21-02-2014 07:25:00 7.9 C 88 % 6.04 C
3831 21-02-2014 07:30:00 7.9 C 88 % 6.04 C
3832 21-02-2014 07:35:00 7.8 C 88 % 5.94 C
3833 21-02-2014 07:40:00 7.8 C 88 % 5.94 C
3834 21-02-2014 07:45:00 7.8 C 88 % 5.94 C
3835 21-02-2014 07:50:00 7.7 C 88 % 5.84 C
3836 21-02-2014 07:55:00 7.6 C 88 % 5.74 C
3837 21-02-2014 08:00:00 7.8 C 87 % 5.78 C
3838 21-02-2014 08:05:00 8.2 C 85 % 5.83 C
3839 21-02-2014 08:10:00 8.3 C 84 % 5.76 C
3840 21-02-2014 08:15:00 8.2 C 84 % 5.66 C
3841 21-02-2014 08:20:00 8.1 C 84 % 5.56 C
3842 21-02-2014 08:25:00 8.1 C 85 % 5.73 C
3843 21-02-2014 08:30:00 8.3 C 84 % 5.76 C
3844 21-02-2014 08:35:00 8.3 C 84 % 5.76 C
3845 21-02-2014 08:40:00 8.3 C 84 % 5.76 C
3846 21-02-2014 08:45:00 8.3 C 84 % 5.76 C
3847 21-02-2014 08:50:00 8.6 C 84 % 6.05 C
3848 21-02-2014 08:55:00 8.6 C 83 % 5.88 C
3849 21-02-2014 09:00:00 8.7 C 82 % 5.8 C
3850 21-02-2014 09:05:00 8.7 C 82 % 5.8 C
Sensor: Nr:Datum:Temp:Feuchte:Taupunkt:
Aussen-T/F 3851 21-02-2014 09:10:00 8.7 C 81 % 5.63 C
3852 21-02-2014 09:15:00 8.7 C 80 % 5.45 C
3853 21-02-2014 09:20:00 8.7 C 81 % 5.63 C
3854 21-02-2014 09:25:00 8.7 C 81 % 5.63 C
3855 21-02-2014 09:30:00 8.9 C 80 % 5.64 C
3856 21-02-2014 09:35:00 9 C 79 % 5.56 C
3857 21-02-2014 09:40:00 9.1 C 79 % 5.66 C
3858 21-02-2014 09:45:00 9.2 C 78 % 5.57 C
3859 21-02-2014 09:50:00 9.2 C 78 % 5.57 C
3860 21-02-2014 09:55:00 9.2 C 78 % 5.57 C
3861 21-02-2014 10:00:00 9.2 C 77 % 5.38 C
3862 21-02-2014 10:05:00 9.2 C 77 % 5.38 C
3863 21-02-2014 10:10:00 9.2 C 77 % 5.38 C
3864 21-02-2014 10:15:00 9.1 C 78 % 5.47 C
3865 21-02-2014 10:20:00 9.1 C 79 % 5.66 C
3866 21-02-2014 10:25:00 9.1 C 78 % 5.47 C
3867 21-02-2014 10:30:00 9.1 C 79 % 5.66 C
3868 21-02-2014 10:35:00 9.2 C 79 % 5.75 C
3869 21-02-2014 10:40:00 9.4 C 79 % 5.95 C
3870 21-02-2014 10:45:00 9.6 C 77 % 5.77 C
3871 21-02-2014 10:50:00 9.6 C 76 % 5.58 C
3872 21-02-2014 10:55:00 9.6 C 77 % 5.77 C
3873 21-02-2014 11:00:00 9.6 C 75 % 5.39 C
3874 21-02-2014 11:05:00 9.7 C 75 % 5.49 C
3875 21-02-2014 11:10:00 9.8 C 74 % 5.39 C
Sensor: Nr:Datum:Temp:Feuchte:Taupunkt:
Aussen-T/F 3876 21-02-2014 11:15:00 9.8 C 75 % 5.59 C
3877 21-02-2014 11:20:00 9.3 C 76 % 5.29 C
3878 21-02-2014 11:25:00 8.6 C 81 % 5.53 C
3879 21-02-2014 11:30:00 8.3 C 83 % 5.59 C
3880 21-02-2014 11:35:00 8.2 C 84 % 5.66 C
3881 21-02-2014 11:40:00 8.2 C 84 % 5.66 C
3882 21-02-2014 11:45:00 8.3 C 82 % 5.41 C
3883 21-02-2014 11:50:00 8.7 C 81 % 5.63 C
3884 21-02-2014 11:55:00 8.4 C 81 % 5.33 C
3885 21-02-2014 12:00:00 7.6 C 85 % 5.24 C
3886 21-02-2014 12:05:00 7.1 C 87 % 5.09 C
3887 21-02-2014 12:10:00 7.1 C 89 % 5.41 C
3888 21-02-2014 12:15:00 7.2 C 89 % 5.51 C
3889 21-02-2014 12:20:00 7.4 C 88 % 5.55 C
3890 21-02-2014 12:25:00 7.6 C 89 % 5.91 C
3891 21-02-2014 12:30:00 7.8 C 86 % 5.61 C
3892 21-02-2014 12:35:00 8.1 C 86 % 5.9 C
3893 21-02-2014 12:40:00 8.4 C 86 % 6.2 C
3894 21-02-2014 12:45:00 8.7 C 84 % 6.15 C
3895 21-02-2014 12:50:00 9.1 C 81 % 6.02 C
3896 21-02-2014 12:55:00 8.9 C 81 % 5.82 C
3897 21-02-2014 13:00:00 8.8 C 78 % 5.18 C
3898 21-02-2014 13:05:00 8.8 C 78 % 5.18 C
3899 21-02-2014 13:10:00 9 C 79 % 5.56 C
3900 21-02-2014 13:15:00 9 C 77 % 5.19 C
Sensor: Nr:Datum:Temp:Feuchte:Taupunkt:
Aussen-T/F 3901 21-02-2014 13:20:00 8.9 C 77 % 5.09 C
3902 21-02-2014 13:25:00 8.6 C 76 % 4.62 C